Provisional Data: Catatonk Creek near Spencer, NY


Please select a monitoring station.
Please select start date.
Please select start date.

Toggle Unit: C/F Toggle Unit: C/F
Sample Time Temperature (C) Temperature (F) Specific Conductivity (mS/cm) pH   Turbidity (NTU+) DO (mg/L)
6/3/2022 12:00:00 AM 19.1 66.38 0.394 7.61 7.04 5.69
6/3/2022 12:15:00 AM 19.06 66.308 0.389 7.63 7.24 5.67
6/3/2022 12:30:00 AM 18.9 66.02 0.391 7.62 7.58 5.63
6/3/2022 12:45:00 AM 18.38 65.084 0.398 7.59 7.59 5.44
6/3/2022 1:00:00 AM 18.49 65.282 0.395 7.6 7.26 5.53
6/3/2022 1:15:00 AM 18.54 65.372 0.395 7.59 7.27 5.52
6/3/2022 1:30:00 AM 18.54 65.372 0.395 7.6 7.19 5.64
6/3/2022 1:45:00 AM 18.49 65.282 0.394 7.6 7.08 5.49
6/3/2022 2:00:00 AM 18.31 64.958 0.4 7.6 7.34 5.42
6/3/2022 2:15:00 AM 18.23 64.814 0.399 7.6 7.92 5.28
6/3/2022 2:30:00 AM 17.95 64.31 0.402 7.57 6.87 5.39
6/3/2022 2:45:00 AM 18.23 64.814 0.398 7.59 7 5.52
6/3/2022 3:00:00 AM 18.15 64.67 0.395 7.58 7.51 5.58
6/3/2022 3:15:00 AM 17.94 64.292 0.399 7.57 7.21 5.38
6/3/2022 3:30:00 AM 18.1 64.58 0.395 7.6 9.36 5.68
6/3/2022 3:45:00 AM 17.62 63.716 0.402 7.57 7.69 5.4
6/3/2022 4:00:00 AM 17.56 63.608 0.404 7.56 7 5.27
6/3/2022 4:15:00 AM 17.81 64.058 0.398 7.58 7.61 5.61
6/3/2022 4:30:00 AM 17.83 64.094 0.396 7.6 8.02 5.68
6/3/2022 4:45:00 AM 17.42 63.356 0.404 7.57 7.55 5.49
6/3/2022 5:00:00 AM 17.44 63.392 0.4 7.55 7.95 5.54
6/3/2022 5:15:00 AM 17.29 63.122 0.401 7.58 8.29 5.58
6/3/2022 5:30:00 AM 17.37 63.266 0.397 7.57 7.83 5.68
6/3/2022 5:45:00 AM 16.58 61.844 0.408 7.55 8.47 5.39
6/3/2022 6:00:00 AM 16.98 62.564 0.403 7.57 8 5.43
6/3/2022 6:15:00 AM 17.02 62.636 0.399 7.57 7.73 5.5
6/3/2022 6:30:00 AM 16.45 61.61 0.407 7.53 7.81 5.19
6/3/2022 6:45:00 AM 16.64 61.952 0.402 7.57 7.46 5.52
6/3/2022 7:00:00 AM 16.78 62.204 0.402 7.59 7.7 5.91
6/3/2022 7:15:00 AM 16.6 61.88 0.399 7.55 8.13 5.77
6/3/2022 7:30:00 AM 16.64 61.952 0.397 7.58 8.01 5.74
6/3/2022 7:45:00 AM 16.5 61.7 0.398 7.56 7.5 5.86
6/3/2022 8:00:00 AM 16.33 61.394 0.403 7.54 6.7 5.31
6/3/2022 8:15:00 AM 16.44 61.592 0.398 7.58 7.27 5.87
6/3/2022 8:30:00 AM 16.07 60.926 0.41 7.56 7.46 5.89
6/3/2022 8:45:00 AM 16.22 61.196 0.397 7.58 8.93 5.6
6/3/2022 9:00:00 AM 16.04 60.872 0.408 7.56 7.32 5.97
6/3/2022 9:15:00 AM 15.98 60.764 0.408 7.54 6.22 5.52
6/3/2022 9:30:00 AM 16.16 61.088 0.411 7.58 5.67 6.34
6/3/2022 9:45:00 AM 16.48 61.664 0.402 7.59 5.69 6.37
6/3/2022 10:00:00 AM 16.36 61.448 0.406 7.56 5.68 6.19
6/3/2022 10:15:00 AM 16.55 61.79 0.403 7.57 5.72 5.72
6/3/2022 10:30:00 AM 16.72 62.096 0.402 7.59 5.77 6.36
6/3/2022 10:45:00 AM 16.46 61.628 0.401 7.56 5.67 6.45
6/3/2022 11:00:00 AM 16.89 62.402 0.404 7.58 5.92 6.83
6/3/2022 11:15:00 AM 16.8 62.24 0.406 7.6 6.57 6.76
6/3/2022 11:30:00 AM 16.8 62.24 0.406 7.59 5.16 6.79
6/3/2022 11:45:00 AM 17.34 63.212 0.4 7.61 5.29 7
6/3/2022 12:00:00 PM 17.31 63.158 0.398 7.64 6.63 7.17
6/3/2022 12:15:00 PM 17.69 63.842 0.393 7.68 5.34 7.47
6/3/2022 12:30:00 PM 17.6 63.68 0.402 7.63 5.18 7.03
6/3/2022 12:45:00 PM 17.56 63.608 0.4 7.62 5.33 7.19
6/3/2022 1:00:00 PM 17.95 64.31 0.393 7.7 5.03 7.61
6/3/2022 1:15:00 PM 17.99 64.382 0.4 7.65 5.05 7.43
6/3/2022 1:30:00 PM 18.28 64.904 0.394 7.7 4.75 7.73
6/3/2022 1:45:00 PM 18.19 64.742 0.399 7.71 4.95 7.71
6/3/2022 2:00:00 PM 18.26 64.868 0.399 7.67 4.75 7.38
6/3/2022 2:15:00 PM 18.19 64.742 0.399 7.67 5.65 7.46
6/3/2022 2:30:00 PM 18.41 65.138 0.397 7.64 4.29 7.47
6/3/2022 2:45:00 PM 18.2 64.76 0.402 7.74 4.88 7.42
6/3/2022 3:00:00 PM 18.43 65.174 0.402 7.64 4.62 7.04
6/3/2022 3:15:00 PM 18.52 65.336 0.396 7.74 4.78 7.62
6/3/2022 3:30:00 PM 18.31 64.958 0.398 7.65 4.53 7.25
6/3/2022 3:45:00 PM 18.49 65.282 0.403 7.72 4.64 7.51
6/3/2022 4:00:00 PM 18.79 65.82201 0.399 7.75 4.73 7.72
6/3/2022 4:15:00 PM 18.78 65.804 0.395 7.67 4.46 7.47
6/3/2022 4:30:00 PM 18.88 65.984 0.394 7.71 4.58 7.6
6/3/2022 4:45:00 PM 18.75 65.75 0.399 7.76 4.76 7.82
6/3/2022 5:00:00 PM 19.02 66.236 0.396 7.69 5.22 7.43
6/3/2022 5:15:00 PM 18.87 65.966 0.396 7.69 4.56 7.3
6/3/2022 5:30:00 PM 18.95 66.11 0.395 7.71 4.41 7.5
6/3/2022 5:45:00 PM 18.62 65.516 0.401 7.67 4.62 7.36
6/3/2022 6:00:00 PM 18.7 65.66 0.402 7.69 4.32 7.2
6/3/2022 6:15:00 PM 18.87 65.966 0.396 7.75 4.52 7.23
6/3/2022 6:30:00 PM 19.1 66.38 0.391 7.7 4.39 7.16
6/3/2022 6:45:00 PM 18.85 65.93 0.401 7.73 4.5 7.04
6/3/2022 7:00:00 PM 18.83 65.894 0.395 7.67 4.65 6.91
6/3/2022 7:15:00 PM 18.7 65.66 0.4 7.71 4.84 6.89
6/3/2022 7:30:00 PM 18.7 65.66 0.401 7.67 4.78 6.67
6/3/2022 7:45:00 PM 18.85 65.93 0.395 7.71 4.61 6.62
6/3/2022 8:00:00 PM 18.32 64.976 0.412 7.69 5.02 6.66
6/3/2022 8:15:00 PM 18.52 65.336 0.404 7.68 4.88 6.53
6/3/2022 8:30:00 PM 18.54 65.372 0.404 7.68 4.72 6.43
6/3/2022 8:45:00 PM 18.46 65.228 0.404 7.67 5.23 6.4
6/3/2022 9:00:00 PM 18.53 65.354 0.4 7.67 5.61 6.14
6/3/2022 9:15:00 PM 18.26 64.868 0.405 7.64 5.27 6.19
6/3/2022 9:30:00 PM 18.12 64.616 0.407 7.65 5.48 6.01
6/3/2022 9:45:00 PM 18.14 64.652 0.403 7.64 6.47 6.04
6/3/2022 10:00:00 PM 17.84 64.112 0.407 7.62 6.08 5.85
6/3/2022 10:15:00 PM 18.1 64.58 0.401 7.61 7.05 5.98
6/3/2022 10:30:00 PM 17.38 63.284 0.413 7.59 5.94 5.71
6/3/2022 10:45:00 PM 17.34 63.212 0.416 7.58 6.22 5.57
6/3/2022 11:00:00 PM 17.53 63.554 0.405 7.63 6.11 5.76
6/3/2022 11:15:00 PM 17.33 63.194 0.413 7.61 6.13 5.62
6/3/2022 11:30:00 PM 17.25 63.05 0.413 7.58 6.48 5.35
6/3/2022 11:45:00 PM 17.15 62.87 0.411 7.58 6.01 5.47
6/4/2022 12:00:00 AM 17.22 62.996 0.408 7.61 6.53 5.77
6/4/2022 12:15:00 AM 16.64 61.952 0.419 7.52 6.3 4.95
6/4/2022 12:30:00 AM 16.63 61.934 0.417 7.56 6.03 5.49
6/4/2022 12:45:00 AM 16.68 62.024 0.423 7.6 6.9 5.44
6/4/2022 1:00:00 AM 16.69 62.042 0.421 7.56 6.62 5.59
6/4/2022 1:15:00 AM 16.47 61.646 0.424 7.56 6.39 5.42
6/4/2022 1:30:00 AM 16.35 61.43 0.429 7.57 6.04 5.72
6/4/2022 1:45:00 AM 16 60.8 0.443 7.53 6.55 5.27
6/4/2022 2:00:00 AM 16.04 60.872 0.437 7.53 5.74 5.28
6/4/2022 2:15:00 AM 15.94 60.692 0.448 7.57 6.47 5.44
6/4/2022 2:30:00 AM 16.19 61.142 0.443 7.55 6.78 5.51
6/4/2022 2:45:00 AM 15.7 60.26 0.446 7.53 6.42 5.03
6/4/2022 3:00:00 AM 15.63 60.134 0.449 7.55 6.23 5.35
6/4/2022 3:15:00 AM 15.73 60.314 0.445 7.55 6.37 5.39
6/4/2022 3:30:00 AM 15.6 60.08 0.447 7.53 7.47 5.53
6/4/2022 3:45:00 AM 15.56 60.008 0.44 7.56 6.28 5.67
6/4/2022 4:00:00 AM 15.53 59.954 0.44 7.51 6.9 5.3
6/4/2022 4:15:00 AM 15.3 59.54 0.448 7.51 6.43 5.48
6/4/2022 4:30:00 AM 15.11 59.198 0.461 7.52 6.85 5.01
6/4/2022 4:45:00 AM 14.77 58.586 0.461 7.5 6.62 5.12
6/4/2022 5:00:00 AM 14.89 58.802 0.451 7.55 6.23 5.52
6/4/2022 5:15:00 AM 15.07 59.126 0.442 7.53 7.37 5.37
6/4/2022 5:30:00 AM 14.88 58.784 0.441 7.52 6.76 5.71
6/4/2022 5:45:00 AM 14.31 57.758 0.469 7.52 7.71 4.94
6/4/2022 6:00:00 AM 14.6 58.28 0.459 7.54 7.24 5.51
6/4/2022 6:15:00 AM 14.28 57.704 0.473 7.49 6.25 5.59
6/4/2022 6:30:00 AM 14.38 57.884 1.561 7.54 6.69 5.56
6/4/2022 6:45:00 AM 14.14 57.452 1.599 7.48 5.1 5.28
6/4/2022 7:00:00 AM 14.27 57.686 1.221 7.49 5.8 5.46
6/4/2022 7:15:00 AM 14.57 58.226 1.034 7.57 6.48 5.96
6/4/2022 7:30:00 AM 14.4 57.92 1.025 7.56 6.36 5.84
6/4/2022 7:45:00 AM 14.14 57.452 0.823 7.52 6.67 5.71
6/4/2022 8:00:00 AM 14.37 57.866 0.808 7.58 6.27 5.98
6/4/2022 8:15:00 AM 14.23 57.614 1.157 7.55 6.12 5.74
6/4/2022 8:30:00 AM 14.3 57.74 0.868 7.54 5.35 6.06
6/4/2022 8:45:00 AM 14.55 58.19 1.31 7.59 5.41 6.31
6/4/2022 9:00:00 AM 14.23 57.614 1.614 7.51 4.67 5.47
6/4/2022 9:15:00 AM 14.78 58.604 1.772 7.56 5.23 6.56
6/4/2022 9:30:00 AM 14.82 58.676 1.667 7.62 5.09 6.54
6/4/2022 9:45:00 AM 14.61 58.298 1.629 7.55 5 6.13
6/4/2022 10:00:00 AM 14.94 58.892 1.761 7.58 4.95 6.49
6/4/2022 10:15:00 AM 15.13 59.234 2.071 7.59 4.8 6.21
6/4/2022 10:30:00 AM 15.02 59.036 1.982 7.57 4.62 6.43
6/4/2022 10:45:00 AM 14.97 58.946 2.179 7.58 4.59 6.78
6/4/2022 11:00:00 AM 15.47 59.846 1.697 7.61 4.9 6.94
6/4/2022 11:15:00 AM 15.65 60.17 1.675 7.64 4.92 7.39
6/4/2022 11:30:00 AM 16.02 60.836 1.683 7.68 4.86 7.51
6/4/2022 11:45:00 AM 15.84 60.512 2.3 7.61 4.35 6.88
6/4/2022 12:00:00 PM 16.04 60.872 1.541 7.6 4.42 7.38
6/4/2022 12:15:00 PM 16.36 61.448 1.017 7.67 5.24 7.53
6/4/2022 12:30:00 PM 16.4 61.52 0.63 7.63 5.73 7.19
6/4/2022 12:45:00 PM 16.58 61.844 0.789 7.63 4.99 7.77
6/4/2022 1:00:00 PM 16.83 62.294 1.198 7.6 4.44 7.41
6/4/2022 1:15:00 PM 17.29 63.122 0.893 7.67 4.62 7.8
6/4/2022 1:30:00 PM 17.22 62.996 0.803 7.67 4.56 7.46
6/4/2022 1:45:00 PM 17.67 63.806 1.272 7.7 4.73 7.85
6/4/2022 2:00:00 PM 17.55 63.59 0.796 7.68 4.51 8
6/4/2022 2:15:00 PM 18 64.4 1.191 7.7 4.59 8.23
6/4/2022 2:30:00 PM 17.93 64.274 1.23 7.72 9.79 8.2
6/4/2022 2:45:00 PM 18.03 64.454 0.739 7.71 4.84 8.16
6/4/2022 3:00:00 PM 17.94 64.292 1.289 7.7 5.27 8.13
6/4/2022 3:15:00 PM 18.38 65.084 0.997 7.69 4.6 8.3
6/4/2022 3:30:00 PM 18.93 66.074 1.542 7.76 5.27 8.33
6/4/2022 3:45:00 PM 18.47 65.246 1.451 7.68 4.69 7.96
6/4/2022 4:00:00 PM 18.57 65.426 0.654 7.7 4.89 7.77
6/4/2022 4:15:00 PM 18.84 65.912 0.751 7.79 4.75 8.32
6/4/2022 4:30:00 PM 19.03 66.254 1.421 7.78 4.87 8.68
6/4/2022 4:45:00 PM 18.72 65.696 0.662 7.75 4.21 8.04
6/4/2022 5:00:00 PM 18.81 65.858 0.782 7.74 4.84 8.11
6/4/2022 5:15:00 PM 18.97 66.146 1.499 7.73 4.71 8.31
6/4/2022 5:30:00 PM 19.08 66.344 1.296 7.76 4.65 8.43
6/4/2022 5:45:00 PM 18.88 65.984 1.114 7.73 4.19 7.72
6/4/2022 6:00:00 PM 18.77 65.786 1.189 7.69 4.69 7.78
6/4/2022 6:15:00 PM 18.28 64.904 1.127 7.73 4.81 7.05
6/4/2022 6:30:00 PM 18.46 65.228 1.005 7.68 4.72 7.57
6/4/2022 6:45:00 PM 18.59 65.462 0.933 7.73 4.74 7.36
6/4/2022 7:00:00 PM 18.25 64.85 1.087 7.68 4.79 7.12
6/4/2022 7:15:00 PM 18.16 64.688 1.263 7.66 5.26 6.9
6/4/2022 7:30:00 PM 18.08 64.544 1.35 7.69 5.47 6.89
6/4/2022 7:45:00 PM 18.17 64.706 1.172 7.67 5.18 6.76
6/4/2022 8:00:00 PM 18.15 64.67 1.07 7.64 5.06 6.74
6/4/2022 8:15:00 PM 18.11 64.598 1.144 7.66 4.99 6.75
6/4/2022 8:30:00 PM 17.85 64.13 1.265 7.63 8.22 6.36
6/4/2022 8:45:00 PM 17.64 63.752 1 7.64 5.94 6.41
6/4/2022 9:00:00 PM 17.58 63.644 1.206 7.64 5.15 6.1
6/4/2022 9:15:00 PM 17.52 63.536 1.258 7.57 5.22 6.06
6/4/2022 9:30:00 PM 17.44 63.392 1.398 7.65 5.81 6.39
6/4/2022 9:45:00 PM 17.19 62.942 2.584 7.62 5.78 5.87
6/4/2022 10:00:00 PM 17.13 62.834 2.864 7.57 5.78 5.69
6/4/2022 10:15:00 PM 17.12 62.816 2.848 7.6 5.94 5.8
6/4/2022 10:30:00 PM 16.92 62.456 2.765 7.6 5.99 5.73
6/4/2022 10:45:00 PM 16.94 62.492 2.593 7.57 5.79 5.64
6/4/2022 11:00:00 PM 16.73 62.114 2.55 7.58 5.45 5.73
6/4/2022 11:15:00 PM 16.67 62.006 2.523 7.6 5.86 5.83
6/4/2022 11:30:00 PM 16.38 61.484 2.512 7.53 6.05 5.28
6/4/2022 11:45:00 PM 16.37 61.466 2.504 7.55 6.09 5.31
6/5/2022 12:00:00 AM 16.18 61.124 2.359 7.56 6.21 5.56
6/5/2022 12:15:00 AM 16.27 61.286 2.339 7.54 5.71 5.44
6/5/2022 12:30:00 AM 16.24 61.232 2.376 7.55 6.05 5.6
6/5/2022 12:45:00 AM 15.96 60.728 2.364 7.53 6.35 5.28
6/5/2022 1:00:00 AM 15.97 60.746 2.245 7.57 6.16 5.35
6/5/2022 1:15:00 AM 15.72 60.296 2.184 7.54 5.9 5.05
6/5/2022 1:30:00 AM 15.43 59.774 2.255 7.51 5.55 5.24
6/5/2022 1:45:00 AM 15.46 59.828 2.05 7.5 6.67 4.81
6/5/2022 2:00:00 AM 14.99 58.982 1.997 7.46 5.35 5.18
6/5/2022 2:15:00 AM 15.18 59.324 1.972 7.5 5.95 5.32
6/5/2022 2:30:00 AM 15.03 59.054 1.948 7.49 5.34 5.36
6/5/2022 2:45:00 AM 15.09 59.162 1.858 7.49 6.1 5.43
6/5/2022 3:00:00 AM 14.68 58.424 1.755 7.5 6.1 5.14
6/5/2022 3:15:00 AM 14.78 58.604 1.562 7.53 6.07 5.43
6/5/2022 3:30:00 AM 14.53 58.154 1.48 7.54 5.84 5.25
6/5/2022 3:45:00 AM 14.53 58.154 1.462 7.53 6.34 5.41
6/5/2022 4:00:00 AM 14.18 57.524 1.408 7.52 6.17 5.29
6/5/2022 4:15:00 AM 14.35 57.83 1.441 7.57 5.96 6.24
6/5/2022 4:30:00 AM 14.19 57.542 1.42 7.56 6.82 5.42
6/5/2022 4:45:00 AM 13.84 56.912 1.325 7.47 6.93 5.05
6/5/2022 5:00:00 AM 14.01 57.218 1.497 7.51 7.15 5.44
6/5/2022 5:15:00 AM 13.54 56.372 1.568 7.44 6.64 4.67
6/5/2022 5:30:00 AM 13.47 56.246 1.54 7.47 7.27 4.93
6/5/2022 5:45:00 AM 13.46 56.228 1.513 7.48 6.85 5.05
6/5/2022 6:00:00 AM 13.5 56.3 1.527 7.47 6.92 5.01
6/5/2022 6:15:00 AM 13.32 55.976 1.578 7.52 5.74 5.26
6/5/2022 6:30:00 AM 13.52 56.336 1.585 7.52 6.11 5.74
6/5/2022 6:45:00 AM 13.24 55.832 1.537 7.51 5.43 5.39
6/5/2022 7:00:00 AM 13.13 55.634 1.493 7.45 5.12 4.8
6/5/2022 7:15:00 AM 13.15 55.67 1.38 7.47 6.35 5.42
6/5/2022 7:30:00 AM 13.28 55.904 1.337 7.52 5.24 5.79
6/5/2022 7:45:00 AM 12.91 55.238 1.392 7.45 5.22 5.37
6/5/2022 8:00:00 AM 13.2 55.76 1.305 7.53 6.13 5.65
6/5/2022 8:15:00 AM 13.08 55.544 1.331 7.51 5.22 5.79
6/5/2022 8:30:00 AM 13.16 55.688 1.228 7.52 5.85 5.64
6/5/2022 8:45:00 AM 13.37 56.066 1.206 7.57 5.17 6.09
6/5/2022 9:00:00 AM 13.18 55.724 1.186 7.5 4.15 5.65
6/5/2022 9:15:00 AM 13.17 55.706 1.216 7.55 5.2 6.01
6/5/2022 9:30:00 AM 13.37 56.066 1.201 7.51 5.7 6.36
6/5/2022 9:45:00 AM 13.64 56.552 1.243 7.51 4.91 6.37
6/5/2022 10:00:00 AM 13.5 56.3 1.222 7.53 5.44 6.46
6/5/2022 10:15:00 AM 13.76 56.768 1.228 7.59 4.8 6.88
6/5/2022 10:30:00 AM 13.96 57.128 1.395 7.6 4.78 6.66
6/5/2022 10:45:00 AM 14.31 57.758 1.497 7.61 4.76 6.96
6/5/2022 11:00:00 AM 14.31 57.758 1.524 7.64 6.36 7.15
6/5/2022 11:15:00 AM 14.38 57.884 1.447 7.66 4.45 7.43
6/5/2022 11:30:00 AM 14.51 58.118 1.537 7.63 4.8 7.16
6/5/2022 11:45:00 AM 14.74 58.532 1.515 7.55 4.62 6.69
6/5/2022 12:00:00 PM 15.34 59.612 1.494 7.65 4.84 7.55
6/5/2022 12:15:00 PM 14.94 58.892 1.453 7.61 4.52 6.8
6/5/2022 12:30:00 PM 15.33 59.594 1.37 7.66 6.34 7.75
6/5/2022 12:45:00 PM 15.5 59.9 1.37 7.65 4.26 7.37
6/5/2022 1:00:00 PM 15.96 60.728 1.408 7.67 4.66 8.22
6/5/2022 1:15:00 PM 15.96 60.728 1.374 7.64 4.76 7.69
6/5/2022 1:30:00 PM 16.26 61.268 1.376 7.7 4.59 8.05
6/5/2022 1:45:00 PM 16.2 61.16 1.368 7.64 5.51 7.6
6/5/2022 2:00:00 PM 16.42 61.556 1.321 7.71 4.53 7
6/5/2022 2:15:00 PM 16.89 62.402 1.309 7.7 5.97 8
6/5/2022 2:30:00 PM 17.01 62.618 1.259 7.7 4.58 8.13
6/5/2022 2:45:00 PM 17.15 62.87 1.307 7.69 5 8.04
6/5/2022 3:00:00 PM 17.64 63.752 1.312 7.7 4.59 8.32
6/5/2022 3:15:00 PM 17.7 63.86 1.268 7.72 5.08 8.23
6/5/2022 3:30:00 PM 17.39 63.302 1.224 7.71 4.36 9.14
6/5/2022 3:45:00 PM 18.3 64.94 1.185 7.74 4.39 8.62
6/5/2022 4:00:00 PM 18.1 64.58 1.147 7.69 4.31 8.28
6/5/2022 4:15:00 PM 18.44 65.192 1.007 7.74 5.06 8.56
6/5/2022 4:30:00 PM 18.35 65.03 1.043 7.72 4.55 8.53
6/5/2022 4:45:00 PM 18.41 65.138 0.88 7.78 4.48 8.38
6/5/2022 5:00:00 PM 18.51 65.318 0.934 7.83 4.21 8.13
6/5/2022 5:15:00 PM 18.5 65.3 1.495 7.72 4.68 8.11
6/5/2022 5:30:00 PM 18.45 65.21 1.619 7.72 4.38 8.15
6/5/2022 5:45:00 PM 18.65 65.57 1.609 7.83 4.54 8.48
6/5/2022 6:00:00 PM 18.65 65.57 1.614 7.79 4.39 8.2
6/5/2022 6:15:00 PM 17.96 64.328 1.615 7.69 3.98 7.6
6/5/2022 6:30:00 PM 18.11 64.598 1.564 7.65 4.39 7.57
6/5/2022 6:45:00 PM 17.76 63.968 1.419 7.67 4.74 7.54
6/5/2022 7:00:00 PM 17.76 63.968 1.255 7.73 4.97 7.06
6/5/2022 7:15:00 PM 17.96 64.328 1.213 7.71 4.3 7.4
6/5/2022 7:30:00 PM 17.87 64.166 0.945 7.65 4.36 6.76
6/5/2022 7:45:00 PM 18.02 64.436 0.834 7.67 4.68 7.17
6/5/2022 8:00:00 PM 17.91 64.238 0.9 7.67 5.39 6.93
6/5/2022 8:15:00 PM 17.75 63.95 0.53 7.63 4.46 6.56
6/5/2022 8:30:00 PM 17.97 64.346 0.466 7.69 4.49 6.88
6/5/2022 8:45:00 PM 18.02 64.436 0.497 7.64 4.86 6.62
6/5/2022 9:00:00 PM 17.76 63.968 0.443 7.68 4.87 6.55
6/5/2022 9:15:00 PM 17.72 63.896 0.458 7.62 4.74 6.31
6/5/2022 9:30:00 PM 17.81 64.058 0.482 7.62 5.49 6.46
6/5/2022 9:45:00 PM 17.13 62.834 0.475 7.58 6.04 6.05
6/5/2022 10:00:00 PM 17.51 63.518 0.48 7.59 5.15 5.97
6/5/2022 10:15:00 PM 17.48 63.464 0.518 7.58 4.85 6.03
6/5/2022 10:30:00 PM 17.02 62.636 0.579 7.56 5.39 5.81
6/5/2022 10:45:00 PM 17.14 62.852 0.481 7.63 5.05 6.23
6/5/2022 11:00:00 PM 17.11 62.798 0.495 7.59 5.93 5.78
6/5/2022 11:15:00 PM 17.25 63.05 0.519 7.56 5.65 5.34
6/5/2022 11:30:00 PM 16.99 62.582 0.528 7.56 5.45 5.73
6/5/2022 11:45:00 PM 16.9 62.42 0.504 7.56 5.48 5.4
6/6/2022 12:00:00 AM 16.76 62.168 0.508 7.54 5.56 5.32
6/6/2022 12:15:00 AM 16.79 62.222 0.533 7.56 6.38 5.54
6/6/2022 12:30:00 AM 16.96 62.528 0.54 7.54 5.51 5.52
6/6/2022 12:45:00 AM 16.86 62.348 0.51 7.56 5.82 5.41
6/6/2022 1:00:00 AM 16.43 61.574 0.447 7.53 5.85 5.18
6/6/2022 1:15:00 AM 16.48 61.664 0.495 7.52 5.38 5.21
6/6/2022 1:30:00 AM 15.97 60.746 0.553 7.51 6.2 5.03
6/6/2022 1:45:00 AM 16.23 61.214 0.513 7.54 6.39 5.27
6/6/2022 2:00:00 AM 16.4 61.52 0.533 7.53 5.89 5.44
6/6/2022 2:15:00 AM 16.22 61.196 0.438 7.5 6.19 5.46
6/6/2022 2:30:00 AM 16.36 61.448 0.44 7.57 6.69 5.35
6/6/2022 2:45:00 AM 16.23 61.214 0.738 7.52 6.3 5.3
6/6/2022 3:00:00 AM 15.99 60.782 0.67 7.5 6.19 5.17
6/6/2022 3:15:00 AM 16.03 60.854 0.799 7.51 7.08 5.33
6/6/2022 3:30:00 AM 15.78 60.404 0.63 7.53 6.21 4.96
6/6/2022 3:45:00 AM 15.85 60.53 0.545 7.53 6.12 5.49
6/6/2022 4:00:00 AM 15.81 60.458 0.823 7.53 6.09 5.39
6/6/2022 4:15:00 AM 15.62 60.116 0.765 7.52 6.09 5.34
6/6/2022 4:30:00 AM 15.76 60.368 0.625 7.55 6.83 5.3
6/6/2022 4:45:00 AM 15.34 59.612 0.662 7.49 8.23 5.07
6/6/2022 5:00:00 AM 15.21 59.378 0.724 7.52 6.85 5.26
6/6/2022 5:15:00 AM 15.63 60.134 0.713 7.52 6.36 5.45
6/6/2022 5:30:00 AM 15.3 59.54 0.71 7.58 15.87 5.81
6/6/2022 5:45:00 AM 15.24 59.432 0.564 7.49 6.43 5.31
6/6/2022 6:00:00 AM 15.12 59.216 0.863 7.52 6.3 5.21
6/6/2022 6:15:00 AM 14.74 58.532 0.794 7.5 9.23 5.02
6/6/2022 6:30:00 AM 14.85 58.73 0.707 7.54 6.24 5.75
6/6/2022 6:45:00 AM 14.68 58.424 0.598 7.5 8.98 5.29
6/6/2022 7:00:00 AM 14.86 58.748 1.011 7.5 5.59 5.4
6/6/2022 7:15:00 AM 15.1 59.18 1.066 7.51 6.22 5.52
6/6/2022 7:30:00 AM 14.75 58.55 1.034 7.52 5.82 5.28
6/6/2022 7:45:00 AM 14.79 58.622 1.038 7.5 6.08 5.55
6/6/2022 8:00:00 AM 14.55 58.19 0.795 7.52 6.19 5.58
6/6/2022 8:15:00 AM 14.87 58.766 0.734 7.59 5.93 6.34
6/6/2022 8:30:00 AM 15.16 59.288 0.721 7.53 4.89 5.79
6/6/2022 8:45:00 AM 15.01 59.018 0.71 7.54 5.17 5.84
6/6/2022 9:00:00 AM 15.11 59.198 0.738 7.59 4.64 6.06
6/6/2022 9:15:00 AM 15.19 59.342 0.682 7.57 4.73 6.19
6/6/2022 9:30:00 AM 15.35 59.63 0.758 7.56 4.49 6.18
6/6/2022 9:45:00 AM 15.49 59.882 0.713 7.57 5.07 6.49
6/6/2022 10:00:00 AM 15.42 59.756 0.685 7.57 4.51 6.31
6/6/2022 10:15:00 AM 15.77 60.386 0.639 7.61 5.22 6.8
6/6/2022 10:30:00 AM 15.65 60.17 0.66 7.56 5.09 6.24
6/6/2022 10:45:00 AM 16.08 60.944 0.623 7.57 4.74 6.68
6/6/2022 11:00:00 AM 16.13 61.034 0.58 7.61 4.45 6.71
6/6/2022 11:15:00 AM 16.32 61.376 0.587 7.64 4.92 7.02
6/6/2022 11:30:00 AM 16.43 61.574 0.578 7.66 4.71 7.09
6/6/2022 11:45:00 AM 16.66 61.988 0.556 7.65 4.24 7.26
6/6/2022 12:00:00 PM 17.05 62.69 0.503 7.69 4.59 6.97
6/6/2022 12:15:00 PM 17.16 62.888 0.497 7.63 4.45 7.57
6/6/2022 12:30:00 PM 17.1 62.78 0.495 7.68 4.49 7.54
6/6/2022 12:45:00 PM 17.33 63.194 0.492 7.72 4.52 7.56
6/6/2022 1:00:00 PM 17.59 63.662 0.524 7.63 4.11 7.65
6/6/2022 1:15:00 PM 18.22 64.796 0.53 7.68 4.11 7.86
6/6/2022 1:30:00 PM 18.13 64.634 0.593 7.73 4.3 7.85
6/6/2022 1:45:00 PM 18.5 65.3 0.796 7.69 4.19 8.01
6/6/2022 2:00:00 PM 18.65 65.57 0.643 7.7 4.41 8.2
6/6/2022 2:15:00 PM 18.8 65.84 0.679 7.8 4.57 8.26
6/6/2022 2:30:00 PM 19.01 66.218 0.895 7.74 4.16 8.41
6/6/2022 2:45:00 PM 19.26 66.668 0.92 7.75 3.78 8.32
6/6/2022 3:00:00 PM 19.25 66.65 0.998 7.73 3.99 8.16
6/6/2022 3:15:00 PM 19.48 67.064 1.472 7.75 3.91 8.29
6/6/2022 3:30:00 PM 19.51 67.118 1.696 7.78 4.19 8.55
6/6/2022 3:45:00 PM 19.61 67.298 1.775 7.77 4.12 8.39
6/6/2022 4:00:00 PM 19.16 66.488 1.814 7.79 4.6 8.63
6/6/2022 4:15:00 PM 19.64 67.352 1.516 7.77 3.91 8.23
6/6/2022 4:30:00 PM 19.69 67.442 1.611 7.78 4.37 7.81
6/6/2022 4:45:00 PM 19.33 66.794 1.711 7.7 4.46 7.74
6/6/2022 5:00:00 PM 19.56 67.208 1.681 7.77 4.13 8.2
6/6/2022 5:15:00 PM 19.43 66.974 1.711 7.79 4.17 8.02
6/6/2022 5:30:00 PM 19.7 67.46 1.657 7.78 4.31 8.01
6/6/2022 5:45:00 PM 19.61 67.298 1.666 7.78 3.83 7.89
6/6/2022 6:00:00 PM 19.4 66.92 1.796 7.77 3.98 7.52
6/6/2022 6:15:00 PM 19.53 67.154 1.813 7.8 4.4 7.78
6/6/2022 6:30:00 PM 19.31 66.758 1.788 7.78 4.44 7.85
6/6/2022 6:45:00 PM 19.43 66.974 1.804 7.75 4.89 7.82
6/6/2022 7:00:00 PM 19.1 66.38 1.829 7.78 4.4 7.51
6/6/2022 7:15:00 PM 19.1 66.38 1.834 7.78 4.22 7.62
6/6/2022 7:30:00 PM 18.89 66.002 1.778 7.71 4.18 7.07
6/6/2022 7:45:00 PM 18.74 65.732 1.762 7.74 4.18 7.02
6/6/2022 8:00:00 PM 18.7 65.66 1.787 7.68 5.07 6.62
6/6/2022 8:15:00 PM 19.06 66.308 1.788 7.71 4.82 6.9
6/6/2022 8:30:00 PM 18.71 65.67799 1.789 7.73 4.83 7.12
6/6/2022 8:45:00 PM 18.38 65.084 1.817 7.65 4.85 6.21
6/6/2022 9:00:00 PM 18.91 66.038 1.787 7.67 5.18 6.33
6/6/2022 9:15:00 PM 18.56 65.408 1.754 7.69 5.29 6.34
6/6/2022 9:30:00 PM 18.57 65.426 1.744 7.69 5.23 6.48
6/6/2022 9:45:00 PM 18.67 65.606 1.694 7.65 5.33 5.81
6/6/2022 10:00:00 PM 18.38 65.084 1.657 7.65 6.03 5.98
6/6/2022 10:15:00 PM 18.94 66.092 1.627 7.66 5.27 6.14
6/6/2022 10:30:00 PM 18.64 65.552 1.655 7.64 5.44 6.01
6/6/2022 10:45:00 PM 18.63 65.534 1.617 7.68 6.12 5.95
6/6/2022 11:00:00 PM 18.41 65.138 1.632 7.61 5.81 5.77
6/6/2022 11:15:00 PM 18.36 65.048 1.595 7.62 5.55 5.68
6/6/2022 11:30:00 PM 18.55 65.39 1.55 7.63 5.78 5.65
6/6/2022 11:45:00 PM 18.46 65.228 1.585 7.64 5.73 5.6
6/7/2022 12:00:00 AM 18.36 65.048 1.589 7.62 6.03 5.57
6/7/2022 12:15:00 AM 17.94 64.292 1.595 7.59 5.85 5.16
6/7/2022 12:30:00 AM 18.11 64.598 1.565 7.61 4.93 5.46
6/7/2022 12:45:00 AM 17.82 64.076 1.545 7.6 5.6 5.33
6/7/2022 1:00:00 AM 17.84 64.112 1.614 7.59 5.62 5.27
6/7/2022 1:15:00 AM 17.64 63.752 1.611 7.57 5.65 5.24
6/7/2022 1:30:00 AM 17.42 63.356 1.542 7.57 5.3 5.11
6/7/2022 1:45:00 AM 17.81 64.058 1.43 7.57 5.62 5.29
6/7/2022 2:00:00 AM 17.48 63.464 1.448 7.58 7.28 5.21
6/7/2022 2:15:00 AM 17.49 63.482 1.422 7.56 5.81 5.19
6/7/2022 2:30:00 AM 17.41 63.338 1.412 7.56 5.6 5.2
6/7/2022 2:45:00 AM 17.18 62.924 1.35 7.56 5.97 5.08
6/7/2022 3:00:00 AM 17.01 62.618 1.269 7.55 5.19 5.24
6/7/2022 3:15:00 AM 17.09 62.762 1.276 7.55 5.6 5.1
6/7/2022 3:30:00 AM 17.11 62.798 1.258 7.55 5.9 5.23
6/7/2022 3:45:00 AM 17.11 62.798 1.257 7.56 5.97 5.1
6/7/2022 4:00:00 AM 16.98 62.564 1.199 7.58 6.48 5.31
6/7/2022 4:15:00 AM 16.91 62.438 1.162 7.55 6.29 5.3
6/7/2022 4:30:00 AM 16.81 62.258 1.177 7.54 6.99 5.16
6/7/2022 4:45:00 AM 16.61 61.898 1.125 7.53 6.62 4.89
6/7/2022 5:00:00 AM 16.7 62.06 1.079 7.53 7.59 5.06
6/7/2022 5:15:00 AM 16.26 61.268 1.123 7.54 7.52 4.91
6/7/2022 5:30:00 AM 16.17 61.106 1.106 7.51 6.91 4.96
6/7/2022 5:45:00 AM 16.11 60.998 1.145 7.55 7.38 4.98
6/7/2022 6:00:00 AM 16.18 61.124 1.217 7.53 7.64 4.8
6/7/2022 6:15:00 AM 16.27 61.286 1.22 7.56 7.03 5.36
6/7/2022 6:30:00 AM 16.04 60.872 1.189 7.55 6.7 5.38
6/7/2022 6:45:00 AM 16.02 60.836 1.176 7.54 7.84 5.15
6/7/2022 7:00:00 AM 16.18 61.124 1.137 7.56 7.41 5.48
6/7/2022 7:15:00 AM 16.18 61.124 1.068 7.57 6.26 5.59
6/7/2022 7:30:00 AM 16.26 61.268 1.085 7.57 6.23 5.66
6/7/2022 7:45:00 AM 16.07 60.926 1.121 7.54 6.31 5.63
6/7/2022 8:00:00 AM 16.07 60.926 1.096 7.54 6.05 5.45
6/7/2022 8:15:00 AM 15.99 60.782 1.137 7.59 6.26 5.79
6/7/2022 8:30:00 AM 16.04 60.872 1.153 7.59 5.85 5.58
6/7/2022 8:45:00 AM 15.9 60.62 1.161 7.59 6 5.83
6/7/2022 9:00:00 AM 16.15 61.07 1.117 7.57 5.83 5.92
6/7/2022 9:15:00 AM 16.21 61.178 1.113 7.58 4.96 5.89
6/7/2022 9:30:00 AM 16.14 61.052 1.091 7.64 5.78 6.37
6/7/2022 9:45:00 AM 16.06 60.908 1.096 7.58 5.02 5.95
6/7/2022 10:00:00 AM 15.93 60.674 1.098 7.55 4.85 5.88
6/7/2022 10:15:00 AM 16.28 61.304 1.085 7.62 4.83 6.59
6/7/2022 10:30:00 AM 16.3 61.34 1.091 7.61 6.42 6.68
6/7/2022 10:45:00 AM 16.23 61.214 1.043 7.62 5.32 7.02
6/7/2022 11:00:00 AM 16.25 61.25 1.041 7.63 4.6 6.73
6/7/2022 11:15:00 AM 16.22 61.196 1.05 7.66 4.72 7.02
6/7/2022 11:30:00 AM 16.48 61.664 1.054 7.67 4.64 7.03
6/7/2022 11:45:00 AM 16.51 61.718 0.999 7.68 4.2 7.28
6/7/2022 12:00:00 PM 16.48 61.664 1.045 7.67 5.42 7.29
6/7/2022 12:15:00 PM 16.36 61.448 0.98 7.66 4.44 7.24
6/7/2022 12:30:00 PM 16.32 61.376 1.046 7.64 4.32 7.25
6/7/2022 12:45:00 PM 16.34 61.412 1.189 7.67 4.65 7.09
6/7/2022 1:00:00 PM 16.33 61.394 1.178 7.63 5.07 6.65
6/7/2022 1:15:00 PM 16.4 61.52 1.201 7.68 4.38 7.31
6/7/2022 1:30:00 PM 16.23 61.214 1.185 7.7 4.48 6.42
6/7/2022 1:45:00 PM 16.15 61.07 1.187 7.61 4.41 6.87
6/7/2022 2:00:00 PM 16.37 61.466 1.189 7.69 4.6 7.52
6/7/2022 2:15:00 PM 16.39 61.502 1.152 7.68 4.86 7.11
6/7/2022 2:30:00 PM 16.46 61.628 1.146 7.67 5.11 7.27
6/7/2022 2:45:00 PM 16.07 60.926 1.144 7.65 4.78 7.26
6/7/2022 3:00:00 PM 16.6 61.88 1.104 7.67 4.64 7.35
6/7/2022 3:15:00 PM 16.44 61.592 1.073 7.67 4.12 7.25
6/7/2022 3:30:00 PM 16.41 61.538 1.125 7.69 3.58 7.03
6/7/2022 3:45:00 PM 16.58 61.844 1.121 7.71 3.97 7.28
6/7/2022 4:00:00 PM 16.36 61.448 1.047 7.7 3.67 6.91
6/7/2022 4:15:00 PM 16.41 61.538 1.041 7.69 4 6.57
6/7/2022 4:30:00 PM 16.49 61.682 1.028 7.7 4.4 7.25
6/7/2022 4:45:00 PM 16.58 61.844 0.994 7.65 4.65 6.33
6/7/2022 5:00:00 PM 16.22 61.196 0.931 7.62 4.45 6.42
6/7/2022 5:15:00 PM 16.27 61.286 0.949 7.71 4.95 7.1
6/7/2022 5:30:00 PM 16.47 61.646 0.939 7.67 3.94 6.93
6/7/2022 5:45:00 PM 16.68 62.024 0.915 7.7 4.33 6.64
6/7/2022 6:00:00 PM 16.41 61.538 0.887 7.68 4.17 6.88
6/7/2022 6:15:00 PM 16.5 61.7 0.839 7.68 3.71 6.57
6/7/2022 6:30:00 PM 16.54 61.772 0.878 7.66 3.74 6.79
6/7/2022 6:45:00 PM 16.24 61.232 0.924 7.69 4.3 6.55
6/7/2022 7:00:00 PM 16.32 61.376 0.91 7.69 4.34 6.65
6/7/2022 7:15:00 PM 16.61 61.898 0.844 7.69 3.97 6.07
6/7/2022 7:30:00 PM 16.62 61.916 0.806 7.68 4.77 5.99
6/7/2022 7:45:00 PM 16.55 61.79 0.814 7.64 4.74 6.19
6/7/2022 8:00:00 PM 16.37 61.466 0.856 7.63 4.17 6.11
6/7/2022 8:15:00 PM 16.59 61.862 0.838 7.62 4.87 6.06
6/7/2022 8:30:00 PM 16.39 61.502 0.823 7.63 4.74 5.72
6/7/2022 8:45:00 PM 16.46 61.628 0.75 7.6 5.14 6.03
6/7/2022 9:00:00 PM 16.56 61.808 0.717 7.62 5.16 6.01
6/7/2022 9:15:00 PM 16.39 61.502 0.747 7.61 5.48 6.08
6/7/2022 9:30:00 PM 16.38 61.484 0.719 7.61 4.98 5.98
6/7/2022 9:45:00 PM 16.33 61.394 0.726 7.62 5.58 5.78
6/7/2022 10:00:00 PM 16.27 61.286 0.788 7.59 5.71 5.6
6/7/2022 10:15:00 PM 16.11 60.998 2.036 7.61 6.41 6.3
6/7/2022 10:30:00 PM 16.41 61.538 1.86 7.57 6 5.73
6/7/2022 10:45:00 PM 16.36 61.448 1.8 7.56 7.22 5.69
6/7/2022 11:00:00 PM 16.44 61.592 1.787 7.54 6.79 5.61
6/7/2022 11:15:00 PM 16.44 61.592 1.666 7.57 6.76 5.78
6/7/2022 11:30:00 PM 16.22 61.196 1.551 7.59 6.77 5.72
6/7/2022 11:45:00 PM 16.39 61.502 1.487 7.59 6.8 5.73
6/8/2022 12:00:00 AM 16.28 61.304 1.428 7.55 5.91 5.5
6/8/2022 12:15:00 AM 16.11 60.998 1.445 7.53 7.09 5.54
6/8/2022 12:30:00 AM 16.34 61.412 1.42 7.58 6.01 5.6
6/8/2022 12:45:00 AM 16.16 61.088 1.343 7.57 5.8 5.56
6/8/2022 1:00:00 AM 16.18 61.124 1.255 7.55 6.13 5.49
6/8/2022 1:15:00 AM 16.05 60.89 1.23 7.55 5.85 5.41
6/8/2022 1:30:00 AM 16.23 61.214 1.012 7.56 5.65 5.59
6/8/2022 1:45:00 AM 15.89 60.602 1.026 7.52 5.85 5.18
6/8/2022 2:00:00 AM 15.58 60.044 1.085 7.52 6.16 4.75
6/8/2022 2:15:00 AM 15.81 60.458 1.07 7.55 6 5.32
6/8/2022 2:30:00 AM 15.99 60.782 1.022 7.57 6.17 5.25
6/8/2022 2:45:00 AM 15.9 60.62 0.953 7.57 5.92 5.39
6/8/2022 3:00:00 AM 16.01 60.818 0.904 7.57 6.57 5.6
6/8/2022 3:15:00 AM 15.8 60.44 0.942 7.54 5.98 5.35
6/8/2022 3:30:00 AM 15.74 60.332 0.931 7.55 6.74 5.51
6/8/2022 3:45:00 AM 15.84 60.512 0.874 7.56 7.29 5.64
6/8/2022 4:00:00 AM 15.58 60.044 0.851 7.56 7.67 5.36
6/8/2022 4:15:00 AM 15.88 60.584 0.853 7.59 7.72 5.77
6/8/2022 4:30:00 AM 15.58 60.044 0.842 7.57 7.22 5.58
6/8/2022 4:45:00 AM 15.63 60.134 0.882 7.58 7.93 5.37
6/8/2022 5:00:00 AM 15.61 60.098 0.903 7.56 6.64 5.55
6/8/2022 5:15:00 AM 15.48 59.864 0.914 7.57 7.25 5.54
6/8/2022 5:30:00 AM 15.27 59.486 0.893 7.54 7.12 5.55
6/8/2022 5:45:00 AM 15.44 59.792 0.883 7.59 7.4 5.77
6/8/2022 6:00:00 AM 15.02 59.036 0.902 7.51 7.21 5.15
6/8/2022 6:15:00 AM 15.17 59.306 0.88 7.56 7.16 5.7
6/8/2022 6:30:00 AM 15.26 59.468 0.895 7.57 6.74 5.9
6/8/2022 6:45:00 AM 15.23 59.414 0.924 7.59 7.43 5.83
6/8/2022 7:00:00 AM 15.28 59.504 0.908 7.59 6.18 5.91
6/8/2022 7:15:00 AM 15.11 59.198 0.94 7.58 6.35 5.88
6/8/2022 7:30:00 AM 14.84 58.712 0.938 7.52 6.76 5.23
6/8/2022 7:45:00 AM 15.04 59.072 0.938 7.55 6.39 5.47
6/8/2022 8:00:00 AM 15.11 59.198 0.935 7.6 6.92 6.04
6/8/2022 8:15:00 AM 15.09 59.162 0.901 7.59 7.3 5.93
6/8/2022 8:30:00 AM 15 59 0.898 7.6 7.23 5.78
6/8/2022 8:45:00 AM 14.6 58.28 0.878 7.57 6.6 5.52
6/8/2022 9:00:00 AM 15.23 59.414 0.844 7.62 6.34 6.44
6/8/2022 9:15:00 AM 14.88 58.784 0.85 7.56 6.99 6.1
6/8/2022 9:30:00 AM 15.07 59.126 0.888 7.64 6.65 6.48
6/8/2022 9:45:00 AM 15.36 59.648 0.864 7.66 5.89 7.1
6/8/2022 10:00:00 AM 15.02 59.036 0.907 7.55 4.87 6.16
6/8/2022 10:15:00 AM 15.49 59.882 0.881 7.66 8.37 6.88
6/8/2022 10:30:00 AM 15.62 60.116 0.924 7.67 5.33 6.81
6/8/2022 10:45:00 AM 15.57 60.026 0.922 7.61 5.15 6.7
6/8/2022 11:00:00 AM 15.5 59.9 0.94 7.7 4.87 6.63
6/8/2022 11:15:00 AM 15.33 59.594 0.965 7.64 5.05 6.85
6/8/2022 11:30:00 AM 16.04 60.872 0.938 7.68 5.36 7.46
6/8/2022 11:45:00 AM 16.06 60.908 0.928 7.7 5.23 7.61
6/8/2022 12:00:00 PM 15.75 60.35 0.951 7.71 6.03 7.56
6/8/2022 12:15:00 PM 16.17 61.106 0.907 7.74 4.79 7.81
6/8/2022 12:30:00 PM 16.48 61.664 0.888 7.74 4.8 7.81
6/8/2022 12:45:00 PM 16.68 62.024 0.915 7.78 4.53 7.82
6/8/2022 1:00:00 PM 16.84 62.312 0.926 7.82 4.54 8.61
6/8/2022 1:15:00 PM 16.87 62.366 0.893 7.81 5.04 7.96
6/8/2022 1:30:00 PM 16.72 62.096 0.935 7.79 4.76 8.07
6/8/2022 1:45:00 PM 16.95 62.51 0.882 7.84 4.85 8.45
6/8/2022 2:00:00 PM 17.04 62.672 0.87 7.84 4.72 8.45
6/8/2022 2:15:00 PM 16.86 62.348 0.868 7.79 4.76 7.8
6/8/2022 2:30:00 PM 17.43 63.374 0.795 7.8 4.93 8.08
6/8/2022 2:45:00 PM 17.55 63.59 0.671 7.85 5.35 8.72
6/8/2022 3:00:00 PM 17.56 63.608 0.655 7.85 4.56 8.49
6/8/2022 3:15:00 PM 17.77 63.986 0.647 7.86 4.41 8.48
6/8/2022 3:30:00 PM 17.96 64.328 0.674 7.87 4.85 8.6
6/8/2022 3:45:00 PM 17.79 64.022 0.641 7.82 4.7 8.51
6/8/2022 4:00:00 PM 17.88 64.184 0.618 7.89 4.92 8.16
6/8/2022 4:15:00 PM 17.93 64.274 1.341 7.85 4.37 7.86
6/8/2022 4:30:00 PM 18.05 64.49 0.91 7.85 5.25 8.69
6/8/2022 4:45:00 PM 17.69 63.842 0.863 7.82 4.82 8.5
6/8/2022 5:00:00 PM 17.93 64.274 0.632 7.84 4.29 8.29
6/8/2022 5:15:00 PM 18.22 64.796 0.717 7.89 4.69 8.66
6/8/2022 5:30:00 PM 18.02 64.436 0.707 7.85 4.38 8.26
6/8/2022 5:45:00 PM 18.03 64.454 0.69 7.85 4.77 7.89
6/8/2022 6:00:00 PM 18.48 65.264 0.677 7.9 4.56 8.29
6/8/2022 6:15:00 PM 18.34 65.012 0.699 7.85 4.72 8
6/8/2022 6:30:00 PM 18.62 65.516 0.703 7.9 4.67 8.05
6/8/2022 6:45:00 PM 18.23 64.814 0.673 7.83 4.82 7.6
6/8/2022 7:00:00 PM 18.5 65.3 0.63 7.81 4.77 7.92
6/8/2022 7:15:00 PM 18.28 64.904 0.638 7.81 4.4 6.97
6/8/2022 7:30:00 PM 18.27 64.886 0.625 7.79 5.11 7.02
6/8/2022 7:45:00 PM 18.34 65.012 0.622 7.81 4.98 7.31
6/8/2022 8:00:00 PM 18.38 65.084 0.629 7.77 4.97 7.41
6/8/2022 8:15:00 PM 18.39 65.102 0.639 7.81 4.85 7.17
6/8/2022 8:30:00 PM 18.42 65.156 0.65 7.8 4.57 7.34
6/8/2022 8:45:00 PM 18.17 64.706 0.663 7.73 5.12 6.94
6/8/2022 9:00:00 PM 18.16 64.688 0.638 7.77 4.73 6.76
6/8/2022 9:15:00 PM 18.3 64.94 0.609 7.76 5.73 6.77
6/8/2022 9:30:00 PM 18.15 64.67 0.59 7.72 5.54 6.69
6/8/2022 9:45:00 PM 18.05 64.49 0.572 7.69 5.46 6.34
6/8/2022 10:00:00 PM 17.88 64.184 0.586 7.72 5.74 6.55
6/8/2022 10:15:00 PM 17.85 64.13 0.586 7.71 5.82 6.39
6/8/2022 10:30:00 PM 18.22 64.796 0.664 7.73 5.69 6.38
6/8/2022 10:45:00 PM 18.04 64.472 0.672 7.69 5.99 6.22
6/8/2022 11:00:00 PM 18.09 64.562 0.714 7.68 6.09 6.04
6/8/2022 11:15:00 PM 17.9 64.22 0.726 7.65 5.52 5.95
6/8/2022 11:30:00 PM 17.75 63.95 0.736 7.67 6.76 5.71
6/8/2022 11:45:00 PM 17.67 63.806 0.733 7.66 6.02 5.81
6/9/2022 12:00:00 AM 17.52 63.536 0.779 7.64 6.02 5.49
6/9/2022 12:15:00 AM 17.52 63.536 0.754 7.65 6.06 5.62
6/9/2022 12:30:00 AM 17.49 63.482 0.727 7.6 6.09 5.25
6/9/2022 12:45:00 AM 17.26 63.068 0.736 7.6 5.72 5.29
6/9/2022 1:00:00 AM 17.49 63.482 0.716 7.57 6.31 5.52
6/9/2022 1:15:00 AM 17.36 63.248 0.718 7.61 6.29 5.35
6/9/2022 1:30:00 AM 17.48 63.464 0.684 7.61 6.91 5.58
6/9/2022 1:45:00 AM 17.01 62.618 0.724 7.59 7.23 5.27
6/9/2022 2:00:00 AM 16.88 62.384 0.728 7.59 7.22 5.43
6/9/2022 2:15:00 AM 17.15 62.87 0.711 7.62 7.39 5.78
6/9/2022 2:30:00 AM 17.13 62.834 0.658 7.62 10.74 5.8
6/9/2022 2:45:00 AM 17 62.6 0.636 7.61 10.69 5.75
6/9/2022 3:00:00 AM 17.09 62.762 0.628 7.64 10.96 6.07
6/9/2022 3:15:00 AM 17.13 62.834 0.639 7.68 13.03 6.45
6/9/2022 3:30:00 AM 17.12 62.816 0.615 7.69 13.22 6.51
6/9/2022 3:45:00 AM 17.32 63.176 0.622 7.71 14.28 6.65
6/9/2022 4:00:00 AM 17.27 63.086 0.601 7.68 18.36 6.52
6/9/2022 4:15:00 AM 17.26 63.068 0.459 7.7 14.54 6.8
6/9/2022 4:30:00 AM 16.99 62.582 0.429 7.69 15.39 6.9
6/9/2022 4:45:00 AM 16.94 62.492 0.459 7.67 16.86 6.67
6/9/2022 5:00:00 AM 16.89 62.402 0.346 7.66 16.04 6.64
6/9/2022 5:15:00 AM 16.82 62.276 0.347 7.64 15.09 6.56
6/9/2022 5:30:00 AM 16.8 62.24 0.342 7.65 15.64 6.76
6/9/2022 5:45:00 AM 16.72 62.096 0.342 7.63 19.81 6.62
6/9/2022 6:00:00 AM 16.62 61.916 0.83 7.62 14.88 6.61
6/9/2022 6:15:00 AM 16.66 61.988 0.742 7.63 14.57 6.62
6/9/2022 6:30:00 AM 16.64 61.952 0.857 7.61 14.72 6.59
6/9/2022 6:45:00 AM 16.62 61.916 0.844 7.59 18.19 6.66
6/9/2022 7:00:00 AM 16.78 62.204 0.788 7.6 14.95 6.81
6/9/2022 7:15:00 AM 16.88 62.384 0.795 7.62 24.32 6.92
6/9/2022 7:30:00 AM 16.92 62.456 0.953 7.62 25.09 6.95
6/9/2022 7:45:00 AM 16.92 62.456 1.111 7.63 22.98 7.04
6/9/2022 8:00:00 AM 16.99 62.582 1.092 7.63 21.36 7.07
6/9/2022 8:15:00 AM 17.2 62.96 1.005 7.64 22.82 7.12
6/9/2022 8:30:00 AM 17.38 63.284 0.862 7.65 29.39 7.17
6/9/2022 8:45:00 AM 17.53 63.554 0.812 7.66 27.49 7.2
6/9/2022 9:00:00 AM 17.65 63.77 0.801 7.65 40.72 7.35
6/9/2022 9:15:00 AM 17.53 63.554 0.714 7.63 53.66 7.49
6/9/2022 9:30:00 AM 17.24 63.032 0.715 7.61 68.09 7.65
6/9/2022 9:45:00 AM 16.92 62.456 0.669 7.59 65.07 7.74
6/9/2022 10:00:00 AM 16.73 62.114 0.593 7.56 84.47 7.83
6/9/2022 10:15:00 AM 16.57 61.826 0.51 7.54 83.12 7.81
6/9/2022 10:30:00 AM 16.49 61.682 0.492 7.52 61.34 7.84
6/9/2022 10:45:00 AM 16.45 61.61 0.467 7.51 62.67 7.82
6/9/2022 11:00:00 AM 16.5 61.7 0.525 7.5 66.53 7.82
6/9/2022 11:15:00 AM 16.55 61.79 0.583 7.5 68.98 7.78
6/9/2022 11:30:00 AM 16.58 61.844 0.658 7.5 51.92 7.79
6/9/2022 11:45:00 AM 16.61 61.898 0.635 7.5 56.79 7.75
6/9/2022 12:00:00 PM 16.63 61.934 0.669 7.5 57.83 7.75
6/9/2022 12:15:00 PM 16.71 62.078 0.644 7.5 56.12 7.81
6/9/2022 12:30:00 PM 16.71 62.078 0.629 7.5 53.26 7.74
6/9/2022 12:45:00 PM 16.7 62.06 0.637 7.51 55.98 7.76
6/9/2022 1:00:00 PM 16.72 62.096 0.635 7.51 49.37 7.75
6/9/2022 1:15:00 PM 16.72 62.096 0.623 7.52 68.99 7.74
6/9/2022 1:30:00 PM 16.77 62.186 0.572 7.5 50.55 7.75
6/9/2022 1:45:00 PM 16.77 62.186 0.471 7.51 54.99 7.8
6/9/2022 2:00:00 PM 16.89 62.402 0.381 7.52 51.18 7.92
6/9/2022 2:15:00 PM 16.89 62.402 0.422 7.52 42.04 7.91
6/9/2022 2:30:00 PM 16.91 62.438 0.372 7.53 45.92 7.95
6/9/2022 2:45:00 PM 16.91 62.438 0.378 7.53 42.82 8
6/9/2022 3:00:00 PM 16.95 62.51 0.379 7.53 43.98 8.03
6/9/2022 3:15:00 PM 16.95 62.51 0.379 7.53 39.18 8.03
6/9/2022 3:30:00 PM 17 62.6 0.386 7.53 39.23 8.04
6/9/2022 3:45:00 PM 16.96 62.528 0.505 7.54 34.04 8.04
6/9/2022 4:00:00 PM 17.03 62.654 0.497 7.53 36.87 8.07
6/9/2022 4:15:00 PM 17.09 62.762 0.51 7.54 37.96 8.07
6/9/2022 4:30:00 PM 17.18 62.924 0.521 7.56 35.83 8.1
6/9/2022 4:45:00 PM 17.19 62.942 0.477 7.55 34.38 8.08
6/9/2022 5:00:00 PM 17.18 62.924 0.445 7.55 34.91 8.09
6/9/2022 5:15:00 PM 17.14 62.852 0.426 7.55 33.67 8.09
6/9/2022 5:30:00 PM 17.14 62.852 0.475 7.55 32.27 8.08
6/9/2022 5:45:00 PM 17.19 62.942 0.453 7.56 27.59 8.08
6/9/2022 6:00:00 PM 17.2 62.96 0.446 7.56 27.39 8.06
6/9/2022 6:15:00 PM 17.15 62.87 0.43 7.55 32.68 7.98
6/9/2022 6:30:00 PM 17.13 62.834 0.353 7.55 36.12 7.96
6/9/2022 6:45:00 PM 17.12 62.816 0.32 7.56 26.8 7.93
6/9/2022 7:00:00 PM 17.17 62.906 0.321 7.56 25.44 8.01
6/9/2022 7:15:00 PM 17.12 62.816 0.339 7.56 29.91 7.97
6/9/2022 7:30:00 PM 17.09 62.762 0.349 7.56 31.44 7.94
6/9/2022 7:45:00 PM 17.04 62.672 0.361 7.55 27.46 7.83
6/9/2022 8:00:00 PM 17 62.6 0.351 7.55 52.03 7.91
6/9/2022 8:15:00 PM 16.99 62.582 0.292 7.55 24.02 7.88
6/9/2022 8:30:00 PM 16.93 62.474 0.251 7.55 26.41 7.87
6/9/2022 8:45:00 PM 16.84 62.312 0.271 7.55 27.96 7.84
6/9/2022 9:00:00 PM 16.82 62.276 0.267 7.54 31.46 7.81
6/9/2022 9:15:00 PM 16.78 62.204 0.292 7.55 32.93 7.79
6/9/2022 9:30:00 PM 16.71 62.078 0.267 7.54 28.89 7.76
6/9/2022 9:45:00 PM 16.66 61.988 0.29 7.54 30.69 7.75
6/9/2022 10:00:00 PM 16.62 61.916 0.28 7.54 31.01 7.74
6/9/2022 10:15:00 PM 16.57 61.826 0.315 7.54 31.58 7.71
6/9/2022 10:30:00 PM 16.53 61.754 0.313 7.54 27.43 7.69
6/9/2022 10:45:00 PM 16.49 61.682 0.254 7.55 29.82 7.66
6/9/2022 11:00:00 PM 16.47 61.646 0.248 7.56 29.43 7.65
6/9/2022 11:15:00 PM 16.41 61.538 0.274 7.55 27.59 7.63
6/9/2022 11:30:00 PM 16.4 61.52 0.268 7.56 30.56 7.64
6/9/2022 11:45:00 PM 16.36 61.448 0.27 7.55 28.66 7.62
6/10/2022 12:00:00 AM 16.31 61.358 0.31 7.54 28.53 7.59
6/10/2022 12:15:00 AM 16.27 61.286 0.332 7.55 28.69 7.6
6/10/2022 12:30:00 AM 16.22 61.196 0.328 7.55 28.31 7.6
6/10/2022 12:45:00 AM 16.15 61.07 0.278 7.55 28.13 7.61
6/10/2022 1:00:00 AM 16.08 60.944 0.276 7.55 26.91 7.61
6/10/2022 1:15:00 AM 16.02 60.836 0.284 7.55 26.65 7.61
6/10/2022 1:30:00 AM 15.96 60.728 0.254 7.55 28.64 7.61
6/10/2022 1:45:00 AM 15.9 60.62 0.228 7.55 27.12 7.63
6/10/2022 2:00:00 AM 15.81 60.458 0.263 7.55 27.32 7.6
6/10/2022 2:15:00 AM 15.79 60.422 0.258 7.57 30.36 7.63
6/10/2022 2:30:00 AM 15.71 60.278 0.246 7.57 25.91 7.58
6/10/2022 2:45:00 AM 15.66 60.188 0.249 7.55 25.93 7.62
6/10/2022 3:00:00 AM 15.62 60.116 0.231 7.55 26.05 7.61
6/10/2022 3:15:00 AM 15.59 60.062 0.228 7.56 26.08 7.63
6/10/2022 3:30:00 AM 15.54 59.972 0.336 7.56 26.21 7.63
6/10/2022 3:45:00 AM 15.5 59.9 0.417 7.56 25.23 7.66
6/10/2022 4:00:00 AM 15.42 59.756 0.39 7.56 25.46 7.64
6/10/2022 4:15:00 AM 15.39 59.702 0.358 7.56 23.78 7.61
6/10/2022 4:30:00 AM 15.3 59.54 0.405 7.57 25.58 7.68
6/10/2022 4:45:00 AM 15.28 59.504 0.401 7.57 24.8 7.67
6/10/2022 5:00:00 AM 15.22 59.396 0.373 7.58 22.88 7.67
6/10/2022 5:15:00 AM 15.14 59.252 0.33 7.56 24.2 7.68
6/10/2022 5:30:00 AM 15.09 59.162 0.29 7.57 22.83 7.69
6/10/2022 5:45:00 AM 15.01 59.018 0.275 7.57 24.64 7.69
6/10/2022 6:00:00 AM 14.98 58.964 0.271 7.58 23.6 7.73
6/10/2022 6:15:00 AM 14.92 58.856 0.27 7.57 23.26 7.73
6/10/2022 6:30:00 AM 14.87 58.766 0.271 7.58 21.96 7.75
6/10/2022 6:45:00 AM 14.83 58.694 0.291 7.58 22.12 7.78
6/10/2022 7:00:00 AM 14.8 58.64 0.26 7.6 20.25 7.78
6/10/2022 7:15:00 AM 14.78 58.604 0.25 7.59 20.79 7.81
6/10/2022 7:30:00 AM 14.76 58.568 0.307 7.59 20.17 7.79
6/10/2022 7:45:00 AM 14.77 58.586 0.317 7.58 19.27 7.85
6/10/2022 8:00:00 AM 14.79 58.622 0.306 7.59 19.01 7.9
6/10/2022 8:15:00 AM 14.78 58.604 0.257 7.59 18.49 7.89
6/10/2022 8:30:00 AM 14.83 58.694 0.254 7.6 18.05 7.97
6/10/2022 8:45:00 AM 14.87 58.766 0.254 7.6 17.85 8.01
6/10/2022 9:00:00 AM 14.93 58.874 0.255 7.62 17.81 8.07
6/10/2022 9:15:00 AM 15 59 0.256 7.63 16.79 8.13
6/10/2022 9:30:00 AM 15.09 59.162 0.272 7.64 15.65 8.22
6/10/2022 9:45:00 AM 15.18 59.324 0.272 7.64 16.17 8.26
6/10/2022 10:00:00 AM 15.3 59.54 0.273 7.65 16.2 8.36
6/10/2022 10:15:00 AM 15.39 59.702 0.281 7.66 15.36 8.43
6/10/2022 10:30:00 AM 15.53 59.954 0.271 7.67 14.82 8.44
6/10/2022 10:45:00 AM 15.67 60.206 0.262 7.67 14.4 8.55
6/10/2022 11:00:00 AM 15.79 60.422 0.265 7.69 14.37 8.58
6/10/2022 11:15:00 AM 15.96 60.728 0.265 7.71 13.82 8.68
6/10/2022 11:30:00 AM 16.03 60.854 0.27 7.71 13.71 8.74
6/10/2022 11:45:00 AM 16.28 61.304 0.268 7.71 13.14 8.8
6/10/2022 12:00:00 PM 16.5 61.7 0.269 7.74 13.96 8.88
6/10/2022 12:15:00 PM 16.69 62.042 0.27 7.74 12.4 8.94
6/10/2022 12:30:00 PM 16.9 62.42 0.288 7.76 12.66 8.97
6/10/2022 12:45:00 PM 17.2 62.96 0.275 7.78 12.56 9.09
6/10/2022 1:00:00 PM 17.3 63.14 0.279 7.79 11.36 9.04
6/10/2022 1:15:00 PM 17.57 63.626 0.275 7.8 11.62 9.12
6/10/2022 1:30:00 PM 17.69 63.842 0.276 7.81 10.68 9.11
6/10/2022 1:45:00 PM 17.79 64.022 0.276 7.82 11.12 9.12
6/10/2022 2:00:00 PM 18.04 64.472 0.275 7.83 10.09 9.21
6/10/2022 2:15:00 PM 17.94 64.292 0.291 7.82 12.06 9.07
6/10/2022 2:30:00 PM 18.31 64.958 0.286 7.83 10.39 9.16
6/10/2022 2:45:00 PM 18.37 65.066 0.303 7.84 9.94 9.08
6/10/2022 3:00:00 PM 18.45 65.21 0.338 7.84 10.12 9.02
6/10/2022 3:15:00 PM 18.69 65.642 0.364 7.85 9.9 9.09
6/10/2022 3:30:00 PM 18.73 65.714 0.355 7.85 9.99 9.04
6/10/2022 3:45:00 PM 18.59 65.462 0.406 7.85 10.04 8.96
6/10/2022 4:00:00 PM 18.86 65.948 0.365 7.84 9.94 8.95
6/10/2022 4:15:00 PM 18.97 66.146 0.341 7.86 9.34 8.94
6/10/2022 4:30:00 PM 18.89 66.002 0.357 7.83 9.3 8.75
6/10/2022 4:45:00 PM 18.98 66.164 0.343 7.85 9.39 8.79
6/10/2022 5:00:00 PM 18.8 65.84 0.372 7.81 9.85 8.6
6/10/2022 5:15:00 PM 18.98 66.164 0.34 7.83 9.67 8.66
6/10/2022 5:30:00 PM 18.99 66.182 0.353 7.83 9.72 8.62
6/10/2022 5:45:00 PM 18.51 65.318 0.364 7.79 8.98 8.27
6/10/2022 6:00:00 PM 19.09 66.362 0.316 7.83 8.71 8.51
6/10/2022 6:15:00 PM 18.98 66.164 0.323 7.8 9.32 8.36
6/10/2022 6:30:00 PM 19 66.2 0.318 7.8 8.99 8.26
6/10/2022 6:45:00 PM 19.02 66.236 0.307 7.8 8.92 8.2
6/10/2022 7:00:00 PM 18.94 66.092 0.31 7.79 9.13 8.04
6/10/2022 7:15:00 PM 18.6 65.48 0.338 7.76 9.08 7.95
6/10/2022 7:30:00 PM 18.8 65.84 0.329 7.76 8.93 7.85
6/10/2022 7:45:00 PM 18.77 65.786 0.354 7.76 9.15 7.76
6/10/2022 8:00:00 PM 18.74 65.732 0.351 7.74 9.04 7.66
6/10/2022 8:15:00 PM 18.76 65.768 0.346 7.75 9.13 7.64
6/10/2022 8:30:00 PM 18.62 65.516 0.347 7.73 9.31 7.52
6/10/2022 8:45:00 PM 18.64 65.552 0.347 7.73 9.41 7.48
6/10/2022 9:00:00 PM 18.54 65.372 0.353 7.71 9.45 7.35
6/10/2022 9:15:00 PM 18.5 65.3 0.363 7.69 9.64 7.3
6/10/2022 9:30:00 PM 18.44 65.192 0.337 7.7 10.52 7.25
6/10/2022 9:45:00 PM 18.34 65.012 0.335 7.69 10.71 7.14
6/10/2022 10:00:00 PM 18.29 64.922 0.335 7.67 10.94 7.1
6/10/2022 10:15:00 PM 18.19 64.742 0.348 7.67 10.42 7.03
6/10/2022 10:30:00 PM 18.14 64.652 0.349 7.67 10.71 6.99
6/10/2022 10:45:00 PM 18.03 64.454 0.35 7.64 11 6.94
6/10/2022 11:00:00 PM 17.91 64.238 0.357 7.65 11.1 6.89
6/10/2022 11:15:00 PM 17.86 64.148 0.362 7.65 11.01 6.85
6/10/2022 11:30:00 PM 17.8 64.04 0.354 7.64 11.06 6.83
6/10/2022 11:45:00 PM 17.75 63.95 0.352 7.64 11.83 6.83
6/11/2022 12:00:00 AM 17.55 63.59 0.371 7.63 11.83 6.8
6/11/2022 12:15:00 AM 17.22 62.996 0.383 7.6 11.51 6.34
6/11/2022 12:30:00 AM 17.04 62.672 0.398 7.6 10.94 6.36
6/11/2022 12:45:00 AM 17.2 62.96 0.389 7.61 10.91 6.54
6/11/2022 1:00:00 AM 17.18 62.924 0.375 7.61 11.44 6.71
6/11/2022 1:15:00 AM 17.18 62.924 0.363 7.62 11.36 6.7
6/11/2022 1:30:00 AM 17.01 62.618 0.384 7.6 11.54 6.69
6/11/2022 1:45:00 AM 16.94 62.492 0.362 7.61 11.31 6.67
6/11/2022 2:00:00 AM 16.28 61.304 0.415 7.58 11.91 6.47
6/11/2022 2:15:00 AM 16.15 61.07 0.414 7.57 11.45 6.1
6/11/2022 2:30:00 AM 16.62 61.916 0.403 7.62 11.37 6.76
6/11/2022 2:45:00 AM 16.51 61.718 0.418 7.61 11.55 6.73
6/11/2022 3:00:00 AM 15.62 60.116 0.464 7.59 11.44 6.55
6/11/2022 3:15:00 AM 16.13 61.034 0.405 7.59 10.84 6.61
6/11/2022 3:30:00 AM 15.91 60.638 0.43 7.6 11.54 6.51
6/11/2022 3:45:00 AM 15.75 60.35 0.399 7.55 11.41 6.26
6/11/2022 4:00:00 AM 15.72 60.296 0.437 7.55 11.59 6.38
6/11/2022 4:15:00 AM 15.78 60.404 0.43 7.57 16.71 6.49
6/11/2022 4:30:00 AM 15.24 59.432 0.43 7.56 11.09 6.24
6/11/2022 4:45:00 AM 15.32 59.576 0.459 7.55 12.31 6.2
6/11/2022 5:00:00 AM 15.21 59.378 0.464 7.58 12.11 6.46
6/11/2022 5:15:00 AM 15.32 59.576 0.407 7.55 11.86 6.45
6/11/2022 5:30:00 AM 15.14 59.252 0.44 7.55 12.44 5.89
6/11/2022 5:45:00 AM 14.9 58.82 0.446 7.58 11.45 6.41
6/11/2022 6:00:00 AM 14.58 58.244 0.458 7.51 10.85 5.73
6/11/2022 6:15:00 AM 14.91 58.838 0.45 7.57 10.71 6.78
6/11/2022 6:30:00 AM 14.73 58.514 0.457 7.55 11.53 6.74
6/11/2022 6:45:00 AM 14.85 58.73 0.42 7.58 10.53 6.93
6/11/2022 7:00:00 AM 14.36 57.848 0.469 7.52 11.36 6.52
6/11/2022 7:15:00 AM 14.83 58.694 0.439 7.61 10.93 7.12
6/11/2022 7:30:00 AM 15.03 59.054 0.41 7.62 11.1 7.29
6/11/2022 7:45:00 AM 15.02 59.036 0.349 7.62 10.9 7.44
6/11/2022 8:00:00 AM 14.86 58.748 0.389 7.62 12.53 7.45
6/11/2022 8:15:00 AM 15.04 59.072 0.491 7.64 9.94 7.65
6/11/2022 8:30:00 AM 15.04 59.072 0.517 7.65 10.91 7.73
6/11/2022 8:45:00 AM 15.01 59.018 0.539 7.65 10.06 7.78
6/11/2022 9:00:00 AM 14.45 58.01 0.54 7.61 9.67 7.61
6/11/2022 9:15:00 AM 15.02 59.036 0.491 7.66 8.59 7.91
6/11/2022 9:30:00 AM 15.04 59.072 0.467 7.66 8.09 7.96
6/11/2022 9:45:00 AM 15.13 59.234 0.416 7.68 8.1 8.16
6/11/2022 10:00:00 AM 15.13 59.234 0.455 7.7 7.86 8.23
6/11/2022 10:15:00 AM 15.35 59.63 0.439 7.71 8 8.34
6/11/2022 10:30:00 AM 15.5 59.9 0.414 7.72 7.83 8.49
6/11/2022 10:45:00 AM 15.53 59.954 0.414 7.74 7.26 8.58
6/11/2022 11:00:00 AM 15.4 59.72 0.43 7.73 7.27 8.45
6/11/2022 11:15:00 AM 15.58 60.044 0.428 7.76 7.07 8.65
6/11/2022 11:30:00 AM 15.71 60.278 0.424 7.76 7.01 8.84
6/11/2022 11:45:00 AM 15.75 60.35 0.433 7.77 6.74 8.79
6/11/2022 12:00:00 PM 15.71 60.278 0.486 7.78 6.42 8.83
6/11/2022 12:15:00 PM 15.87 60.566 0.458 7.79 7.09 8.88
6/11/2022 12:30:00 PM 15.89 60.602 0.429 7.79 7.44 8.93
6/11/2022 12:45:00 PM 15.71 60.278 0.421 7.77 6.82 8.65
6/11/2022 1:00:00 PM 15.88 60.584 0.417 7.79 6.25 8.85
6/11/2022 1:15:00 PM 15.91 60.638 0.402 7.79 6.05 8.9
6/11/2022 1:30:00 PM 15.9 60.62 0.414 7.8 6.23 8.82
6/11/2022 1:45:00 PM 16 60.8 0.409 7.82 6.07 8.96
6/11/2022 2:00:00 PM 16.01 60.818 0.41 7.82 6.25 8.98
6/11/2022 2:15:00 PM 16.01 60.818 0.404 7.81 6.04 8.88
6/11/2022 2:30:00 PM 16.03 60.854 0.405 7.82 6.19 8.89
6/11/2022 2:45:00 PM 16.07 60.926 0.417 7.82 6.13 8.9
6/11/2022 3:00:00 PM 16.09 60.962 0.421 7.81 6.21 8.85
6/11/2022 3:15:00 PM 16.24 61.232 0.419 7.83 5.88 8.99
6/11/2022 3:30:00 PM 16.28 61.304 0.409 7.83 6 9.01
6/11/2022 3:45:00 PM 16.57 61.826 0.406 7.85 5.94 9.12
6/11/2022 4:00:00 PM 16.61 61.898 0.393 7.86 5.83 9.1
6/11/2022 4:15:00 PM 16.64 61.952 0.376 7.85 5.6 9.1
6/11/2022 4:30:00 PM 16.85 62.33 0.403 7.86 5.89 9.03
6/11/2022 4:45:00 PM 16.73 62.114 0.412 7.84 6.31 8.85
6/11/2022 5:00:00 PM 16.94 62.492 0.422 7.85 5.43 9.05
6/11/2022 5:15:00 PM 16.61 61.898 0.443 7.81 6.5 8.57
6/11/2022 5:30:00 PM 16.91 62.438 0.441 7.87 6.37 9.05
6/11/2022 5:45:00 PM 16.27 61.286 0.416 7.78 5.55 7.74
6/11/2022 6:00:00 PM 16.28 61.304 0.42 7.83 5.75 8.99
6/11/2022 6:15:00 PM 16.26 61.268 0.425 7.82 5.88 8.22
6/11/2022 6:30:00 PM 16.44 61.592 0.489 7.82 5.67 8.75
6/11/2022 6:45:00 PM 16.24 61.232 0.492 7.73 5.53 7.76
6/11/2022 7:00:00 PM 16.71 62.078 0.43 7.8 5.95 8.23
6/11/2022 7:15:00 PM 17 62.6 0.471 7.8 5.95 8.08
6/11/2022 7:30:00 PM 16.62 61.916 0.445 7.76 5.54 7.73
6/11/2022 7:45:00 PM 16.55 61.79 0.458 7.75 5.81 7.3
6/11/2022 8:00:00 PM 16.22 61.196 0.505 7.78 5.91 7.97
6/11/2022 8:15:00 PM 16.18 61.124 0.504 7.73 5.43 7.42
6/11/2022 8:30:00 PM 16.54 61.772 0.462 7.78 5.71 7.9
6/11/2022 8:45:00 PM 16.26 61.268 0.488 7.74 5.72 7.7
6/11/2022 9:00:00 PM 16.07 60.926 0.44 7.72 6.27 7.26
6/11/2022 9:15:00 PM 15.66 60.188 0.529 7.68 6.2 7.07
6/11/2022 9:30:00 PM 15.39 59.702 0.457 7.67 7.07 6.88
6/11/2022 9:45:00 PM 15.7 60.26 0.538 7.7 7.29 7.27
6/11/2022 10:00:00 PM 15.75 60.35 0.497 7.71 6.89 7.06
6/11/2022 10:15:00 PM 16.12 61.016 0.444 7.69 7.15 7.05
6/11/2022 10:30:00 PM 15.45 59.81 0.476 7.66 7.39 6.6
6/11/2022 10:45:00 PM 15.61 60.098 0.603 7.67 7.17 7.11
6/11/2022 11:00:00 PM 15.68 60.224 0.977 7.65 7.31 6.49
6/11/2022 11:15:00 PM 15.79 60.422 1.158 7.64 7.59 6.6
6/11/2022 11:30:00 PM 15.53 59.954 0.462 7.63 7.54 6.18
6/11/2022 11:45:00 PM 15.56 60.008 0.719 7.62 10.47 6.46
6/12/2022 12:00:00 AM 15.01 59.018 0.585 7.66 7.93 7.07
6/12/2022 12:15:00 AM 15.04 59.072 0.5 7.64 7.58 6.82
6/12/2022 12:30:00 AM 14.7 58.46 0.516 7.61 7.17 6.78
6/12/2022 12:45:00 AM 14.85 58.73 0.495 7.54 7.23 5.81
6/12/2022 1:00:00 AM 14.9 58.82 0.589 7.6 7.82 6.21
6/12/2022 1:15:00 AM 14.48 58.064 0.864 7.6 6.82 6.61
6/12/2022 1:30:00 AM 14.73 58.514 1.128 7.58 7.2 5.96
6/12/2022 1:45:00 AM 14.6 58.28 1.162 7.6 7.17 6.6
6/12/2022 2:00:00 AM 14.63 58.334 1.251 7.55 7.16 5.97
6/12/2022 2:15:00 AM 14.44 57.992 1.242 7.52 7.13 5.78
6/12/2022 2:30:00 AM 14.72 58.496 1.302 7.58 7.62 6.32
6/12/2022 2:45:00 AM 14.68 58.424 1.397 7.55 8.17 6.43
6/12/2022 3:00:00 AM 14.41 57.938 0.823 7.58 7.83 6.31
6/12/2022 3:15:00 AM 14.5 58.1 0.532 7.59 7.71 6.12
6/12/2022 3:30:00 AM 14.55 58.19 0.592 7.6 7.09 6.59
6/12/2022 3:45:00 AM 14.59 58.262 0.976 7.6 7.97 6.38
6/12/2022 4:00:00 AM 14.4 57.92 1.08 7.57 8.04 5.91
6/12/2022 4:15:00 AM 14.28 57.704 1.083 7.55 8.15 6.39
6/12/2022 4:30:00 AM 14.11 57.398 1.076 7.58 7.75 6.06
6/12/2022 4:45:00 AM 14.06 57.308 0.982 7.59 9.11 6.48
6/12/2022 5:00:00 AM 14.18 57.524 1.021 7.52 8.24 5.82
6/12/2022 5:15:00 AM 14.31 57.758 0.972 7.59 8.3 6.22
6/12/2022 5:30:00 AM 14.33 57.794 1.039 7.59 10.29 6.32
6/12/2022 5:45:00 AM 14.28 57.704 1.117 7.58 8.78 6.46
6/12/2022 6:00:00 AM 14.23 57.614 1.095 7.58 7.86 6.73
6/12/2022 6:15:00 AM 13.98 57.164 1.057 7.59 7.02 6.77
6/12/2022 6:30:00 AM 14.14 57.452 1.043 7.6 7.95 6.89
6/12/2022 6:45:00 AM 14.04 57.272 1.526 7.6 8.86 6.98
6/12/2022 7:00:00 AM 14 57.2 1.638 7.51 8.71 5.56
6/12/2022 7:15:00 AM 13.92 57.056 1.702 7.63 7.17 7.24
6/12/2022 7:30:00 AM 14.09 57.362 1.724 7.55 7.29 6.53
6/12/2022 7:45:00 AM 13.64 56.552 1.801 7.61 7.07 6.95
6/12/2022 8:00:00 AM 13.91 57.038 1.766 7.62 7.47 7.33
6/12/2022 8:15:00 AM 14.57 58.226 1.635 7.61 8.86 7
6/12/2022 8:30:00 AM 14.71 58.478 1.618 7.64 7.67 7.3
6/12/2022 8:45:00 AM 14.72 58.496 1.63 7.64 7.4 7.4
6/12/2022 9:00:00 AM 14.75 58.55 1.407 7.64 7 7.4
6/12/2022 9:15:00 AM 14.88 58.784 1.271 7.68 6.36 7.63
6/12/2022 9:30:00 AM 15 59 1.35 7.69 6.18 7.84
6/12/2022 9:45:00 AM 14.93 58.874 1.324 7.68 6.11 7.89
6/12/2022 10:00:00 AM 15.16 59.288 1.383 7.7 5.93 7.98
6/12/2022 10:15:00 AM 15.28 59.504 1.327 7.71 5.89 8.03
6/12/2022 10:30:00 AM 15.57 60.026 1.259 7.72 5.68 8.2
6/12/2022 10:45:00 AM 15.77 60.386 1.337 7.73 6.09 8.43
6/12/2022 11:00:00 AM 15.7 60.26 1.332 7.72 7.8 8.15
6/12/2022 11:15:00 AM 15.9 60.62 1.301 7.73 5.98 8.38
6/12/2022 11:30:00 AM 16.06 60.908 1.335 7.76 5.77 8.58
6/12/2022 11:45:00 AM 16.18 61.124 1.304 7.75 5.64 8.57
6/12/2022 12:00:00 PM 16.28 61.304 1.27 7.76 5.49 8.53
6/12/2022 12:15:00 PM 16.49 61.682 1.374 7.79 5.74 8.8
6/12/2022 12:30:00 PM 16.43 61.574 1.305 7.78 5.89 8.63
6/12/2022 12:45:00 PM 16.53 61.754 1.313 7.8 5.13 8.73
6/12/2022 1:00:00 PM 16.63 61.934 1.259 7.8 5.5 8.73
6/12/2022 1:15:00 PM 16.8 62.24 1.288 7.79 5.4 8.66
6/12/2022 1:30:00 PM 16.92 62.456 1.302 7.8 5.3 8.82
6/12/2022 1:45:00 PM 17.12 62.816 1.302 7.8 5.18 8.87
6/12/2022 2:00:00 PM 17.05 62.69 1.256 7.83 5.19 8.73
6/12/2022 2:15:00 PM 17.17 62.906 1.319 7.82 5.2 8.85
6/12/2022 2:30:00 PM 17.27 63.086 1.297 7.82 5.37 8.82
6/12/2022 2:45:00 PM 17.17 62.906 1.312 7.79 5.52 8.52
6/12/2022 3:00:00 PM 17.28 63.104 1.342 7.84 5.25 8.77
6/12/2022 3:15:00 PM 17.09 62.762 1.322 7.77 5.04 7.94
6/12/2022 3:30:00 PM 17.25 63.05 1.154 7.83 4.98 8.54
6/12/2022 3:45:00 PM 17.26 63.068 0.77 7.84 4.85 8.46
6/12/2022 4:00:00 PM 17.25 63.05 1.019 7.84 5.05 8.64
6/12/2022 4:15:00 PM 17.18 62.924 1.119 7.81 4.91 7.95
6/12/2022 4:30:00 PM 17.36 63.248 0.994 7.85 5.27 8.49
6/12/2022 4:45:00 PM 17.2 62.96 1.093 7.79 4.86 8.24
6/12/2022 5:00:00 PM 17.25 63.05 1.131 7.83 4.92 8.26
6/12/2022 5:15:00 PM 17.21 62.978 1.152 7.8 4.72 8.11
6/12/2022 5:30:00 PM 17.17 62.906 1.186 7.75 4.67 7.93
6/12/2022 5:45:00 PM 17.22 62.996 1.153 7.78 4.91 7.69
6/12/2022 6:00:00 PM 17.49 63.482 1.173 7.83 4.77 8.34
6/12/2022 6:15:00 PM 17.42 63.356 1.204 7.83 5.04 8.26
6/12/2022 6:30:00 PM 17.3 63.14 1.329 7.79 4.85 8
6/12/2022 6:45:00 PM 17.35 63.23 1.213 7.81 4.72 7.97
6/12/2022 7:00:00 PM 17.37 63.266 2.115 7.81 5.01 7.97
6/12/2022 7:15:00 PM 17.32 63.176 3.25 7.76 4.77 7.49
6/12/2022 7:30:00 PM 17.39 63.302 3.408 7.78 4.9 7.62
6/12/2022 7:45:00 PM 17.42 63.356 3.459 7.76 4.79 7.56
6/12/2022 8:00:00 PM 17.31 63.158 3.561 7.75 4.9 7.24
6/12/2022 8:15:00 PM 17.44 63.392 3.552 7.76 5.05 7.43
6/12/2022 8:30:00 PM 17.41 63.338 3.604 7.74 5.12 7.26
6/12/2022 8:45:00 PM 17.35 63.23 3.628 7.72 5.19 7.12
6/12/2022 9:00:00 PM 17.34 63.212 3.595 7.72 5.38 7.1
6/12/2022 9:15:00 PM 17.28 63.104 3.593 7.71 5.59 6.92
6/12/2022 9:30:00 PM 17.45 63.41 3.886 7.7 5.89 7.01
6/12/2022 9:45:00 PM 17.23 63.014 4.849 7.69 6.81 6.73
6/12/2022 10:00:00 PM 17.19 62.942 2.456 7.69 7.31 6.6
6/12/2022 10:15:00 PM 17.12 62.816 4.872 7.62 6.85 6.35
6/12/2022 10:30:00 PM 17.18 62.924 4.788 7.64 6.74 6.49
6/12/2022 10:45:00 PM 17.14 62.852 4.561 7.65 6.55 6.48
6/12/2022 11:00:00 PM 17.22 62.996 4.579 7.67 6.61 6.62
6/12/2022 11:15:00 PM 17.02 62.636 4.391 7.64 6.77 6.37
6/12/2022 11:30:00 PM 17.03 62.654 4.37 7.63 7.93 6.38
6/12/2022 11:45:00 PM 16.85 62.33 4.457 7.62 6.64 6.3
6/13/2022 12:00:00 AM 16.94 62.492 4.364 7.62 6.92 6.28
6/13/2022 12:15:00 AM 16.72 62.096 4.498 7.6 6.59 6.15
6/13/2022 12:30:00 AM 16.82 62.276 4.343 7.61 6.36 6.24
6/13/2022 12:45:00 AM 16.71 62.078 4.337 7.61 6.35 6.31
6/13/2022 1:00:00 AM 16.73 62.114 4.374 7.62 6.56 6.24
6/13/2022 1:15:00 AM 16.59 61.862 4.568 7.6 6.53 6.1
6/13/2022 1:30:00 AM 16.66 61.988 4.537 7.61 6.64 6.23
6/13/2022 1:45:00 AM 16.54 61.772 4.474 7.61 6.91 6.2
6/13/2022 2:00:00 AM 16.62 61.916 4.385 7.62 7.07 6.34
6/13/2022 2:15:00 AM 16.45 61.61 4.411 7.6 7.09 6.26
6/13/2022 2:30:00 AM 16.46 61.628 4.527 7.59 6.92 6.13
6/13/2022 2:45:00 AM 16.42 61.556 4.491 7.6 6.91 6.27
6/13/2022 3:00:00 AM 16.5 61.7 4.383 7.6 7.33 6.35
6/13/2022 3:15:00 AM 16.43 61.574 4.397 7.59 8 6.24
6/13/2022 3:30:00 AM 16.41 61.538 4.443 7.6 7.74 6.32
6/13/2022 3:45:00 AM 16.24 61.232 4.403 7.59 7.26 6.18
6/13/2022 4:00:00 AM 16.4 61.52 4.367 7.6 7.68 6.25
6/13/2022 4:15:00 AM 16.22 61.196 4.368 7.59 7.46 6.16
6/13/2022 4:30:00 AM 16.19 61.142 4.317 7.59 7.64 6.19
6/13/2022 4:45:00 AM 16.23 61.214 4.227 7.58 7.93 6.09
6/13/2022 5:00:00 AM 16.25 61.25 4.232 7.59 11.59 6.28
6/13/2022 5:15:00 AM 16.09 60.962 4.22 7.57 8.58 6.09
6/13/2022 5:30:00 AM 16.23 61.214 4.143 7.59 9.14 6.29
6/13/2022 5:45:00 AM 16.07 60.926 4.156 7.57 9.62 6.23
6/13/2022 6:00:00 AM 16.15 61.07 4.155 7.59 14.39 6.25
6/13/2022 6:15:00 AM 16.07 60.926 4.109 7.58 8.07 6.39
6/13/2022 6:30:00 AM 15.86 60.548 4.121 7.59 8.17 6.28
6/13/2022 6:45:00 AM 15.76 60.368 4.118 7.56 8.53 6.27
6/13/2022 7:00:00 AM 15.91 60.638 3.981 7.58 7.88 6.36
6/13/2022 7:15:00 AM 15.99 60.782 3.891 7.59 7.82 6.5
6/13/2022 7:30:00 AM 15.91 60.638 3.758 7.59 8.2 6.53
6/13/2022 7:45:00 AM 15.95 60.71 3.716 7.59 8 6.48
6/13/2022 8:00:00 AM 16.01 60.818 3.763 7.61 7.56 6.65
6/13/2022 8:15:00 AM 16.03 60.854 3.781 7.61 7.91 6.69
6/13/2022 8:30:00 AM 15.98 60.764 3.809 7.61 6.6 6.61
6/13/2022 8:45:00 AM 15.94 60.692 3.834 7.61 6.2 6.76
6/13/2022 9:00:00 AM 16.01 60.818 3.776 7.62 6.26 6.93
6/13/2022 9:15:00 AM 16.09 60.962 3.703 7.64 6.13 7.17
6/13/2022 9:30:00 AM 16.16 61.088 3.488 7.65 5.84 7.2
6/13/2022 9:45:00 AM 16.23 61.214 3.456 7.66 6.88 7.41
6/13/2022 10:00:00 AM 16.31 61.358 3.515 7.66 5.96 7.33
6/13/2022 10:15:00 AM 16.12 61.016 3.602 7.65 5.42 7.41
6/13/2022 10:30:00 AM 16.41 61.538 3.704 7.69 5.78 7.7
6/13/2022 10:45:00 AM 16.4 61.52 3.56 7.67 5.37 7.67
6/13/2022 11:00:00 AM 16.76 62.168 3.632 7.7 5.56 7.88
6/13/2022 11:15:00 AM 16.34 61.412 3.438 7.68 5.22 7.31
6/13/2022 11:30:00 AM 16.99 62.582 3.089 7.72 5.12 8.05
6/13/2022 11:45:00 AM 17.1 62.78 3.201 7.73 5.12 8.11
6/13/2022 12:00:00 PM 17.34 63.212 3.164 7.75 5.35 8.34
6/13/2022 12:15:00 PM 17.45 63.41 3.128 7.73 5.99 8.21
6/13/2022 12:30:00 PM 17.72 63.896 2.975 7.75 4.97 8.38
6/13/2022 12:45:00 PM 17.67 63.806 2.888 7.71 5.02 7.99
6/13/2022 1:00:00 PM 18.03 64.454 2.853 7.76 4.67 8.43
6/13/2022 1:15:00 PM 18.33 64.994 2.847 7.79 4.94 8.59
6/13/2022 1:30:00 PM 18.66 65.588 2.828 7.81 4.79 8.76
6/13/2022 1:45:00 PM 18.89 66.002 2.754 7.82 4.73 8.87
6/13/2022 2:00:00 PM 18.91 66.038 2.69 7.82 5.06 8.79
6/13/2022 2:15:00 PM 19.08 66.344 2.524 7.8 4.92 8.64
6/13/2022 2:30:00 PM 19.08 66.344 2.553 7.8 4.93 8.58
6/13/2022 2:45:00 PM 19.15 66.47 2.535 7.79 5.03 8.78
6/13/2022 3:00:00 PM 19.44 66.992 2.44 7.8 4.89 8.69
6/13/2022 3:15:00 PM 19.48 67.064 2.423 7.78 4.95 8.52
6/13/2022 3:30:00 PM 19.79 67.622 2.139 7.84 4.59 8.94
6/13/2022 3:45:00 PM 19.66 67.388 2.054 7.84 4.74 8.83
6/13/2022 4:00:00 PM 19.69 67.442 1.974 7.79 4.59 8.3
6/13/2022 4:15:00 PM 19.83 67.694 1.82 7.84 4.58 8.31
6/13/2022 4:30:00 PM 19.79 67.622 1.999 7.78 4.59 8.17
6/13/2022 4:45:00 PM 20.08 68.144 1.846 7.85 5.24 8.72
6/13/2022 5:00:00 PM 19.75 67.55 1.976 7.85 4.44 8.82
6/13/2022 5:15:00 PM 20 68 1.765 7.8 4.78 8.03
6/13/2022 5:30:00 PM 20.04 68.07201 1.771 7.84 4.62 8.2
6/13/2022 5:45:00 PM 19.73 67.514 0.394 7.83 4.71 8.16
6/13/2022 6:00:00 PM 19.9 67.82 1.039 7.82 4.58 8.05
6/13/2022 6:15:00 PM 19.81 67.658 0.999 7.82 4.8 8.03
6/13/2022 6:30:00 PM 19.76 67.568 0.752 7.79 4.84 7.84
6/13/2022 6:45:00 PM 19.9 67.82 1.192 7.81 4.94 7.99
6/13/2022 7:00:00 PM 19.6 67.28 1.123 7.79 4.72 7.47
6/13/2022 7:15:00 PM 19.67 67.406 0.621 7.75 4.94 7.31
6/13/2022 7:30:00 PM 19.67 67.406 0.741 7.76 5.1 7.35
6/13/2022 7:45:00 PM 19.72 67.496 0.809 7.78 5.08 7.32
6/13/2022 8:00:00 PM 19.65 67.37 0.596 7.75 4.73 6.96
6/13/2022 8:15:00 PM 19.76 67.568 1.67 7.74 5.27 6.95
6/13/2022 8:30:00 PM 19.59 67.262 1.781 7.75 5.29 6.97
6/13/2022 8:45:00 PM 19.5 67.1 1.744 7.74 5.45 6.86
6/13/2022 9:00:00 PM 19.4 66.92 1.922 7.71 5.57 6.6
6/13/2022 9:15:00 PM 19.34 66.812 1.88 7.73 5.49 6.6
6/13/2022 9:30:00 PM 19.37 66.866 2.064 7.68 6.3 6.5
6/13/2022 9:45:00 PM 19.27 66.686 2.212 7.69 6.47 6.34
6/13/2022 10:00:00 PM 19.31 66.758 2.288 7.68 6.25 6.41
6/13/2022 10:15:00 PM 19.19 66.542 2.217 7.67 5.91 6.19
6/13/2022 10:30:00 PM 18.96 66.128 2.222 7.67 6.6 6.21
6/13/2022 10:45:00 PM 18.74 65.732 2.225 7.65 6.79 6.08
6/13/2022 11:00:00 PM 18.92 66.056 2.145 7.66 6.44 6.03
6/13/2022 11:15:00 PM 18.91 66.038 2.136 7.66 6.66 6.03
6/13/2022 11:30:00 PM 18.57 65.426 2.086 7.63 6.63 5.83
6/13/2022 11:45:00 PM 18.78 65.804 2.043 7.63 6.86 5.94
6/14/2022 12:00:00 AM 18.48 65.264 2.132 7.62 6.82 5.84
6/14/2022 12:15:00 AM 18.35 65.03 2.334 7.6 6.47 5.73
6/14/2022 12:30:00 AM 18.33 64.994 2.297 7.61 6.58 5.78
6/14/2022 12:45:00 AM 18.35 65.03 2.283 7.61 6.8 5.8
6/14/2022 1:00:00 AM 17.93 64.274 2.263 7.58 6.41 5.5
6/14/2022 1:15:00 AM 17.85 64.13 0.404 7.61 6.75 5.67
6/14/2022 1:30:00 AM 17.75 63.95 1.952 7.6 6.77 5.65
6/14/2022 1:45:00 AM 17.95 64.31 1.626 7.61 7.35 5.81
6/14/2022 2:00:00 AM 17.59 63.662 1.549 7.58 7.6 5.62
6/14/2022 2:15:00 AM 17.66 63.788 0.889 7.59 7.25 5.77
6/14/2022 2:30:00 AM 17.61 63.698 0.616 7.59 7.91 5.74
6/14/2022 2:45:00 AM 17.54 63.572 0.448 7.59 7.1 5.8
6/14/2022 3:00:00 AM 17.41 63.338 0.461 7.6 7.57 5.77
6/14/2022 3:15:00 AM 17.31 63.158 0.482 7.59 7.27 5.75
6/14/2022 3:30:00 AM 17.41 63.338 0.451 7.59 7.2 5.78
6/14/2022 3:45:00 AM 17.2 62.96 0.517 7.57 7.53 5.69
6/14/2022 4:00:00 AM 17.18 62.924 0.556 7.58 7.8 5.72
6/14/2022 4:15:00 AM 16.91 62.438 0.595 7.57 7.28 5.7
6/14/2022 4:30:00 AM 16.97 62.546 0.574 7.58 7.31 5.67
6/14/2022 4:45:00 AM 16.87 62.366 0.484 7.57 7.73 5.82
6/14/2022 5:00:00 AM 16.87 62.366 0.475 7.57 8.44 5.68
6/14/2022 5:15:00 AM 16.67 62.006 0.508 7.56 7.79 5.68
6/14/2022 5:30:00 AM 16.75 62.15 0.515 7.58 8.21 5.93
6/14/2022 5:45:00 AM 16.6 61.88 0.567 7.56 7.82 5.73
6/14/2022 6:00:00 AM 16.48 61.664 0.569 7.57 7.53 5.84
6/14/2022 6:15:00 AM 16.56 61.808 0.515 7.58 6.69 5.99
6/14/2022 6:30:00 AM 16.56 61.808 0.519 7.59 7.67 6.1
6/14/2022 6:45:00 AM 16.44 61.592 0.479 7.58 7.9 6.06
6/14/2022 7:00:00 AM 16.44 61.592 0.5 7.6 7.26 6.12
6/14/2022 7:15:00 AM 16.41 61.538 0.505 7.59 8.17 6.31
6/14/2022 7:30:00 AM 16.4 61.52 0.521 7.61 7.26 6.38
6/14/2022 7:45:00 AM 16.48 61.664 0.51 7.61 7.22 6.54
6/14/2022 8:00:00 AM 16.26 61.268 0.498 7.61 6.95 6.66
6/14/2022 8:15:00 AM 16.37 61.466 0.494 7.61 8.02 6.61
6/14/2022 8:30:00 AM 16.12 61.016 0.51 7.59 7.58 6.53
6/14/2022 8:45:00 AM 16.53 61.754 0.476 7.63 6.68 6.95
6/14/2022 9:00:00 AM 16.38 61.484 0.472 7.62 7.05 6.9
6/14/2022 9:15:00 AM 16.65 61.97 0.471 7.66 5.87 7.12
6/14/2022 9:30:00 AM 16.58 61.844 0.488 7.64 5.97 7.04
6/14/2022 9:45:00 AM 16.77 62.186 0.49 7.68 6.14 7.41
6/14/2022 10:00:00 AM 16.68 62.024 0.496 7.67 5.63 7.33
6/14/2022 10:15:00 AM 16.95 62.51 0.487 7.7 5.74 7.64
6/14/2022 10:30:00 AM 16.96 62.528 0.496 7.67 5.32 7.53
6/14/2022 10:45:00 AM 17.04 62.672 0.497 7.69 5.25 7.74
6/14/2022 11:00:00 AM 17.36 63.248 0.481 7.72 5.5 7.9
6/14/2022 11:15:00 AM 17.45 63.41 0.472 7.7 5.19 8
6/14/2022 11:30:00 AM 17.61 63.698 0.459 7.72 5.34 7.97
6/14/2022 11:45:00 AM 17.73 63.914 0.463 7.75 5.36 8.34
6/14/2022 12:00:00 PM 18.06 64.508 0.449 7.76 5.33 8.26
6/14/2022 12:15:00 PM 18.11 64.598 0.44 7.77 4.98 8.39
6/14/2022 12:30:00 PM 18.2 64.76 0.441 7.76 5.42 8.28
6/14/2022 12:45:00 PM 18.65 65.57 0.431 7.76 5.26 8.35
6/14/2022 1:00:00 PM 18.59 65.462 0.452 7.8 4.91 8.61
6/14/2022 1:15:00 PM 18.9 66.02 0.444 7.78 4.83 8.47
6/14/2022 1:30:00 PM 18.79 65.82201 0.444 7.78 5.24 8.55
6/14/2022 1:45:00 PM 19.03 66.254 0.443 7.74 4.85 8.15
6/14/2022 2:00:00 PM 19.47 67.046 0.428 7.79 4.66 8.46
6/14/2022 2:15:00 PM 19.34 66.812 0.439 7.76 4.98 8.06
6/14/2022 2:30:00 PM 19.51 67.118 0.435 7.77 4.95 8.21
6/14/2022 2:45:00 PM 19.66 67.388 0.436 7.8 4.95 8.38
6/14/2022 3:00:00 PM 19.82 67.676 0.428 7.8 5.23 8.45
6/14/2022 3:15:00 PM 20.12 68.216 0.433 7.77 5.27 8.52
6/14/2022 3:30:00 PM 20.29 68.522 0.424 7.79 4.71 8.34
6/14/2022 3:45:00 PM 20.13 68.234 0.437 7.77 4.64 8.28
6/14/2022 4:00:00 PM 20.03 68.054 0.437 7.8 4.62 8.57
6/14/2022 4:15:00 PM 20.66 69.188 0.423 7.81 4.92 8.4
6/14/2022 4:30:00 PM 20.43 68.774 0.425 7.83 4.75 8.51
6/14/2022 4:45:00 PM 20.78 69.404 0.42 7.83 4.54 8.49
6/14/2022 5:00:00 PM 20.59 69.062 0.436 7.81 5.02 8.43
6/14/2022 5:15:00 PM 20.28 68.504 0.437 7.78 4.68 8.15
6/14/2022 5:30:00 PM 20.42 68.756 0.424 7.78 4.71 7.89
6/14/2022 5:45:00 PM 20.33 68.594 0.421 7.76 5.51 7.71
6/14/2022 6:00:00 PM 20.46 68.828 0.415 7.77 4.75 7.75
6/14/2022 6:15:00 PM 20.45 68.81 0.419 7.81 4.46 7.91
6/14/2022 6:30:00 PM 20.07 68.126 0.436 7.76 4.68 7.46
6/14/2022 6:45:00 PM 20.13 68.234 0.399 7.75 4.65 7.37
6/14/2022 7:00:00 PM 20.21 68.378 0.398 7.77 4.86 7.29
6/14/2022 7:15:00 PM 20.14 68.252 0.401 7.74 4.92 7.12
6/14/2022 7:30:00 PM 19.92 67.856 0.403 7.75 5.02 7.11
6/14/2022 7:45:00 PM 19.9 67.82 0.405 7.74 4.96 6.86
6/14/2022 8:00:00 PM 19.82 67.676 0.404 7.72 5.12 6.75
6/14/2022 8:15:00 PM 19.76 67.568 0.404 7.72 5.41 6.73
6/14/2022 8:30:00 PM 19.37 66.866 0.407 7.71 4.98 6.53
6/14/2022 8:45:00 PM 19.84 67.712 0.399 7.7 5.38 6.54
6/14/2022 9:00:00 PM 19.84 67.712 0.398 7.71 5.53 6.36
6/14/2022 9:15:00 PM 19.56 67.208 0.404 7.7 5.94 6.2
6/14/2022 9:30:00 PM 19.49 67.082 0.404 7.66 6.1 6.12
6/14/2022 9:45:00 PM 19.54 67.172 0.399 7.67 6.4 6.14
6/14/2022 10:00:00 PM 19.42 66.956 0.404 7.66 6.54 6.1
6/14/2022 10:15:00 PM 19.1 66.38 0.405 7.64 6.65 5.79
6/14/2022 10:30:00 PM 19.24 66.632 0.403 7.62 6.11 5.67
6/14/2022 10:45:00 PM 18.89 66.002 0.409 7.63 6.39 5.92
6/14/2022 11:00:00 PM 19.16 66.488 0.403 7.62 6.52 5.57
6/14/2022 11:15:00 PM 19.06 66.308 0.405 7.61 6.83 5.55
6/14/2022 11:30:00 PM 18.86 65.948 0.404 7.6 6.58 5.59
6/14/2022 11:45:00 PM 18.58 65.444 0.409 7.59 6.85 5.47
6/15/2022 12:00:00 AM 18.63 65.534 0.407 7.61 7.24 5.7
6/15/2022 12:15:00 AM 18.48 65.264 0.41 7.59 7.26 5.49
6/15/2022 12:30:00 AM 18.26 64.868 0.411 7.59 6.82 5.47
6/15/2022 12:45:00 AM 18.21 64.778 0.41 7.59 7.56 5.54
6/15/2022 1:00:00 AM 18.2 64.76 0.408 7.59 7.13 5.54
6/15/2022 1:15:00 AM 18.04 64.472 0.411 7.55 6.7 5.25
6/15/2022 1:30:00 AM 18.11 64.598 0.405 7.6 6.95 5.66
6/15/2022 1:45:00 AM 17.66 63.788 0.414 7.56 7.05 5.26
6/15/2022 2:00:00 AM 17.95 64.31 0.408 7.61 7.17 5.52
6/15/2022 2:15:00 AM 17.8 64.04 0.407 7.61 8.07 5.69
6/15/2022 2:30:00 AM 17.37 63.266 0.418 7.57 6.8 5.53
6/15/2022 2:45:00 AM 17.4 63.32 0.413 7.58 7.43 5.72
6/15/2022 3:00:00 AM 17.4 63.32 0.409 7.58 7.8 5.62
6/15/2022 3:15:00 AM 17.18 62.924 0.415 7.57 7.4 5.52
6/15/2022 3:30:00 AM 17.05 62.69 0.416 7.56 7.82 5.52
6/15/2022 3:45:00 AM 17.11 62.798 0.413 7.58 9.93 5.72
6/15/2022 4:00:00 AM 17.03 62.654 0.412 7.58 7.73 5.65
6/15/2022 4:15:00 AM 16.93 62.474 0.412 7.58 7.6 5.68
6/15/2022 4:30:00 AM 16.69 62.042 0.42 7.56 7.23 5.56
6/15/2022 4:45:00 AM 16.58 61.844 0.421 7.59 8.13 5.76
6/15/2022 5:00:00 AM 16.59 61.862 0.418 7.59 7.58 5.7
6/15/2022 5:15:00 AM 16.59 61.862 0.411 7.58 7.48 5.79
6/15/2022 5:30:00 AM 16.47 61.646 0.415 7.58 7.75 5.8
6/15/2022 5:45:00 AM 16.47 61.646 0.413 7.57 8.11 5.91
6/15/2022 6:00:00 AM 16.28 61.304 0.415 7.56 7.94 5.82
6/15/2022 6:15:00 AM 16.27 61.286 0.421 7.58 7.62 5.91
6/15/2022 6:30:00 AM 16.14 61.052 0.421 7.57 7.64 5.85
6/15/2022 6:45:00 AM 16.14 61.052 0.419 7.58 7.44 6.06
6/15/2022 7:00:00 AM 15.99 60.782 0.419 7.58 7.69 5.93
6/15/2022 7:15:00 AM 16.05 60.89 0.416 7.58 9.59 6.07
6/15/2022 7:30:00 AM 16.05 60.89 0.416 7.57 7.89 6.04
6/15/2022 7:45:00 AM 15.93 60.674 0.423 7.57 7.26 5.9
6/15/2022 8:00:00 AM 15.89 60.602 0.42 7.61 7.34 6.42
6/15/2022 8:15:00 AM 15.96 60.728 0.416 7.61 7.1 6.23
6/15/2022 8:30:00 AM 15.93 60.674 0.416 7.6 6.87 6.39
6/15/2022 8:45:00 AM 16.16 61.088 0.411 7.6 6.79 6.48
6/15/2022 9:00:00 AM 16.28 61.304 0.409 7.62 6.1 6.75
6/15/2022 9:15:00 AM 16.35 61.43 0.41 7.63 6.25 6.78
6/15/2022 9:30:00 AM 16.52 61.736 0.405 7.62 5.98 6.8
6/15/2022 9:45:00 AM 16.43 61.574 0.412 7.63 5.99 6.77
6/15/2022 10:00:00 AM 16.76 62.168 0.407 7.65 6.84 7.32
6/15/2022 10:15:00 AM 16.91 62.438 0.403 7.66 6.52 7.28
6/15/2022 10:30:00 AM 16.88 62.384 0.407 7.64 5.42 6.96
6/15/2022 10:45:00 AM 17.14 62.852 0.405 7.69 5.79 7.47
6/15/2022 11:00:00 AM 17.44 63.392 0.4 7.71 5.69 7.88
6/15/2022 11:15:00 AM 17.53 63.554 0.401 7.7 5.68 7.76
6/15/2022 11:30:00 AM 17.42 63.356 0.404 7.71 5.54 7.84
6/15/2022 11:45:00 AM 17.86 64.148 0.4 7.7 5.34 7.91
6/15/2022 12:00:00 PM 18.15 64.67 0.397 7.74 5.55 8.17
6/15/2022 12:15:00 PM 18.43 65.174 0.397 7.73 4.98 8.23
6/15/2022 12:30:00 PM 18.37 65.066 0.402 7.72 5.43 7.89
6/15/2022 12:45:00 PM 18.64 65.552 0.399 7.73 5.17 8.21
6/15/2022 1:00:00 PM 18.76 65.768 0.402 7.75 5.15 8.32
6/15/2022 1:15:00 PM 18.95 66.11 0.397 7.78 5.4 8.19
6/15/2022 1:30:00 PM 18.72 65.696 0.403 7.72 5.22 8.11
6/15/2022 1:45:00 PM 19.39 66.902 0.392 7.8 5.06 8.59
6/15/2022 2:00:00 PM 19.3 66.74 0.395 7.78 5.2 8.45
6/15/2022 2:15:00 PM 19.43 66.974 0.397 7.79 5.65 8.57
6/15/2022 2:30:00 PM 19.47 67.046 0.394 7.81 4.76 8.5
6/15/2022 2:45:00 PM 19.51 67.118 0.395 7.79 5.27 8.48
6/15/2022 3:00:00 PM 19.56 67.208 0.396 7.79 5.06 8.25
6/15/2022 3:15:00 PM 19.7 67.46 0.403 7.78 5.48 8.45
6/15/2022 3:30:00 PM 19.96 67.92799 0.395 7.8 4.86 8.31
6/15/2022 3:45:00 PM 20.05 68.09 0.394 7.81 5.22 8.52
6/15/2022 4:00:00 PM 20.14 68.252 0.395 7.79 8.17 8.39
6/15/2022 4:15:00 PM 20.08 68.144 0.397 7.82 6.21 8.41
6/15/2022 4:30:00 PM 20.16 68.288 0.4 7.83 5.14 8.48
6/15/2022 4:45:00 PM 20.24 68.432 0.399 7.83 5.28 8.41
6/15/2022 5:00:00 PM 20.06 68.108 0.402 7.78 8.03 7.91
6/15/2022 5:15:00 PM 20.31 68.558 0.4 7.82 4.95 8.09
6/15/2022 5:30:00 PM 20.51 68.918 0.4 7.82 4.96 8.19
6/15/2022 5:45:00 PM 20.17 68.306 0.404 7.79 5.17 7.85
6/15/2022 6:00:00 PM 20.61 69.098 0.396 7.84 4.97 8.27
6/15/2022 6:15:00 PM 20.36 68.648 0.4 7.8 5.01 7.81
6/15/2022 6:30:00 PM 20.3 68.54 0.4 7.75 4.78 7.59
6/15/2022 6:45:00 PM 19.85 67.73 0.407 7.74 5.13 7.12
6/15/2022 7:00:00 PM 20 68 0.407 7.74 4.99 6.99
6/15/2022 7:15:00 PM 20.41 68.738 0.4 7.77 5.12 7.36
6/15/2022 7:30:00 PM 20.08 68.144 0.409 7.73 5.28 6.71
6/15/2022 7:45:00 PM 20.24 68.432 0.404 7.74 5.39 6.88
6/15/2022 8:00:00 PM 20.24 68.432 0.406 7.72 5.02 6.6
6/15/2022 8:15:00 PM 20.2 68.36 0.405 7.71 5 6.53
6/15/2022 8:30:00 PM 20.16 68.288 0.407 7.71 5.6 6.53
6/15/2022 8:45:00 PM 20.28 68.504 0.407 7.72 6.32 6.47
6/15/2022 9:00:00 PM 20.12 68.216 0.407 7.68 6.09 6.11
6/15/2022 9:15:00 PM 20.02 68.036 0.408 7.67 6.34 6.08
6/15/2022 9:30:00 PM 20.22 68.396 0.405 7.67 6.15 6.02
6/15/2022 9:45:00 PM 19.98 67.964 0.407 7.66 6.29 5.93
6/15/2022 10:00:00 PM 19.86 67.748 0.408 7.63 6.41 5.87
6/15/2022 10:15:00 PM 19.53 67.154 0.412 7.63 6.77 5.6
6/15/2022 10:30:00 PM 19.74 67.532 0.408 7.62 6.59 5.71
6/15/2022 10:45:00 PM 19.83 67.694 0.407 7.63 6.8 5.58
6/15/2022 11:00:00 PM 19.43 66.974 0.413 7.63 7.13 5.7
6/15/2022 11:15:00 PM 19.87 67.766 0.408 7.64 7.11 5.82
6/15/2022 11:30:00 PM 19.64 67.352 0.41 7.62 7.39 5.56
6/15/2022 11:45:00 PM 19.29 66.722 0.413 7.58 7.01 5.31
6/16/2022 12:00:00 AM 19.56 67.208 0.41 7.62 7.25 5.66
6/16/2022 12:15:00 AM 19.24 66.632 0.413 7.6 7.86 5.41
6/16/2022 12:30:00 AM 19.42 66.956 0.409 7.6 7.34 5.39
6/16/2022 12:45:00 AM 19.31 66.758 0.41 7.57 8.61 5.26
6/16/2022 1:00:00 AM 19.47 67.046 0.408 7.6 7.36 5.53
6/16/2022 1:15:00 AM 19.12 66.416 0.412 7.59 7.37 5.36
6/16/2022 1:30:00 AM 19.08 66.344 0.412 7.59 6.76 5.39
6/16/2022 1:45:00 AM 19.16 66.488 0.411 7.6 7.39 5.46
6/16/2022 2:00:00 AM 19.11 66.398 0.412 7.59 7.11 5.3
6/16/2022 2:15:00 AM 18.92 66.056 0.413 7.59 7.63 5.44
6/16/2022 2:30:00 AM 18.56 65.408 0.422 7.58 7.5 5.21
6/16/2022 2:45:00 AM 18.54 65.372 0.418 7.55 7.45 5.09
6/16/2022 3:00:00 AM 18.91 66.038 0.407 7.6 8.39 5.58
6/16/2022 3:15:00 AM 18.25 64.85 0.417 7.55 8.57 5.1
6/16/2022 3:30:00 AM 18.06 64.508 0.417 7.52 8.42 4.83
6/16/2022 3:45:00 AM 18.78 65.804 2.955 7.55 8.92 5.36
6/16/2022 4:00:00 AM 18.78 65.804 2.79 7.56 8.87 5.36
6/16/2022 4:15:00 AM 18.64 65.552 2.737 7.56 8.98 5.22
6/16/2022 4:30:00 AM 18.81 65.858 2.956 7.58 9.42 5.47
6/16/2022 4:45:00 AM 18.67 65.606 2.712 7.56 9.19 5.37
6/16/2022 5:00:00 AM 18.59 65.462 2.032 7.57 9.35 5.36
6/16/2022 5:15:00 AM 18.62 65.516 1.602 7.57 9.09 5.4
6/16/2022 5:30:00 AM 18.66 65.588 2.321 7.57 9.09 5.41
6/16/2022 5:45:00 AM 18.83 65.894 2.361 7.58 8.4 5.49
6/16/2022 6:00:00 AM 18.54 65.372 1.942 7.57 9.73 5.44
6/16/2022 6:15:00 AM 18.42 65.156 0.454 7.58 9.26 5.31
6/16/2022 6:30:00 AM 18.45 65.21 1.616 7.56 8.77 5.39
6/16/2022 6:45:00 AM 18.41 65.138 1.683 7.58 8.78 5.48
6/16/2022 7:00:00 AM 18.6 65.48 1.8 7.58 8.89 5.64
6/16/2022 7:15:00 AM 18.52 65.336 1.7 7.58 8.74 5.67
6/16/2022 7:30:00 AM 18.54 65.372 1.747 7.58 8.42 5.66
6/16/2022 7:45:00 AM 18.54 65.372 1.574 7.58 7.93 5.72
6/16/2022 8:00:00 AM 18.5 65.3 1.086 7.58 7.92 5.75
6/16/2022 8:15:00 AM 18.32 64.976 1.4 7.58 7.95 5.69
6/16/2022 8:30:00 AM 18.5 65.3 0.948 7.6 7.93 5.89
6/16/2022 8:45:00 AM 18.28 64.904 1.442 7.55 8.53 5.78
6/16/2022 9:00:00 AM 18.32 64.976 0.41 7.59 7.95 5.89
6/16/2022 9:15:00 AM 18.21 64.778 0.415 7.56 7.33 5.77
6/16/2022 9:30:00 AM 18.39 65.102 1.762 7.59 7.13 6.24
6/16/2022 9:45:00 AM 18.52 65.336 1.826 7.6 6.25 6.34
6/16/2022 10:00:00 AM 18.67 65.606 1.75 7.61 6.63 6.57
6/16/2022 10:15:00 AM 18.59 65.462 1.816 7.63 6.69 6.63
6/16/2022 10:30:00 AM 18.59 65.462 1.87 7.64 6.12 6.69
6/16/2022 10:45:00 AM 18.64 65.552 2.002 7.65 5.92 6.91
6/16/2022 11:00:00 AM 18.55 65.39 2.014 7.62 5.99 6.65
6/16/2022 11:15:00 AM 18.76 65.768 1.855 7.66 5.97 7.1
6/16/2022 11:30:00 AM 18.84 65.912 1.901 7.66 5.72 7.2
6/16/2022 11:45:00 AM 18.88 65.984 1.619 7.69 5.68 7.48
6/16/2022 12:00:00 PM 19.18 66.524 0.988 7.7 5.62 7.44
6/16/2022 12:15:00 PM 19.29 66.722 0.944 7.7 5.79 7.49
6/16/2022 12:30:00 PM 19.73 67.514 1.561 7.75 5.54 7.87
6/16/2022 12:45:00 PM 19.7 67.46 1.391 7.71 5.55 7.7
6/16/2022 1:00:00 PM 19.86 67.748 1.152 7.71 5.42 7.67
6/16/2022 1:15:00 PM 19.98 67.964 0.763 7.73 5.63 7.72
6/16/2022 1:30:00 PM 20.18 68.324 1.374 7.73 5.37 7.96
6/16/2022 1:45:00 PM 20.17 68.306 1.187 7.75 5.52 7.96
6/16/2022 2:00:00 PM 20.46 68.828 1.201 7.79 5.36 8.2
6/16/2022 2:15:00 PM 20.69 69.242 0.961 7.79 5.12 8.45
6/16/2022 2:30:00 PM 20.53 68.954 0.84 7.74 5.26 7.73
6/16/2022 2:45:00 PM 20.57 69.026 0.475 7.76 5.2 8.15
6/16/2022 3:00:00 PM 21.13 70.034 0.414 7.81 5.75 8.31
6/16/2022 3:15:00 PM 21.28 70.304 0.977 7.83 5.31 8.62
6/16/2022 3:30:00 PM 20.85 69.53 0.405 7.79 5.26 8.23
6/16/2022 3:45:00 PM 20.87 69.566 0.404 7.81 5.25 8.34
6/16/2022 4:00:00 PM 21.06 69.908 1.874 7.8 5.76 8.16
6/16/2022 4:15:00 PM 21.11 69.998 1.768 7.78 5.13 8.03
6/16/2022 4:30:00 PM 21.52 70.736 1.445 7.86 5.28 8.59
6/16/2022 4:45:00 PM 21.64 70.952 1.354 7.88 5.01 8.47
6/16/2022 5:00:00 PM 21.79 71.222 1.105 7.9 5.63 8.67
6/16/2022 5:15:00 PM 21.71 71.078 1.287 7.89 6.03 8.62
6/16/2022 5:30:00 PM 21.7 71.06 1.122 7.9 5.33 8.55
6/16/2022 5:45:00 PM 21.71 71.078 0.848 7.89 6.12 8.28
6/16/2022 6:00:00 PM 21.73 71.114 1.209 7.87 6.69 8.22
6/16/2022 6:15:00 PM 21.57 70.826 1.018 7.85 6.24 8.08
6/16/2022 6:30:00 PM 21.75 71.15 1.217 7.86 6.11 7.95
6/16/2022 6:45:00 PM 21.66 70.988 0.906 7.85 6.18 7.74
6/16/2022 7:00:00 PM 21.56 70.808 0.393 7.83 6.28 7.56
6/16/2022 7:15:00 PM 21.6 70.88 1.149 7.84 5.98 7.44
6/16/2022 7:30:00 PM 21.61 70.898 1.112 7.82 6.43 7.29
6/16/2022 7:45:00 PM 21.61 70.898 0.662 7.81 6.38 7.12
6/16/2022 8:00:00 PM 21.61 70.898 1.002 7.81 6.37 7.03
6/16/2022 8:15:00 PM 21.62 70.916 0.424 7.8 6.44 6.86
6/16/2022 8:30:00 PM 21.58 70.844 0.98 7.78 6.45 6.71
6/16/2022 8:45:00 PM 21.65 70.97 0.721 7.77 6.58 6.65
6/16/2022 9:00:00 PM 21.45 70.61 0.619 7.75 7.09 6.49
6/16/2022 9:15:00 PM 21.41 70.538 0.572 7.74 7.28 6.38
6/16/2022 9:30:00 PM 21.63 70.934 0.367 7.74 8.12 6.29
6/16/2022 9:45:00 PM 21.49 70.682 0.37 7.73 8.08 6.2
6/16/2022 10:00:00 PM 21.42 70.556 1.582 7.72 8.45 6.09
6/16/2022 10:15:00 PM 21.57 70.826 1.419 7.71 10.32 6
6/16/2022 10:30:00 PM 21.52 70.736 1.557 7.7 9.13 6.01
6/16/2022 10:45:00 PM 21.41 70.538 1.489 7.68 8.87 5.94
6/16/2022 11:00:00 PM 21.3 70.34 1.477 7.67 9.37 5.95
6/16/2022 11:15:00 PM 21.22 70.196 1.425 7.66 8.99 5.85
6/16/2022 11:30:00 PM 21.2 70.16 0.359 7.68 8.47 5.86
6/16/2022 11:45:00 PM 21.04 69.872 1.474 7.64 8.47 5.77
6/17/2022 12:00:00 AM 20.89 69.602 1.371 7.66 8.78 5.8
6/17/2022 12:15:00 AM 20.79 69.422 1.302 7.64 8.8 5.78
6/17/2022 12:30:00 AM 20.72 69.296 1.222 7.63 8.36 5.78
6/17/2022 12:45:00 AM 20.67 69.206 1.105 7.63 8.57 5.78
6/17/2022 1:00:00 AM 20.45 68.81 1.05 7.62 8.9 5.74
6/17/2022 1:15:00 AM 20.39 68.702 1.339 7.61 9.27 5.72
6/17/2022 1:30:00 AM 20.24 68.432 1.137 7.6 9.51 5.7
6/17/2022 1:45:00 AM 20.14 68.252 0.362 7.61 9.38 5.73
6/17/2022 2:00:00 AM 20.1 68.18 0.453 7.61 9.07 5.75
6/17/2022 2:15:00 AM 19.97 67.946 0.754 7.6 9.18 5.75
6/17/2022 2:30:00 AM 19.91 67.838 0.362 7.62 8.98 5.8
6/17/2022 2:45:00 AM 19.8 67.64 0.949 7.61 9.32 5.75
6/17/2022 3:00:00 AM 19.69 67.442 0.894 7.61 8.59 5.81
6/17/2022 3:15:00 AM 19.63 67.334 0.737 7.6 9.36 5.82
6/17/2022 3:30:00 AM 19.55 67.19 0.817 7.6 8.67 5.8
6/17/2022 3:45:00 AM 19.44 66.992 0.792 7.58 8.86 5.8
6/17/2022 4:00:00 AM 19.24 66.632 0.715 7.59 9.51 5.77
6/17/2022 4:15:00 AM 19.27 66.686 0.721 7.59 9.4 5.77
6/17/2022 4:30:00 AM 19.17 66.506 0.713 7.58 11.26 5.79
6/17/2022 4:45:00 AM 19.01 66.218 0.705 7.59 9.39 5.77
6/17/2022 5:00:00 AM 19.03 66.254 0.708 7.58 9.8 5.82
6/17/2022 5:15:00 AM 18.84 65.912 0.697 7.59 10.32 5.81
6/17/2022 5:30:00 AM 18.89 66.002 0.522 7.56 10.07 5.83
6/17/2022 5:45:00 AM 18.78 65.804 0.564 7.58 9.68 5.87
6/17/2022 6:00:00 AM 18.75 65.75 0.853 7.57 9.33 5.86
6/17/2022 6:15:00 AM 18.63 65.534 0.72 7.56 10.01 5.8
6/17/2022 6:30:00 AM 18.55 65.39 0.816 7.58 9.75 5.88
6/17/2022 6:45:00 AM 18.51 65.318 0.378 7.56 8.99 5.93
6/17/2022 7:00:00 AM 18.43 65.174 0.375 7.57 9.16 5.89
6/17/2022 7:15:00 AM 18.43 65.174 0.371 7.57 9.34 6.03
6/17/2022 7:30:00 AM 18.46 65.228 1.056 7.57 9.39 6
6/17/2022 7:45:00 AM 18.38 65.084 0.93 7.58 9.17 6.05
6/17/2022 8:00:00 AM 18.48 65.264 0.8 7.59 8.36 6.11
6/17/2022 8:15:00 AM 18.41 65.138 0.705 7.59 8.56 6.19
6/17/2022 8:30:00 AM 18.47 65.246 0.642 7.6 8.67 6.23
6/17/2022 8:45:00 AM 18.52 65.336 0.613 7.61 7.72 6.41
6/17/2022 9:00:00 AM 18.58 65.444 0.585 7.62 7.93 6.5
6/17/2022 9:15:00 AM 18.46 65.228 0.593 7.6 7.79 6.33
6/17/2022 9:30:00 AM 18.77 65.786 0.547 7.6 7.49 6.61
6/17/2022 9:45:00 AM 18.81 65.858 0.407 7.64 6.67 6.85
6/17/2022 10:00:00 AM 18.8 65.84 0.423 7.63 6.46 6.81
6/17/2022 10:15:00 AM 19.11 66.398 0.511 7.68 7.22 6.96
6/17/2022 10:30:00 AM 19.15 66.47 0.375 7.68 7.14 7.13
6/17/2022 10:45:00 AM 19.37 66.866 0.388 7.69 6.77 7.36
6/17/2022 11:00:00 AM 19.19 66.542 0.386 7.67 6.45 7.35
6/17/2022 11:15:00 AM 19.22 66.596 0.381 7.68 6.14 7.22
6/17/2022 11:30:00 AM 19.42 66.956 0.39 7.69 6.27 7.36
6/17/2022 11:45:00 AM 19.59 67.262 0.392 7.71 6.34 7.56
6/17/2022 12:00:00 PM 19.79 67.622 0.393 7.72 6.2 7.42
6/17/2022 12:15:00 PM 19.57 67.226 0.403 7.72 6.39 7.54
6/17/2022 12:30:00 PM 19.57 67.226 0.402 7.73 5.73 7.52
6/17/2022 12:45:00 PM 19.76 67.568 0.39 7.74 6.25 7.55
6/17/2022 1:00:00 PM 19.79 67.622 0.491 7.75 5.89 7.5
6/17/2022 1:15:00 PM 20.23 68.414 0.71 7.77 6.04 8.08
6/17/2022 1:30:00 PM 19.76 67.568 0.416 7.72 5.9 7.57
6/17/2022 1:45:00 PM 20.09 68.162 0.383 7.74 5.7 7.66
6/17/2022 2:00:00 PM 20.28 68.504 0.385 7.72 5.9 7.59
6/17/2022 2:15:00 PM 20.61 69.098 1.452 7.77 6.13 7.67
6/17/2022 2:30:00 PM 20.48 68.864 1.369 7.76 5.66 7.84
6/17/2022 2:45:00 PM 20.49 68.882 1.091 7.77 5.67 7.9
6/17/2022 3:00:00 PM 20.84 69.512 0.425 7.8 5.93 8.01
6/17/2022 3:15:00 PM 21.09 69.962 0.537 7.83 6.13 8.2
6/17/2022 3:30:00 PM 21.19 70.142 0.553 7.8 5.76 8.24
6/17/2022 3:45:00 PM 21.04 69.872 0.666 7.81 5.21 8.06
6/17/2022 4:00:00 PM 21.21 70.17799 0.741 7.83 5.6 8.11
6/17/2022 4:15:00 PM 20.98 69.764 0.383 7.78 5.73 7.77
6/17/2022 4:30:00 PM 21.08 69.944 0.38 7.81 5.36 7.97
6/17/2022 4:45:00 PM 21.09 69.962 1.201 7.79 5.84 8.02
6/17/2022 5:00:00 PM 21.25 70.25 1 7.79 5.59 7.85
6/17/2022 5:15:00 PM 21.36 70.448 0.779 7.84 5.62 7.93
6/17/2022 5:30:00 PM 21.47 70.646 0.96 7.81 5.64 7.87
6/17/2022 5:45:00 PM 20.94 69.692 0.8 7.75 5.6 7.52
6/17/2022 6:00:00 PM 21.28 70.304 0.784 7.84 5.39 7.82
6/17/2022 6:15:00 PM 20.85 69.53 0.745 7.77 5.43 7.09
6/17/2022 6:30:00 PM 21.28 70.304 0.649 7.82 5.42 7.43
6/17/2022 6:45:00 PM 21 69.8 0.635 7.82 5.53 7.5
6/17/2022 7:00:00 PM 21.12 70.016 1.008 7.8 5.54 7.29
6/17/2022 7:15:00 PM 21.19 70.142 0.91 7.81 5.59 7.28
6/17/2022 7:30:00 PM 20.76 69.368 0.703 7.77 5.62 6.94
6/17/2022 7:45:00 PM 20.51 68.918 0.66 7.73 5.58 6.65
6/17/2022 8:00:00 PM 20.9 69.62 0.419 7.78 5.86 6.95
6/17/2022 8:15:00 PM 20.64 69.152 0.467 7.74 5.71 6.55
6/17/2022 8:30:00 PM 20.65 69.17 0.644 7.74 6.37 6.58
6/17/2022 8:45:00 PM 20.59 69.062 1.233 7.73 6.52 6.5
6/17/2022 9:00:00 PM 20.58 69.044 1.095 7.72 6.5 6.54
6/17/2022 9:15:00 PM 20.32 68.576 0.861 7.7 6.96 6.19
6/17/2022 9:30:00 PM 20.25 68.45 0.709 7.68 7.23 6.03
6/17/2022 9:45:00 PM 20.17 68.306 0.707 7.68 7.46 6.05
6/17/2022 10:00:00 PM 20.27 68.486 0.664 7.69 7.72 6.08
6/17/2022 10:15:00 PM 20.02 68.036 0.626 7.68 7.47 6.02
6/17/2022 10:30:00 PM 20.1 68.18 0.693 7.67 7.37 5.92
6/17/2022 10:45:00 PM 19.86 67.748 0.551 7.65 8.03 5.59
6/17/2022 11:00:00 PM 19.87 67.766 0.531 7.65 7.98 5.77
6/17/2022 11:15:00 PM 19.87 67.766 0.526 7.64 7.81 5.68
6/17/2022 11:30:00 PM 19.34 66.812 0.769 7.61 7.78 5.42
6/17/2022 11:45:00 PM 19.4 66.92 0.775 7.62 8.15 5.6
6/18/2022 12:00:00 AM 19.36 66.848 0.669 7.61 8.03 5.43
6/18/2022 12:15:00 AM 19.16 66.488 0.625 7.61 7.86 5.42
6/18/2022 12:30:00 AM 19.1 66.38 0.601 7.61 7.72 5.41
6/18/2022 12:45:00 AM 19.02 66.236 0.608 7.62 7.8 5.56
6/18/2022 1:00:00 AM 18.83 65.894 0.495 7.62 8.25 5.54
6/18/2022 1:15:00 AM 18.72 65.696 0.494 7.61 7.56 5.42
6/18/2022 1:30:00 AM 18.76 65.768 0.46 7.6 7.99 5.51
6/18/2022 1:45:00 AM 18.51 65.318 0.404 7.6 7.59 5.55
6/18/2022 2:00:00 AM 18.51 65.318 0.393 7.6 7.79 5.44
6/18/2022 2:15:00 AM 17.96 64.328 0.409 7.55 8.19 5.11
6/18/2022 2:30:00 AM 18.33 64.994 0.393 7.62 7.71 5.58
6/18/2022 2:45:00 AM 18.09 64.562 0.397 7.58 8.1 5.43
6/18/2022 3:00:00 AM 18.33 64.994 0.391 7.61 7.76 5.64
6/18/2022 3:15:00 AM 17.72 63.896 0.403 7.59 8.11 5.35
6/18/2022 3:30:00 AM 17.62 63.716 0.401 7.58 8.25 5.39
6/18/2022 3:45:00 AM 17.73 63.914 0.402 7.58 7.54 5.55
6/18/2022 4:00:00 AM 17.8 64.04 0.395 7.59 8.08 5.62
6/18/2022 4:15:00 AM 17.69 63.842 0.395 7.6 9.88 5.59
6/18/2022 4:30:00 AM 17.37 63.266 0.402 7.57 8.64 5.48
6/18/2022 4:45:00 AM 17.38 63.284 0.402 7.6 8.26 5.64
6/18/2022 5:00:00 AM 17.27 63.086 0.405 7.58 8.77 5.51
6/18/2022 5:15:00 AM 17.37 63.266 0.396 7.58 9.49 5.61
6/18/2022 5:30:00 AM 17.23 63.014 0.401 7.58 9.64 5.62
6/18/2022 5:45:00 AM 17.04 62.672 0.4 7.57 9.32 5.45
6/18/2022 6:00:00 AM 16.97 62.546 0.401 7.59 9.25 5.73
6/18/2022 6:15:00 AM 16.74 62.132 0.406 7.57 8.61 5.45
6/18/2022 6:30:00 AM 16.61 61.898 0.409 7.57 8.45 5.5
6/18/2022 6:45:00 AM 16.75 62.15 0.402 7.58 7.89 5.75
6/18/2022 7:00:00 AM 16.57 61.826 0.4 7.58 8.72 5.63
6/18/2022 7:15:00 AM 16.4 61.52 0.417 7.56 7.76 5.54
6/18/2022 7:30:00 AM 16.67 62.006 0.4 7.6 7.76 6.07
6/18/2022 7:45:00 AM 16.52 61.736 0.4 7.58 8.14 5.83
6/18/2022 8:00:00 AM 16.39 61.502 0.404 7.61 8.08 6
6/18/2022 8:15:00 AM 16.58 61.844 0.396 7.62 7.4 6.04
6/18/2022 8:30:00 AM 16.43 61.574 0.397 7.6 7.03 5.98
6/18/2022 8:45:00 AM 16.24 61.232 0.399 7.6 6.88 6.11
6/18/2022 9:00:00 AM 16.39 61.502 0.398 7.63 6.96 6.44
6/18/2022 9:15:00 AM 16.43 61.574 0.395 7.62 7.13 6.51
6/18/2022 9:30:00 AM 16.29 61.322 0.396 7.61 6.54 6.57
6/18/2022 9:45:00 AM 16.47 61.646 0.391 7.65 6 6.87
6/18/2022 10:00:00 AM 16.42 61.556 0.398 7.66 6.11 6.99
6/18/2022 10:15:00 AM 16.3 61.34 0.404 7.65 5.88 6.95
6/18/2022 10:30:00 AM 16.47 61.646 0.396 7.69 10.26 7.34
6/18/2022 10:45:00 AM 16.41 61.538 0.394 7.69 6.58 7.31
6/18/2022 11:00:00 AM 16.43 61.574 0.389 7.68 5.64 7.41
6/18/2022 11:15:00 AM 16.06 60.908 0.398 7.65 6.17 7.08
6/18/2022 11:30:00 AM 16.09 60.962 0.405 7.69 6.43 7.58
6/18/2022 11:45:00 AM 15.94 60.692 0.4 7.64 5.8 6.93
6/18/2022 12:00:00 PM 16.22 61.196 0.397 7.72 5.31 7.74
6/18/2022 12:15:00 PM 16.2 61.16 0.393 7.73 5.55 7.75
6/18/2022 12:30:00 PM 16.19 61.142 0.391 7.75 5.54 7.88
6/18/2022 12:45:00 PM 16.03 60.854 0.396 7.7 5.56 7.46
6/18/2022 1:00:00 PM 15.84 60.512 0.405 7.71 5.42 7.54
6/18/2022 1:15:00 PM 16.08 60.944 0.4 7.75 5.06 7.92
6/18/2022 1:30:00 PM 15.99 60.782 0.402 7.72 5.05 7.64
6/18/2022 1:45:00 PM 15.82 60.476 0.401 7.73 4.98 7.62
6/18/2022 2:00:00 PM 15.89 60.602 0.4 7.76 4.76 7.93
6/18/2022 2:15:00 PM 15.66 60.188 0.407 7.7 5.05 7.16
6/18/2022 2:30:00 PM 15.78 60.404 0.397 7.74 5.07 7.71
6/18/2022 2:45:00 PM 16.05 60.89 0.398 7.78 5.15 8.34
6/18/2022 3:00:00 PM 15.78 60.404 0.405 7.7 5.04 7.78
6/18/2022 3:15:00 PM 15.79 60.422 0.402 7.76 5.05 7.78
6/18/2022 3:30:00 PM 15.74 60.332 0.405 7.7 4.86 7.8
6/18/2022 3:45:00 PM 15.4 59.72 0.411 7.71 5.07 7.71
6/18/2022 4:00:00 PM 15.56 60.008 0.407 7.77 5.05 8.02
6/18/2022 4:15:00 PM 15.85 60.53 0.397 7.8 5.37 8.53
6/18/2022 4:30:00 PM 15.6 60.08 0.411 7.74 5 7.86
6/18/2022 4:45:00 PM 15.84 60.512 0.412 7.76 4.71 8.05
6/18/2022 5:00:00 PM 15.89 60.602 0.411 7.74 4.68 7.95
6/18/2022 5:15:00 PM 15.89 60.602 0.408 7.81 5.64 8.3
6/18/2022 5:30:00 PM 15.73 60.314 0.419 7.73 5.29 7.93
6/18/2022 5:45:00 PM 15.58 60.044 0.434 7.78 5.54 8.49
6/18/2022 6:00:00 PM 15.71 60.278 0.418 7.77 5.03 8.31
6/18/2022 6:15:00 PM 15.85 60.53 0.402 7.78 4.98 8.18
6/18/2022 6:30:00 PM 15.99 60.782 0.401 7.78 5.03 8.19
6/18/2022 6:45:00 PM 15.86 60.548 0.405 7.78 4.98 8.1
6/18/2022 7:00:00 PM 15.83 60.494 0.402 7.81 4.94 8.08
6/18/2022 7:15:00 PM 15.76 60.368 1.56 7.81 5.34 8.14
6/18/2022 7:30:00 PM 15.9 60.62 1.085 7.8 5.04 7.98
6/18/2022 7:45:00 PM 15.84 60.512 1.036 7.79 5.2 8.01
6/18/2022 8:00:00 PM 15.8 60.44 0.676 7.8 5.29 7.95
6/18/2022 8:15:00 PM 15.46 59.828 0.688 7.74 4.92 7.54
6/18/2022 8:30:00 PM 15.83 60.494 0.436 7.8 5.59 7.8
6/18/2022 8:45:00 PM 15.71 60.278 0.415 7.77 5.47 7.66
6/18/2022 9:00:00 PM 15.64 60.152 0.461 7.77 5.9 7.6
6/18/2022 9:15:00 PM 15.59 60.062 0.876 7.73 5.62 7.4
6/18/2022 9:30:00 PM 15.5 59.9 0.479 7.76 6.14 7.39
6/18/2022 9:45:00 PM 15.44 59.792 0.771 7.74 6.1 7.38
6/18/2022 10:00:00 PM 15.26 59.468 0.636 7.71 5.94 7.15
6/18/2022 10:15:00 PM 15.32 59.576 0.557 7.73 6.85 7.28
6/18/2022 10:30:00 PM 15.29 59.522 0.532 7.74 6.23 7.29
6/18/2022 10:45:00 PM 15.17 59.306 0.491 7.73 7.1 7.17
6/18/2022 11:00:00 PM 15.09 59.162 0.47 7.72 7.29 7.11
6/18/2022 11:15:00 PM 15.05 59.09 0.502 7.72 6.58 7.21
6/18/2022 11:30:00 PM 15.04 59.072 0.544 7.72 6.9 7.2
6/18/2022 11:45:00 PM 14.94 58.892 0.535 7.69 5.98 7.09
6/19/2022 12:00:00 AM 14.8 58.64 0.523 7.7 6.94 7.03
6/19/2022 12:15:00 AM 14.72 58.496 0.48 7.68 7.59 7.01
6/19/2022 12:30:00 AM 14.68 58.424 0.546 7.68 6.4 7.03
6/19/2022 12:45:00 AM 14.61 58.298 0.527 7.68 6.19 6.99
6/19/2022 1:00:00 AM 14.57 58.226 0.479 7.69 6.59 6.94
6/19/2022 1:15:00 AM 14.42 57.956 0.472 7.67 6.14 6.95
6/19/2022 1:30:00 AM 14.35 57.83 0.504 7.66 6.47 6.86
6/19/2022 1:45:00 AM 14.2 57.56 0.58 7.66 6.52 6.67
6/19/2022 2:00:00 AM 14.18 57.524 0.553 7.67 6.88 6.98
6/19/2022 2:15:00 AM 14.13 57.434 0.52 7.67 6.77 6.99
6/19/2022 2:30:00 AM 14.05 57.29 0.399 7.68 6.3 6.96
6/19/2022 2:45:00 AM 13.95 57.11 0.454 7.67 6.93 6.98
6/19/2022 3:00:00 AM 13.89 57.002 0.922 7.66 6.53 6.9
6/19/2022 3:15:00 AM 13.8 56.84 0.885 7.66 11.08 6.97
6/19/2022 3:30:00 AM 13.76 56.768 0.705 7.66 6.53 7.03
6/19/2022 3:45:00 AM 13.72 56.696 0.79 7.67 7.05 7.05
6/19/2022 4:00:00 AM 13.65 56.57 0.88 7.67 7.04 7.07
6/19/2022 4:15:00 AM 13.57 56.426 0.908 7.65 6.82 7.02
6/19/2022 4:30:00 AM 13.51 56.318 0.952 7.66 6.93 7.06
6/19/2022 4:45:00 AM 13.43 56.174 0.961 7.64 6.9 7.04
6/19/2022 5:00:00 AM 13.36 56.048 0.956 7.66 7.37 7.02
6/19/2022 5:15:00 AM 13.33 55.994 0.814 7.66 8.23 7.11
6/19/2022 5:30:00 AM 13.26 55.868 0.834 7.66 7.91 7.1
6/19/2022 5:45:00 AM 13.22 55.796 0.72 7.65 7.37 7.14
6/19/2022 6:00:00 AM 13.12 55.616 0.73 7.64 7.1 7.05
6/19/2022 6:15:00 AM 13.08 55.544 0.753 7.66 7.11 7.13
6/19/2022 6:30:00 AM 13.01 55.418 0.697 7.65 9.18 7.14
6/19/2022 6:45:00 AM 12.99 55.382 0.587 7.65 7.55 7.24
6/19/2022 7:00:00 AM 12.97 55.346 0.447 7.65 7.59 7.28
6/19/2022 7:15:00 AM 12.93 55.274 0.48 7.67 6.32 7.31
6/19/2022 7:30:00 AM 12.92 55.256 0.506 7.66 6.61 7.35
6/19/2022 7:45:00 AM 12.88 55.184 0.423 7.65 7.25 7.31
6/19/2022 8:00:00 AM 12.84 55.112 0.419 7.66 7.14 7.31
6/19/2022 8:15:00 AM 12.88 55.184 0.42 7.65 5.59 7.49
6/19/2022 8:30:00 AM 12.87 55.166 0.421 7.67 5.83 7.31
6/19/2022 8:45:00 AM 12.86 55.148 0.437 7.68 8.75 7.43
6/19/2022 9:00:00 AM 12.96 55.328 0.431 7.68 6.38 7.84
6/19/2022 9:15:00 AM 12.99 55.382 0.645 7.69 5.24 7.82
6/19/2022 9:30:00 AM 13 55.4 0.409 7.69 5.29 7.82
6/19/2022 9:45:00 AM 13.09 55.562 1.254 7.7 5.45 8.04
6/19/2022 10:00:00 AM 13.24 55.832 1.488 7.7 5.45 7.95
6/19/2022 10:15:00 AM 13.34 56.012 1.482 7.68 4.99 8.04
6/19/2022 10:30:00 AM 13.57 56.426 1.281 7.75 5.54 8.56
6/19/2022 10:45:00 AM 13.73 56.714 1.304 7.76 4.9 8.72
6/19/2022 11:00:00 AM 13.59 56.462 1.082 7.7 4.39 8.23
6/19/2022 11:15:00 AM 13.8 56.84 0.944 7.77 4.42 8.65
6/19/2022 11:30:00 AM 13.7 56.66 0.914 7.65 4.24 7.92
6/19/2022 11:45:00 AM 13.81 56.858 0.724 7.64 5.47 6.99
6/19/2022 12:00:00 PM 14.19 57.542 0.754 7.74 4.9 8.66
6/19/2022 12:15:00 PM 14.29 57.722 0.641 7.67 4.52 8.36
6/19/2022 12:30:00 PM 14.65 58.37 0.562 7.77 4.49 8.85
6/19/2022 12:45:00 PM 14.58 58.244 0.446 7.72 4.86 8.25
6/19/2022 1:00:00 PM 14.83 58.694 0.498 7.72 4.5 7.9
6/19/2022 1:15:00 PM 14.9 58.82 0.466 7.72 4.64 8.44
6/19/2022 1:30:00 PM 15.28 59.504 0.468 7.75 4.74 8.7
6/19/2022 1:45:00 PM 15.27 59.486 0.455 7.69 5.65 8.09
6/19/2022 2:00:00 PM 15.41 59.738 0.482 7.68 4.38 7.8
6/19/2022 2:15:00 PM 15.69 60.242 0.473 7.73 4.78 8.16
6/19/2022 2:30:00 PM 15.9 60.62 0.457 7.79 4.89 8.72
6/19/2022 2:45:00 PM 16.02 60.836 0.443 7.76 5 8.5
6/19/2022 3:00:00 PM 16.04 60.872 0.454 7.78 4.76 8.75
6/19/2022 3:15:00 PM 16.23 61.214 0.447 7.78 4.82 8.28
6/19/2022 3:30:00 PM 16.77 62.186 0.43 7.86 4.41 9
6/19/2022 3:45:00 PM 16.28 61.304 0.43 7.76 4.37 8.51
6/19/2022 4:00:00 PM 16.34 61.412 0.422 7.78 4.27 8.3
6/19/2022 4:15:00 PM 16.58 61.844 0.415 7.78 4.68 8.54
6/19/2022 4:30:00 PM 16.76 62.168 1.106 7.77 4.54 8.44
6/19/2022 4:45:00 PM 16.58 61.844 0.92 7.77 4.24 8.36
6/19/2022 5:00:00 PM 16.71 62.078 0.752 7.79 4.83 8.65
6/19/2022 5:15:00 PM 16.59 61.862 0.642 7.73 3.63 8.12
6/19/2022 5:30:00 PM 17.01 62.618 0.555 7.86 4.96 9.11
6/19/2022 5:45:00 PM 16.63 61.934 1 7.71 4.35 8.46
6/19/2022 6:00:00 PM 16.32 61.376 0.893 7.74 4.49 8.03
6/19/2022 6:15:00 PM 16.43 61.574 0.87 7.79 4.48 8.26
6/19/2022 6:30:00 PM 16.13 61.034 1.581 7.72 4.35 7.76
6/19/2022 6:45:00 PM 16.41 61.538 1.225 7.77 4.25 8.06
6/19/2022 7:00:00 PM 16.05 60.89 1.224 7.73 4.37 7.41
6/19/2022 7:15:00 PM 16.2 61.16 1.099 7.79 4.76 7.87
6/19/2022 7:30:00 PM 15.9 60.62 1.182 7.72 4.51 7.34
6/19/2022 7:45:00 PM 16.23 61.214 0.757 7.79 4.07 7.66
6/19/2022 8:00:00 PM 16.24 61.232 1.34 7.78 4.12 7.73
6/19/2022 8:15:00 PM 16.09 60.962 0.893 7.73 4.43 7.42
6/19/2022 8:30:00 PM 16.12 61.016 1.176 7.74 4.47 7.4
6/19/2022 8:45:00 PM 16.13 61.034 0.536 7.77 4.54 7.66
6/19/2022 9:00:00 PM 15.94 60.692 0.462 7.69 4.72 6.87
6/19/2022 9:15:00 PM 15.68 60.224 0.478 7.66 4.99 6.86
6/19/2022 9:30:00 PM 15.78 60.404 0.488 7.72 5.07 6.99
6/19/2022 9:45:00 PM 15.87 60.566 0.458 7.76 5.27 7.29
6/19/2022 10:00:00 PM 15.89 60.602 0.445 7.77 5.93 7.26
6/19/2022 10:15:00 PM 15.83 60.494 0.446 7.74 6.03 7.22
6/19/2022 10:30:00 PM 15.28 59.504 0.47 7.65 5.1 6.4
6/19/2022 10:45:00 PM 15.56 60.008 0.484 7.72 5.64 6.89
6/19/2022 11:00:00 PM 15.33 59.594 0.435 7.68 5.59 6.53
6/19/2022 11:15:00 PM 15.37 59.666 0.443 7.7 5.75 6.8
6/19/2022 11:30:00 PM 15.46 59.828 0.445 7.73 5.86 6.92
6/19/2022 11:45:00 PM 15.31 59.558 0.455 7.7 5.69 6.68
6/20/2022 12:00:00 AM 15.33 59.594 0.507 7.71 5.52 6.83
6/20/2022 12:15:00 AM 15.22 59.396 0.431 7.68 5.89 6.67
6/20/2022 12:30:00 AM 15.07 59.126 0.588 7.66 6.18 6.6
6/20/2022 12:45:00 AM 15.06 59.108 0.43 7.68 5.84 6.68
6/20/2022 1:00:00 AM 14.9 58.82 0.751 7.68 6.14 6.73
6/20/2022 1:15:00 AM 14.79 58.622 0.476 7.65 6.2 6.57
6/20/2022 1:30:00 AM 14.46 58.028 0.457 7.64 6.23 6.33
6/20/2022 1:45:00 AM 14.51 58.118 0.455 7.65 6.38 6.54
6/20/2022 2:00:00 AM 14.52 58.136 0.707 7.65 5.94 6.36
6/20/2022 2:15:00 AM 14.39 57.902 0.525 7.66 6.11 6.52
6/20/2022 2:30:00 AM 14.11 57.398 0.538 7.63 6.04 6.46
6/20/2022 2:45:00 AM 14.28 57.704 0.584 7.65 6.78 6.57
6/20/2022 3:00:00 AM 14.04 57.272 0.609 7.64 6.07 6.56
6/20/2022 3:15:00 AM 14.13 57.434 0.472 7.66 6.43 6.78
6/20/2022 3:30:00 AM 14 57.2 0.457 7.66 6.81 6.76
6/20/2022 3:45:00 AM 13.91 57.038 0.446 7.64 8.26 6.65
6/20/2022 4:00:00 AM 13.62 56.516 0.446 7.6 6.3 6.13
6/20/2022 4:15:00 AM 13.74 56.732 0.441 7.64 7.86 6.56
6/20/2022 4:30:00 AM 13.46 56.228 0.448 7.6 6.48 6.13
6/20/2022 4:45:00 AM 13.58 56.444 0.466 7.66 7.13 6.78
6/20/2022 5:00:00 AM 13.38 56.084 0.453 7.65 6.94 6.74
6/20/2022 5:15:00 AM 13.4 56.12 0.469 7.63 6.54 6.75
6/20/2022 5:30:00 AM 13.24 55.832 0.467 7.63 11.2 6.67
6/20/2022 5:45:00 AM 13.24 55.832 0.45 7.64 8.22 6.86
6/20/2022 6:00:00 AM 13.21 55.778 0.453 7.65 6.69 7.04
6/20/2022 6:15:00 AM 13.12 55.616 0.443 7.64 6.84 6.94
6/20/2022 6:30:00 AM 13.07 55.526 0.477 7.65 6.37 6.93
6/20/2022 6:45:00 AM 13.02 55.436 0.464 7.67 6.25 7.06
6/20/2022 7:00:00 AM 12.86 55.148 0.474 7.63 7.24 6.76
6/20/2022 7:15:00 AM 12.96 55.328 0.452 7.66 6.99 7.17
6/20/2022 7:30:00 AM 12.84 55.112 0.446 7.63 7.18 7.02
6/20/2022 7:45:00 AM 12.81 55.058 0.442 7.67 6.14 7.25
6/20/2022 8:00:00 AM 12.93 55.274 0.429 7.67 5.89 7.41
6/20/2022 8:15:00 AM 12.94 55.292 0.43 7.67 5.25 7.43
6/20/2022 8:30:00 AM 12.92 55.256 0.432 7.66 5.28 7.4
6/20/2022 8:45:00 AM 13.05 55.49 0.438 7.67 5.43 7.45
6/20/2022 9:00:00 AM 13.16 55.688 0.431 7.69 5.46 7.73
6/20/2022 9:15:00 AM 13.22 55.796 0.434 7.7 4.84 7.74
6/20/2022 9:30:00 AM 13.31 55.958 0.443 7.7 5.18 7.84
6/20/2022 9:45:00 AM 13.51 56.318 0.428 7.71 5.76 7.96
6/20/2022 10:00:00 AM 13.59 56.462 0.43 7.71 4.98 8.17
6/20/2022 10:15:00 AM 13.69 56.642 0.429 7.68 4.44 7.92
6/20/2022 10:30:00 AM 13.7 56.66 0.456 7.62 4.51 7
6/20/2022 10:45:00 AM 14.2 57.56 0.447 7.73 4.32 8.28
6/20/2022 11:00:00 AM 14.33 57.794 0.452 7.76 4.07 8.46
6/20/2022 11:15:00 AM 14.14 57.452 0.454 7.64 4.33 7.37
6/20/2022 11:30:00 AM 14.65 58.37 0.601 7.75 4.44 8.34
6/20/2022 11:45:00 AM 14.72 58.496 0.715 7.7 4.81 8.03
6/20/2022 12:00:00 PM 15.12 59.216 0.842 7.74 7.37 8.38
6/20/2022 12:15:00 PM 14.88 58.784 0.898 7.71 4.52 7.99
6/20/2022 12:30:00 PM 15.43 59.774 0.782 7.71 4.3 8.32
6/20/2022 12:45:00 PM 15.46 59.828 0.968 7.69 4.3 8.17
6/20/2022 1:00:00 PM 15.54 59.972 0.797 7.74 4.2 8.01
6/20/2022 1:15:00 PM 15.8 60.44 0.742 7.74 4.01 8.73
6/20/2022 1:30:00 PM 15.81 60.458 0.797 7.66 4.24 7.89
6/20/2022 1:45:00 PM 16.02 60.836 0.956 7.71 4.22 7.96
6/20/2022 2:00:00 PM 16.16 61.088 1.277 7.63 4.38 8.01
6/20/2022 2:15:00 PM 16.84 62.312 1.267 7.73 4.32 8.49
6/20/2022 2:30:00 PM 16.7 62.06 1.227 7.72 4.16 8.2
6/20/2022 2:45:00 PM 16.74 62.132 1.254 7.72 4.29 8.02
6/20/2022 3:00:00 PM 17.08 62.744 1.154 7.7 4.21 8.41
6/20/2022 3:15:00 PM 16.97 62.546 1.156 7.69 3.88 8.01
6/20/2022 3:30:00 PM 17.65 63.77 1.133 7.75 4.23 8.75
6/20/2022 3:45:00 PM 17.5 63.5 1.173 7.76 4.42 8.9
6/20/2022 4:00:00 PM 17.71 63.878 0.974 7.74 4.45 8.57
6/20/2022 4:15:00 PM 17.88 64.184 0.711 7.73 4.16 8.37
6/20/2022 4:30:00 PM 18.02 64.436 0.978 7.8 4.21 8.7
6/20/2022 4:45:00 PM 18.11 64.598 1.06 7.77 4.14 8.67
6/20/2022 5:00:00 PM 17.71 63.878 1.154 7.73 3.96 7.96
6/20/2022 5:15:00 PM 17.7 63.86 1.122 7.73 4.56 8.01
6/20/2022 5:30:00 PM 17.89 64.202 1 7.74 4.6 8.31
6/20/2022 5:45:00 PM 17.48 63.464 0.949 7.74 3.92 8.27
6/20/2022 6:00:00 PM 17.7 63.86 0.749 7.71 4.39 8.09
6/20/2022 6:15:00 PM 17.62 63.716 0.651 7.72 4.1 8
6/20/2022 6:30:00 PM 17.56 63.608 0.683 7.73 4.27 7.79
6/20/2022 6:45:00 PM 17.57 63.626 0.712 7.75 4.38 7.62
6/20/2022 7:00:00 PM 17.54 63.572 0.63 7.76 4.36 7.81
6/20/2022 7:15:00 PM 17.43 63.374 0.551 7.7 4.4 7.3
6/20/2022 7:30:00 PM 17.61 63.698 0.544 7.74 4.92 7.1
6/20/2022 7:45:00 PM 17.08 62.744 0.453 7.67 4.8 6.78
6/20/2022 8:00:00 PM 17.31 63.158 0.461 7.69 4.77 6.63
6/20/2022 8:15:00 PM 17.05 62.69 0.463 7.69 4.22 6.85
6/20/2022 8:30:00 PM 17.43 63.374 0.467 7.69 4.57 6.78
6/20/2022 8:45:00 PM 17.64 63.752 0.473 7.73 4.45 6.89
6/20/2022 9:00:00 PM 17.32 63.176 0.48 7.72 5.14 6.86
6/20/2022 9:15:00 PM 17.55 63.59 0.458 7.75 5.14 7.09
6/20/2022 9:30:00 PM 17.17 62.906 0.445 7.66 5.24 6.49
6/20/2022 9:45:00 PM 17.11 62.798 0.45 7.68 5.17 6.42
6/20/2022 10:00:00 PM 17.09 62.762 0.445 7.66 5.2 6.47
6/20/2022 10:15:00 PM 16.95 62.51 0.453 7.63 5.5 6.04
6/20/2022 10:30:00 PM 16.78 62.204 0.458 7.61 5.58 6.03
6/20/2022 10:45:00 PM 16.76 62.168 0.449 7.64 5.61 6
6/20/2022 11:00:00 PM 16.93 62.474 0.444 7.66 5.72 6.2
6/20/2022 11:15:00 PM 16.85 62.33 0.441 7.66 6.07 6.08
6/20/2022 11:30:00 PM 16.77 62.186 0.444 7.63 5.74 6.1
6/20/2022 11:45:00 PM 16.65 61.97 0.445 7.61 6.49 5.72
6/21/2022 12:00:00 AM 16.56 61.808 0.448 7.64 6.01 6.03
6/21/2022 12:15:00 AM 16.38 61.484 0.449 7.6 5.4 5.82
6/21/2022 12:30:00 AM 16.38 61.484 0.448 7.59 6.7 5.7
6/21/2022 12:45:00 AM 16.1 60.98 0.454 7.57 6.28 5.43
6/21/2022 1:00:00 AM 16.25 61.25 0.442 7.57 6.18 5.57
6/21/2022 1:15:00 AM 16.14 61.052 0.446 7.6 5.96 5.58
6/21/2022 1:30:00 AM 16.23 61.214 0.435 7.63 6.81 5.86
6/21/2022 1:45:00 AM 15.68 60.224 0.458 7.53 6.26 5.24
6/21/2022 2:00:00 AM 15.87 60.566 0.451 7.55 6.07 5.66
6/21/2022 2:15:00 AM 15.82 60.476 0.447 7.55 6.38 5.66
6/21/2022 2:30:00 AM 15.75 60.35 0.451 7.6 6.24 5.83
6/21/2022 2:45:00 AM 15.92 60.656 0.445 7.61 5.98 5.91
6/21/2022 3:00:00 AM 15.86 60.548 0.441 7.63 6.08 6.04
6/21/2022 3:15:00 AM 15.64 60.152 0.446 7.59 5.52 5.84
6/21/2022 3:30:00 AM 15.63 60.134 0.444 7.61 6.28 6.01
6/21/2022 3:45:00 AM 15.45 59.81 0.448 7.6 6.1 5.85
6/21/2022 4:00:00 AM 15.55 59.99 0.446 7.61 6.79 6.19
6/21/2022 4:15:00 AM 15.25 59.45 0.456 7.57 8.29 5.82
6/21/2022 4:30:00 AM 15.14 59.252 0.45 7.59 6.6 5.94
6/21/2022 4:45:00 AM 14.93 58.874 0.456 7.55 6.73 5.56
6/21/2022 5:00:00 AM 15.14 59.252 0.452 7.58 8.08 5.95
6/21/2022 5:15:00 AM 15.07 59.126 0.451 7.6 6.85 6
6/21/2022 5:30:00 AM 14.74 58.532 0.456 7.56 7.1 5.61
6/21/2022 5:45:00 AM 14.76 58.568 0.461 7.57 6.96 5.41
6/21/2022 6:00:00 AM 14.55 58.19 0.461 7.56 6.45 5.72
6/21/2022 6:15:00 AM 14.79 58.622 0.45 7.58 6.8 5.95
6/21/2022 6:30:00 AM 14.88 58.784 0.445 7.61 7.11 6.23
6/21/2022 6:45:00 AM 14.8 58.64 0.444 7.6 6.9 6.1
6/21/2022 7:00:00 AM 14.6 58.28 0.451 7.59 6.84 5.93
6/21/2022 7:15:00 AM 14.48 58.064 0.455 7.53 6.38 5.86
6/21/2022 7:30:00 AM 14.53 58.154 0.453 7.59 6.14 6.11
6/21/2022 7:45:00 AM 14.5 58.1 0.452 7.58 5.82 6.2
6/21/2022 8:00:00 AM 14.54 58.172 0.45 7.6 5.52 6.27
6/21/2022 8:15:00 AM 14.44 57.992 0.46 7.63 6.32 6.67
6/21/2022 8:30:00 AM 14.68 58.424 0.446 7.64 5.29 6.64
6/21/2022 8:45:00 AM 14.77 58.586 0.441 7.66 5.26 6.84
6/21/2022 9:00:00 AM 14.7 58.46 0.443 7.65 5.2 6.82
6/21/2022 9:15:00 AM 14.6 58.28 0.447 7.62 4.79 6.77
6/21/2022 9:30:00 AM 14.86 58.748 0.444 7.66 5.94 7.15
6/21/2022 9:45:00 AM 14.85 58.73 0.452 7.67 5.03 7.15
6/21/2022 10:00:00 AM 14.79 58.622 0.45 7.62 4.85 6.88
6/21/2022 10:15:00 AM 14.94 58.892 0.448 7.67 4.55 7.21
6/21/2022 10:30:00 AM 15.01 59.018 0.445 7.67 4.92 7.37
6/21/2022 10:45:00 AM 15.16 59.288 0.446 7.69 5.08 7.61
6/21/2022 11:00:00 AM 15.08 59.144 0.448 7.66 4.76 7.4
6/21/2022 11:15:00 AM 15.34 59.612 0.439 7.69 4.82 7.71
6/21/2022 11:30:00 AM 15.33 59.594 0.436 7.69 4.68 7.75
6/21/2022 11:45:00 AM 15.32 59.576 0.442 7.69 4.41 7.84
6/21/2022 12:00:00 PM 15.53 59.954 0.432 7.74 4.38 8.09
6/21/2022 12:15:00 PM 15.52 59.936 0.436 7.71 4.61 7.92
6/21/2022 12:30:00 PM 15.65 60.17 0.436 7.72 4.43 8.17
6/21/2022 12:45:00 PM 15.72 60.296 0.435 7.71 4.65 8.11
6/21/2022 1:00:00 PM 15.72 60.296 0.438 7.69 4.63 7.86
6/21/2022 1:15:00 PM 15.8 60.44 0.431 7.78 4.87 8.54
6/21/2022 1:30:00 PM 16.05 60.89 0.431 7.74 4.25 8.5
6/21/2022 1:45:00 PM 16.2 61.16 0.43 7.73 4.18 8.13
6/21/2022 2:00:00 PM 16.55 61.79 0.428 7.76 4.23 8.72
6/21/2022 2:15:00 PM 16.8 62.24 0.43 7.79 4.45 8.66
6/21/2022 2:30:00 PM 17.04 62.672 0.432 7.77 4.51 8.08
6/21/2022 2:45:00 PM 17.16 62.888 0.43 7.77 4.41 8.2
6/21/2022 3:00:00 PM 17.38 63.284 0.429 7.79 4.34 8.54
6/21/2022 3:15:00 PM 17.56 63.608 0.425 7.76 4.09 8.66
6/21/2022 3:30:00 PM 17.77 63.986 0.426 7.75 4.08 8.36
6/21/2022 3:45:00 PM 17.95 64.31 0.426 7.74 4.37 8.08
6/21/2022 4:00:00 PM 18.06 64.508 0.426 7.73 5.06 8.13
6/21/2022 4:15:00 PM 18.38 65.084 0.427 7.77 4.24 8.64
6/21/2022 4:30:00 PM 18.67 65.606 0.427 7.8 4.2 8.83
6/21/2022 4:45:00 PM 18.59 65.462 0.432 7.76 9.24 8.46
6/21/2022 5:00:00 PM 18.93 66.074 0.431 7.8 4.16 8.64
6/21/2022 5:15:00 PM 18.97 66.146 0.43 7.8 4.05 8.41
6/21/2022 5:30:00 PM 19.14 66.452 0.429 7.81 4.27 8.66
6/21/2022 5:45:00 PM 19 66.2 0.435 7.78 4.09 8.37
6/21/2022 6:00:00 PM 18.85 65.93 0.442 7.73 4.14 8.15
6/21/2022 6:15:00 PM 18.94 66.092 0.435 7.8 4.16 8.26
6/21/2022 6:30:00 PM 18.75 65.75 0.435 7.76 4.68 7.65
6/21/2022 6:45:00 PM 18.76 65.768 0.431 7.76 4.4 7.85
6/21/2022 7:00:00 PM 18.92 66.056 0.426 7.73 4.06 7.37
6/21/2022 7:15:00 PM 18.6 65.48 0.432 7.73 3.93 7.51
6/21/2022 7:30:00 PM 18.73 65.714 0.427 7.73 4.3 7.05
6/21/2022 7:45:00 PM 18.42 65.156 0.44 7.68 4.6 6.85
6/21/2022 8:00:00 PM 18.66 65.588 0.432 7.71 4.45 7
6/21/2022 8:15:00 PM 18.78 65.804 0.427 7.75 4.81 7.34
6/21/2022 8:30:00 PM 18.49 65.282 0.429 7.65 4.95 6.63
6/21/2022 8:45:00 PM 18.4 65.12 0.435 7.68 4.81 6.81
6/21/2022 9:00:00 PM 18.58 65.444 0.433 7.69 4.68 6.49
6/21/2022 9:15:00 PM 18.47 65.246 0.427 7.69 4.89 6.54
6/21/2022 9:30:00 PM 18.5 65.3 0.431 7.67 4.92 6.48
6/21/2022 9:45:00 PM 18.44 65.192 0.428 7.66 4.83 6.24
6/21/2022 10:00:00 PM 18.34 65.012 0.427 7.65 5.2 6.22
6/21/2022 10:15:00 PM 18.33 64.994 0.428 7.67 5.52 6.19
6/21/2022 10:30:00 PM 18.14 64.652 0.432 7.63 5.44 6.15
6/21/2022 10:45:00 PM 18.05 64.49 0.434 7.61 5.53 5.73
6/21/2022 11:00:00 PM 17.98 64.364 0.436 7.6 5.61 5.8
6/21/2022 11:15:00 PM 17.96 64.328 0.438 7.6 5.84 5.41
6/21/2022 11:30:00 PM 18 64.4 0.433 7.63 5.56 5.83
6/21/2022 11:45:00 PM 17.87 64.166 0.435 7.58 5.53 5.65
6/22/2022 12:00:00 AM 17.98 64.364 0.433 7.6 5.74 5.62
6/22/2022 12:15:00 AM 17.95 64.31 0.43 7.59 5.26 5.56
6/22/2022 12:30:00 AM 17.95 64.31 0.431 7.61 5.93 5.52
6/22/2022 12:45:00 AM 17.98 64.364 0.429 7.6 6.15 5.67
6/22/2022 1:00:00 AM 17.84 64.112 0.43 7.61 6.28 5.6
6/22/2022 1:15:00 AM 17.76 63.968 0.435 7.58 5.59 5.3
6/22/2022 1:30:00 AM 17.64 63.752 0.435 7.57 6.31 5.35
6/22/2022 1:45:00 AM 17.6 63.68 0.43 7.58 6.36 5.4
6/22/2022 2:00:00 AM 17.54 63.572 0.435 7.59 5.98 5.51
6/22/2022 2:15:00 AM 17.77 63.986 0.429 7.58 5.95 5.54
6/22/2022 2:30:00 AM 17.41 63.338 0.438 7.56 6.2 5.12
6/22/2022 2:45:00 AM 17.33 63.194 0.436 7.6 6.27 5.72
6/22/2022 3:00:00 AM 17.49 63.482 0.43 7.58 6.47 5.56
6/22/2022 3:15:00 AM 17.45 63.41 0.432 7.56 6.76 5.23
6/22/2022 3:30:00 AM 17.56 63.608 0.432 7.61 5.98 5.58
6/22/2022 3:45:00 AM 17.77 63.986 0.425 7.62 6.74 5.74
6/22/2022 4:00:00 AM 17.2 62.96 0.435 7.58 6.28 5.35
6/22/2022 4:15:00 AM 17.23 63.014 0.43 7.56 6.61 5.19
6/22/2022 4:30:00 AM 17.19 62.942 0.433 7.56 7.2 5.3
6/22/2022 4:45:00 AM 17.16 62.888 0.432 7.55 6.73 5.24
6/22/2022 5:00:00 AM 17.06 62.708 0.429 7.54 7.09 5.21
6/22/2022 5:15:00 AM 16.87 62.366 0.443 7.56 6.95 5.3
6/22/2022 5:30:00 AM 17.33 63.194 0.434 7.6 6.97 5.71
6/22/2022 5:45:00 AM 17.22 62.996 0.434 7.58 7.43 5.61
6/22/2022 6:00:00 AM 17.07 62.726 0.428 7.58 6.61 5.37
6/22/2022 6:15:00 AM 16.59 61.862 0.447 7.53 8.26 5.41
6/22/2022 6:30:00 AM 16.82 62.276 0.432 7.54 9.32 5.24
6/22/2022 6:45:00 AM 16.81 62.258 0.441 7.55 8.47 5.24
6/22/2022 7:00:00 AM 16.84 62.312 0.432 7.56 7.28 5.43
6/22/2022 7:15:00 AM 16.75 62.15 0.437 7.59 7.3 5.5
6/22/2022 7:30:00 AM 16.71 62.078 0.431 7.57 6.87 5.54
6/22/2022 7:45:00 AM 16.79 62.222 0.435 7.57 6.88 5.52
6/22/2022 8:00:00 AM 16.64 61.952 0.436 7.59 6.9 5.91
6/22/2022 8:15:00 AM 17.02 62.636 0.435 7.62 6.31 6.14
6/22/2022 8:30:00 AM 16.99 62.582 0.434 7.61 7.29 6.21
6/22/2022 8:45:00 AM 17.2 62.96 0.425 7.64 5.79 6.46
6/22/2022 9:00:00 AM 17.03 62.654 0.431 7.63 5.86 6.4
6/22/2022 9:15:00 AM 16.86 62.348 0.436 7.58 5.13 5.94
6/22/2022 9:30:00 AM 16.93 62.474 0.43 7.63 5.53 6.2
6/22/2022 9:45:00 AM 17.18 62.924 0.43 7.64 5.73 6.63
6/22/2022 10:00:00 AM 17.17 62.906 0.43 7.62 5.4 6.57
6/22/2022 10:15:00 AM 17.47 63.446 0.431 7.69 5.09 7.11
6/22/2022 10:30:00 AM 17.45 63.41 0.436 7.66 5.05 6.85
6/22/2022 10:45:00 AM 17.68 63.824 0.435 7.67 4.74 7.34
6/22/2022 11:00:00 AM 17.69 63.842 0.436 7.69 5.07 7.19
6/22/2022 11:15:00 AM 17.6 63.68 0.443 7.65 5.38 7.03
6/22/2022 11:30:00 AM 17.79 64.022 0.439 7.67 4.98 7.2
6/22/2022 11:45:00 AM 18.43 65.174 0.434 7.74 5.22 7.85
6/22/2022 12:00:00 PM 18.27 64.886 0.442 7.7 4.66 7.49
6/22/2022 12:15:00 PM 18.37 65.066 0.442 7.68 4.68 7.61
6/22/2022 12:30:00 PM 18.79 65.82201 0.436 7.76 4.8 8.26
6/22/2022 12:45:00 PM 18.98 66.164 0.438 7.77 4.66 8.18
6/22/2022 1:00:00 PM 19.05 66.29 0.435 7.75 4.44 8.09
6/22/2022 1:15:00 PM 19.38 66.884 0.435 7.69 4.39 8.05
6/22/2022 1:30:00 PM 19.86 67.748 0.427 7.78 4.41 8.08
6/22/2022 1:45:00 PM 19.78 67.604 0.432 7.78 4.43 8.23
6/22/2022 2:00:00 PM 19.93 67.874 0.436 7.77 4.38 7.93
6/22/2022 2:15:00 PM 20.51 68.918 0.425 7.78 4.68 8.56
6/22/2022 2:30:00 PM 20.32 68.576 0.43 7.76 4.48 8.48
6/22/2022 2:45:00 PM 20.61 69.098 0.424 7.78 4.8 8.55
6/22/2022 3:00:00 PM 20.81 69.458 0.423 7.8 4.66 8.52
6/22/2022 3:15:00 PM 20.78 69.404 0.423 7.81 4.35 8.77
6/22/2022 3:30:00 PM 20.68 69.224 0.428 7.78 4.69 8.3
6/22/2022 3:45:00 PM 21.06 69.908 0.421 7.78 4.46 8.34
6/22/2022 4:00:00 PM 21.31 70.358 0.42 7.82 4.18 8.57
6/22/2022 4:15:00 PM 21.34 70.412 0.419 7.81 4.5 8.34
6/22/2022 4:30:00 PM 21.23 70.214 0.422 7.77 4.61 8.49
6/22/2022 4:45:00 PM 21.5 70.7 0.421 7.8 4.65 8.36
6/22/2022 5:00:00 PM 21.47 70.646 0.421 7.78 4.26 8.52
6/22/2022 5:15:00 PM 21.25 70.25 0.42 7.75 4.41 7.91
6/22/2022 5:30:00 PM 21.72 71.096 0.418 7.82 4.6 8.32
6/22/2022 5:45:00 PM 21.44 70.592 0.42 7.78 6.79 8.11
6/22/2022 6:00:00 PM 21.53 70.754 0.416 7.8 4.99 8.03
6/22/2022 6:15:00 PM 21.47 70.646 0.415 7.81 5.01 7.87
6/22/2022 6:30:00 PM 21.29 70.32201 0.418 7.76 4.6 7.34
6/22/2022 6:45:00 PM 21.17 70.106 0.419 7.78 4.75 7.34
6/22/2022 7:00:00 PM 21.03 69.854 0.417 7.73 4.4 7.13
6/22/2022 7:15:00 PM 20.86 69.548 0.42 7.74 4.31 6.87
6/22/2022 7:30:00 PM 20.93 69.674 0.418 7.74 4.31 6.85
6/22/2022 7:45:00 PM 20.74 69.332 0.418 7.72 4.4 6.78
6/22/2022 8:00:00 PM 20.58 69.044 0.421 7.75 5.15 6.61
6/22/2022 8:15:00 PM 20.27 68.486 0.42 7.71 5.51 6.52
6/22/2022 8:30:00 PM 20.28 68.504 0.418 7.68 5.11 6.14
6/22/2022 8:45:00 PM 20.06 68.108 0.421 7.69 5.75 5.99
6/22/2022 9:00:00 PM 19.99 67.982 0.422 7.66 5.31 6.11
6/22/2022 9:15:00 PM 19.85 67.73 0.419 7.65 5.94 5.96
6/22/2022 9:30:00 PM 19.81 67.658 0.418 7.66 6.51 5.88
6/22/2022 9:45:00 PM 19.99 67.982 0.416 7.67 6.31 5.96
6/22/2022 10:00:00 PM 19.73 67.514 0.42 7.62 6.81 5.48
6/22/2022 10:15:00 PM 19.73 67.514 0.422 7.65 6.4 5.48
6/22/2022 10:30:00 PM 19.68 67.424 0.42 7.64 6.58 5.52
6/22/2022 10:45:00 PM 19.6 67.28 0.42 7.63 6.97 5.38
6/22/2022 11:00:00 PM 19.34 66.812 0.421 7.57 6.49 5.01
6/22/2022 11:15:00 PM 19.46 67.028 0.419 7.59 6.86 5.25
6/22/2022 11:30:00 PM 19.31 66.758 0.419 7.58 6.72 5.18
6/22/2022 11:45:00 PM 19.24 66.632 0.411 7.61 8.5 5.39
6/23/2022 12:00:00 AM 19.21 66.578 0.41 7.6 8.73 5.37
6/23/2022 12:15:00 AM 19.23 66.614 0.415 7.59 7.77 5.05
6/23/2022 12:30:00 AM 18.98 66.164 0.423 7.58 7.11 5.14
6/23/2022 12:45:00 AM 19.1 66.38 0.417 7.58 7.72 5.2
6/23/2022 1:00:00 AM 19.03 66.254 0.419 7.6 7.47 5.37
6/23/2022 1:15:00 AM 18.85 65.93 0.419 7.6 8.5 5.18
6/23/2022 1:30:00 AM 19.09 66.362 0.411 7.6 8.27 5.24
6/23/2022 1:45:00 AM 19.43 66.974 0.388 7.7 14.82 6.34
6/23/2022 2:00:00 AM 19.62 67.316 0.383 7.69 14.91 6.23
6/23/2022 2:15:00 AM 19.77 67.586 0.385 7.68 15.15 6.07
6/23/2022 2:30:00 AM 19.78 67.604 0.385 7.67 16.89 6
6/23/2022 2:45:00 AM 19.73 67.514 0.384 7.66 15.36 6.04
6/23/2022 3:00:00 AM 19.63 67.334 0.38 7.66 15.56 6.04
6/23/2022 3:15:00 AM 19.55 67.19 0.373 7.65 15.2 6.05
6/23/2022 3:30:00 AM 19.42 66.956 0.374 7.64 14.17 6.03
6/23/2022 3:45:00 AM 19.24 66.632 0.375 7.63 14.36 6.03
6/23/2022 4:00:00 AM 19.13 66.434 0.376 7.63 12.75 6
6/23/2022 4:15:00 AM 19.11 66.398 0.374 7.63 13.25 5.98
6/23/2022 4:30:00 AM 18.98 66.164 0.377 7.62 13.56 5.98
6/23/2022 4:45:00 AM 18.89 66.002 0.374 7.62 13.35 5.96
6/23/2022 5:00:00 AM 18.7 65.66 0.377 7.61 14.95 5.93
6/23/2022 5:15:00 AM 18.51 65.318 0.366 7.59 16.5 5.91
6/23/2022 5:30:00 AM 18.32 64.976 0.361 7.58 17.7 5.91
6/23/2022 5:45:00 AM 18.21 64.778 0.357 7.56 22.62 5.85
6/23/2022 6:00:00 AM 18.16 64.688 0.351 7.54 29.16 5.83
6/23/2022 6:15:00 AM 18.12 64.616 0.34 7.53 42.98 5.88
6/23/2022 6:30:00 AM 18.1 64.58 0.333 7.52 37.93 5.91
6/23/2022 6:45:00 AM 18.09 64.562 0.323 7.52 37.75 5.97
6/23/2022 7:00:00 AM 18.09 64.562 0.316 7.53 36.6 6.01
6/23/2022 7:15:00 AM 18.11 64.598 0.308 7.54 40.87 6.07
6/23/2022 7:30:00 AM 18.16 64.688 0.311 7.54 33.84 6.12
6/23/2022 7:45:00 AM 18.2 64.76 0.312 7.55 30.61 6.17
6/23/2022 8:00:00 AM 18.19 64.742 0.309 7.56 24 6.18
6/23/2022 8:15:00 AM 18.19 64.742 0.309 7.56 30.59 6.23
6/23/2022 8:30:00 AM 18.21 64.778 0.308 7.57 25.99 6.24
6/23/2022 8:45:00 AM 18.23 64.814 0.309 7.57 25.03 6.26
6/23/2022 9:00:00 AM 18.26 64.868 0.31 7.58 18.61 6.31
6/23/2022 9:15:00 AM 18.3 64.94 0.313 7.59 22.79 6.37
6/23/2022 9:30:00 AM 18.35 65.03 0.318 7.6 20.99 6.38
6/23/2022 9:45:00 AM 18.39 65.102 0.317 7.61 19.31 6.46
6/23/2022 10:00:00 AM 18.45 65.21 0.319 7.62 19.2 6.54
6/23/2022 10:15:00 AM 18.5 65.3 0.327 7.64 17.26 6.58
6/23/2022 10:30:00 AM 18.53 65.354 0.327 7.65 16.41 6.64
6/23/2022 10:45:00 AM 18.62 65.516 0.327 7.66 15.92 6.76
6/23/2022 11:00:00 AM 18.67 65.606 0.329 7.66 15.01 6.84
6/23/2022 11:15:00 AM 18.75 65.75 0.331 7.67 13.67 6.92
6/23/2022 11:30:00 AM 18.83 65.894 0.332 7.69 14.28 7.09
6/23/2022 11:45:00 AM 18.94 66.092 0.333 7.71 13.31 7.22
6/23/2022 12:00:00 PM 19.17 66.506 0.34 7.74 12.68 7.45
6/23/2022 12:15:00 PM 19.29 66.722 0.334 7.75 12.63 7.59
6/23/2022 12:30:00 PM 19.33 66.794 0.332 7.76 12 7.62
6/23/2022 12:45:00 PM 19.47 67.046 0.337 7.76 11.31 7.76
6/23/2022 1:00:00 PM 19.68 67.424 0.339 7.78 11.07 7.93
6/23/2022 1:15:00 PM 19.77 67.586 0.335 7.8 10.67 8.06
6/23/2022 1:30:00 PM 19.79 67.622 0.33 7.81 10.39 8.09
6/23/2022 1:45:00 PM 19.86 67.748 0.326 7.82 10.23 8.15
6/23/2022 2:00:00 PM 19.9 67.82 0.322 7.83 10.23 8.23
6/23/2022 2:15:00 PM 19.88 67.784 0.322 7.83 10.04 8.24
6/23/2022 2:30:00 PM 19.98 67.964 0.325 7.84 10.04 8.3
6/23/2022 2:45:00 PM 20.12 68.216 0.325 7.84 10.34 8.4
6/23/2022 3:00:00 PM 20.26 68.468 0.325 7.84 9.07 8.43
6/23/2022 3:15:00 PM 20.32 68.576 0.324 7.86 8.93 8.46
6/23/2022 3:30:00 PM 20.28 68.504 0.323 7.86 9.4 8.41
6/23/2022 3:45:00 PM 20.22 68.396 0.327 7.85 8.88 8.35
6/23/2022 4:00:00 PM 20.31 68.558 0.323 7.86 9.22 8.35
6/23/2022 4:15:00 PM 20.32 68.576 0.32 7.86 8.35 8.33
6/23/2022 4:30:00 PM 20.25 68.45 0.326 7.85 7.99 8.29
6/23/2022 4:45:00 PM 20.27 68.486 0.317 7.84 7.93 8.22
6/23/2022 5:00:00 PM 20.22 68.396 0.32 7.84 8.54 8.2
6/23/2022 5:15:00 PM 20.2 68.36 0.321 7.84 7.75 8.12
6/23/2022 5:30:00 PM 20.2 68.36 0.321 7.83 7.88 8.09
6/23/2022 5:45:00 PM 20.1 68.18 0.323 7.83 7.79 7.97
6/23/2022 6:00:00 PM 20.07 68.126 0.321 7.82 8.01 7.91
6/23/2022 6:15:00 PM 20.07 68.126 0.32 7.82 7.66 7.88
6/23/2022 6:30:00 PM 20.02 68.036 0.322 7.81 7.65 7.78
6/23/2022 6:45:00 PM 20.01 68.018 0.323 7.81 7.58 7.75
6/23/2022 7:00:00 PM 19.97 67.946 0.324 7.8 7.22 7.7
6/23/2022 7:15:00 PM 19.93 67.874 0.325 7.79 7.93 7.58
6/23/2022 7:30:00 PM 19.95 67.91 0.323 7.78 7.57 7.5
6/23/2022 7:45:00 PM 19.86 67.748 0.327 7.77 7.51 7.41
6/23/2022 8:00:00 PM 19.85 67.73 0.327 7.76 7.79 7.29
6/23/2022 8:15:00 PM 19.7 67.46 0.331 7.73 7.4 7.18
6/23/2022 8:30:00 PM 19.8 67.64 0.324 7.74 7.19 7.14
6/23/2022 8:45:00 PM 19.76 67.568 0.325 7.72 8.75 7.07
6/23/2022 9:00:00 PM 19.65 67.37 0.33 7.72 7.96 7.01
6/23/2022 9:15:00 PM 19.63 67.334 0.332 7.72 8.64 6.94
6/23/2022 9:30:00 PM 19.58 67.244 0.331 7.71 9.1 6.84
6/23/2022 9:45:00 PM 19.57 67.226 0.343 7.71 8.66 6.77
6/23/2022 10:00:00 PM 19.51 67.118 0.342 7.68 9.31 6.68
6/23/2022 10:15:00 PM 19.51 67.118 0.341 7.69 9.17 6.63
6/23/2022 10:30:00 PM 19.38 66.884 0.348 7.67 10.05 6.54
6/23/2022 10:45:00 PM 19.37 66.866 0.344 7.67 9.2 6.55
6/23/2022 11:00:00 PM 19.32 66.776 0.349 7.66 9.9 6.48
6/23/2022 11:15:00 PM 19.22 66.596 0.357 7.66 9.81 6.44
6/23/2022 11:30:00 PM 19.16 66.488 0.353 7.65 9.42 6.37
6/23/2022 11:45:00 PM 19.14 66.452 0.355 7.66 9.21 6.39
6/24/2022 12:00:00 AM 19.04 66.272 0.353 7.65 9.9 6.38
6/24/2022 12:15:00 AM 19 66.2 0.353 7.65 10 6.34
6/24/2022 12:30:00 AM 18.88 65.984 0.351 7.65 9.41 6.3
6/24/2022 12:45:00 AM 18.86 65.948 0.357 7.63 9.71 6.27
6/24/2022 1:00:00 AM 18.76 65.768 0.355 7.63 9.61 6.27
6/24/2022 1:15:00 AM 18.67 65.606 0.363 7.62 9.72 6.26
6/24/2022 1:30:00 AM 18.58 65.444 0.36 7.63 10.4 6.23
6/24/2022 1:45:00 AM 18.48 65.264 0.358 7.62 10.03 6.24
6/24/2022 2:00:00 AM 18.4 65.12 0.366 7.63 9.82 6.26
6/24/2022 2:15:00 AM 18.32 64.976 0.362 7.61 10.18 6.23
6/24/2022 2:30:00 AM 18.24 64.832 0.37 7.62 10.37 6.22
6/24/2022 2:45:00 AM 18.19 64.742 0.369 7.62 10.01 6.26
6/24/2022 3:00:00 AM 18.1 64.58 0.987 7.6 9.96 6.24
6/24/2022 3:15:00 AM 17.97 64.346 0.92 7.59 9.92 6.14
6/24/2022 3:30:00 AM 17.97 64.346 2.247 7.59 10.31 6.2
6/24/2022 3:45:00 AM 17.93 64.274 2.16 7.6 10.59 6.22
6/24/2022 4:00:00 AM 17.85 64.13 2.164 7.59 10.29 6.19
6/24/2022 4:15:00 AM 17.8 64.04 2.098 7.6 10.2 6.22
6/24/2022 4:30:00 AM 17.76 63.968 1.929 7.6 10.19 6.22
6/24/2022 4:45:00 AM 17.7 63.86 1.971 7.6 10.65 6.24
6/24/2022 5:00:00 AM 17.65 63.77 1.823 7.58 11.23 6.26
6/24/2022 5:15:00 AM 17.56 63.608 1.55 7.59 10.91 6.27
6/24/2022 5:30:00 AM 17.31 63.158 1.238 7.59 10.69 6.25
6/24/2022 5:45:00 AM 17.46 63.428 1.417 7.6 10.58 6.26
6/24/2022 6:00:00 AM 17.42 63.356 1.472 7.61 10.11 6.29
6/24/2022 6:15:00 AM 17.39 63.302 1.463 7.6 9.6 6.32
6/24/2022 6:30:00 AM 17.32 63.176 1.501 7.61 10.12 6.32
6/24/2022 6:45:00 AM 17.29 63.122 1.418 7.6 10.78 6.37
6/24/2022 7:00:00 AM 17.28 63.104 1.626 7.61 10.05 6.4
6/24/2022 7:15:00 AM 17.19 62.942 1.214 7.61 9.56 6.45
6/24/2022 7:30:00 AM 17.21 62.978 1.304 7.62 9.26 6.53
6/24/2022 7:45:00 AM 17.19 62.942 1.225 7.6 9.24 6.55
6/24/2022 8:00:00 AM 17.16 62.888 1.863 7.61 9.36 6.65
6/24/2022 8:15:00 AM 17.18 62.924 1.837 7.62 8.39 6.72
6/24/2022 8:30:00 AM 17.21 62.978 1.812 7.63 8.47 6.84
6/24/2022 8:45:00 AM 17.15 62.87 1.645 7.63 7.85 6.86
6/24/2022 9:00:00 AM 17.23 63.014 1.533 7.64 8.1 7.01
6/24/2022 9:15:00 AM 17.32 63.176 1.435 7.66 7.42 7.11
6/24/2022 9:30:00 AM 17.34 63.212 1.522 7.67 7.31 7.24
6/24/2022 9:45:00 AM 17.59 63.662 0.522 7.67 7.03 7.36
6/24/2022 10:00:00 AM 17.67 63.806 0.525 7.68 6.98 7.47
6/24/2022 10:15:00 AM 17.94 64.292 0.588 7.7 6.62 7.6
6/24/2022 10:30:00 AM 18.06 64.508 0.636 7.71 6.88 7.73
6/24/2022 10:45:00 AM 18.16 64.688 0.661 7.71 6.42 7.81
6/24/2022 11:00:00 AM 18.39 65.102 0.681 7.72 6.68 7.9
6/24/2022 11:15:00 AM 18.43 65.174 0.718 7.73 6.45 7.99
6/24/2022 11:30:00 AM 18.53 65.354 0.768 7.74 6.42 8.01
6/24/2022 11:45:00 AM 18.96 66.128 0.825 7.76 5.91 8.23
6/24/2022 12:00:00 PM 18.9 66.02 1.214 7.75 6.09 8.16
6/24/2022 12:15:00 PM 19.09 66.362 0.808 7.78 6.39 8.29
6/24/2022 12:30:00 PM 19.04 66.272 0.783 7.77 6.18 8.29
6/24/2022 12:45:00 PM 19.34 66.812 0.934 7.77 5.81 8.23
6/24/2022 1:00:00 PM 19.48 67.064 0.947 7.8 5.9 8.54
6/24/2022 1:15:00 PM 19.38 66.884 0.96 7.78 5.86 8.41
6/24/2022 1:30:00 PM 19.56 67.208 1.051 7.79 5.99 8.38
6/24/2022 1:45:00 PM 19.65 67.37 1.102 7.8 5.69 8.51
6/24/2022 2:00:00 PM 19.83 67.694 1.137 7.8 6.02 8.32
6/24/2022 2:15:00 PM 19.97 67.946 1.625 7.83 5.74 8.46
6/24/2022 2:30:00 PM 20.14 68.252 1.544 7.84 5.45 8.43
6/24/2022 2:45:00 PM 19.89 67.802 1.31 7.82 5.44 8.29
6/24/2022 3:00:00 PM 20.04 68.07201 1.47 7.83 5.2 8.43
6/24/2022 3:15:00 PM 19.99 67.982 1.778 7.83 5.28 8.49
6/24/2022 3:30:00 PM 20.26 68.468 1.437 7.84 5.98 8.47
6/24/2022 3:45:00 PM 20.28 68.504 1.487 7.83 5.53 8.43
6/24/2022 4:00:00 PM 20.44 68.792 1.571 7.85 5.49 8.55
6/24/2022 4:15:00 PM 20.37 68.666 1.127 7.83 5.24 8.43
6/24/2022 4:30:00 PM 20.26 68.468 0.714 7.83 5.11 8.31
6/24/2022 4:45:00 PM 20 68 0.842 7.78 9.22 7.59
6/24/2022 5:00:00 PM 20.2 68.36 0.817 7.83 5.55 8.15
6/24/2022 5:15:00 PM 20.04 68.07201 0.67 7.77 4.94 7.59
6/24/2022 5:30:00 PM 20.43 68.774 0.6 7.81 4.99 8.11
6/24/2022 5:45:00 PM 20.64 69.152 0.635 7.84 5.18 8.26
6/24/2022 6:00:00 PM 20.51 68.918 0.653 7.82 4.96 8.01
6/24/2022 6:15:00 PM 20.53 68.954 0.596 7.83 5.16 8.1
6/24/2022 6:30:00 PM 20.47 68.846 0.564 7.82 5.3 7.84
6/24/2022 6:45:00 PM 20.41 68.738 0.523 7.81 5.52 7.58
6/24/2022 7:00:00 PM 20.35 68.63 0.651 7.82 5.09 7.65
6/24/2022 7:15:00 PM 20.46 68.828 0.824 7.78 5.65 7.47
6/24/2022 7:30:00 PM 20.42 68.756 1.195 7.78 5.15 7.35
6/24/2022 7:45:00 PM 20.59 69.062 2.932 7.77 5.59 7.25
6/24/2022 8:00:00 PM 20.56 69.008 3.198 7.77 5.4 7.19
6/24/2022 8:15:00 PM 20.4 68.72 3.25 7.75 5.15 6.91
6/24/2022 8:30:00 PM 20.37 68.666 3.249 7.73 5.46 6.95
6/24/2022 8:45:00 PM 20.45 68.81 3.242 7.74 5.93 6.88
6/24/2022 9:00:00 PM 20.39 68.702 3.191 7.73 5.63 6.75
6/24/2022 9:15:00 PM 20.21 68.378 3.087 7.72 6.37 6.63
6/24/2022 9:30:00 PM 20.02 68.036 3.091 7.69 5.97 6.51
6/24/2022 9:45:00 PM 20.01 68.018 3.081 7.69 6.29 6.43
6/24/2022 10:00:00 PM 19.94 67.892 3.059 7.69 7.15 6.34
6/24/2022 10:15:00 PM 19.64 67.352 2.845 7.64 6.96 5.99
6/24/2022 10:30:00 PM 19.54 67.172 1.471 7.67 6.98 5.99
6/24/2022 10:45:00 PM 19.74 67.532 1.083 7.69 6.9 6.24
6/24/2022 11:00:00 PM 19.59 67.262 0.737 7.66 6.6 6.22
6/24/2022 11:15:00 PM 19.57 67.226 0.782 7.67 7.45 6.2
6/24/2022 11:30:00 PM 19.51 67.118 0.586 7.66 7.31 6.13
6/24/2022 11:45:00 PM 19.4 66.92 0.531 7.65 6.98 6.1
6/25/2022 12:00:00 AM 19.28 66.704 0.544 7.64 7.11 6.02
6/25/2022 12:15:00 AM 19.17 66.506 0.504 7.64 7.51 5.95
6/25/2022 12:30:00 AM 19.16 66.488 0.525 7.64 7.38 6.03
6/25/2022 12:45:00 AM 18.97 66.146 0.772 7.63 7.19 5.94
6/25/2022 1:00:00 AM 18.96 66.128 0.596 7.64 7.58 5.95
6/25/2022 1:15:00 AM 18.68 65.624 0.542 7.61 7.48 5.79
6/25/2022 1:30:00 AM 18.69 65.642 0.535 7.62 7.18 5.9
6/25/2022 1:45:00 AM 18.63 65.534 0.6 7.62 7.17 5.84
6/25/2022 2:00:00 AM 18.54 65.372 0.648 7.61 7.54 5.84
6/25/2022 2:15:00 AM 18.48 65.264 0.399 7.61 7.59 5.86
6/25/2022 2:30:00 AM 18.25 64.85 0.65 7.6 7.46 5.85
6/25/2022 2:45:00 AM 18.33 64.994 0.523 7.62 7.84 5.97
6/25/2022 3:00:00 AM 18.26 64.868 0.513 7.62 7.73 5.91
6/25/2022 3:15:00 AM 18.11 64.598 0.55 7.61 7.93 5.93
6/25/2022 3:30:00 AM 18.06 64.508 0.594 7.6 7.51 5.94
6/25/2022 3:45:00 AM 17.87 64.166 0.744 7.6 8.38 5.86
6/25/2022 4:00:00 AM 17.82 64.076 0.79 7.59 7.63 5.86
6/25/2022 4:15:00 AM 17.8 64.04 0.781 7.59 8.19 5.88
6/25/2022 4:30:00 AM 17.62 63.716 0.684 7.59 8.23 5.88
6/25/2022 4:45:00 AM 17.66 63.788 0.589 7.6 8.7 5.92
6/25/2022 5:00:00 AM 17.6 63.68 0.536 7.6 8.44 5.87
6/25/2022 5:15:00 AM 17.54 63.572 0.585 7.6 8.09 6.01
6/25/2022 5:30:00 AM 17.42 63.356 0.622 7.6 8.95 5.93
6/25/2022 5:45:00 AM 17.21 62.978 0.588 7.59 8.97 5.96
6/25/2022 6:00:00 AM 17.27 63.086 0.575 7.6 8.05 5.99
6/25/2022 6:15:00 AM 17.09 62.762 0.581 7.58 9.86 6.03
6/25/2022 6:30:00 AM 17.31 63.158 0.554 7.61 10 6.19
6/25/2022 6:45:00 AM 17.17 62.906 0.529 7.61 7.97 6.15
6/25/2022 7:00:00 AM 17.23 63.014 0.502 7.62 8.49 6.28
6/25/2022 7:15:00 AM 17.09 62.762 1.094 7.61 8.1 6.23
6/25/2022 7:30:00 AM 16.98 62.564 1.383 7.6 7.61 6.21
6/25/2022 7:45:00 AM 17.15 62.87 0.629 7.63 7.67 6.44
6/25/2022 8:00:00 AM 16.93 62.474 0.765 7.62 6.97 6.44
6/25/2022 8:15:00 AM 16.96 62.528 0.816 7.62 7.21 6.47
6/25/2022 8:30:00 AM 16.96 62.528 0.802 7.63 7.33 6.57
6/25/2022 8:45:00 AM 17.1 62.78 0.5 7.64 6.76 6.72
6/25/2022 9:00:00 AM 16.93 62.474 0.53 7.63 6.61 6.86
6/25/2022 9:15:00 AM 17.19 62.942 0.515 7.64 6.74 6.78
6/25/2022 9:30:00 AM 17.37 63.266 0.533 7.66 6.04 7.07
6/25/2022 9:45:00 AM 17.32 63.176 0.552 7.64 6.78 7.11
6/25/2022 10:00:00 AM 17.7 63.86 0.495 7.67 6.4 7.31
6/25/2022 10:15:00 AM 17.9 64.22 0.51 7.69 8.26 7.44
6/25/2022 10:30:00 AM 17.99 64.382 0.483 7.7 7.11 7.45
6/25/2022 10:45:00 AM 18.24 64.832 0.432 7.71 5.72 7.71
6/25/2022 11:00:00 AM 18.45 65.21 0.534 7.73 5.74 7.84
6/25/2022 11:15:00 AM 18.43 65.174 0.505 7.73 5.85 7.99
6/25/2022 11:30:00 AM 18.74 65.732 0.491 7.74 5.42 7.99
6/25/2022 11:45:00 AM 18.92 66.056 0.499 7.75 5.56 8.15
6/25/2022 12:00:00 PM 19.12 66.416 0.47 7.75 5.61 8.12
6/25/2022 12:15:00 PM 19.09 66.362 0.506 7.72 5.77 7.86
6/25/2022 12:30:00 PM 19.56 67.208 0.496 7.78 5.51 8.39
6/25/2022 12:45:00 PM 19.79 67.622 0.446 7.78 5.43 8.39
6/25/2022 1:00:00 PM 19.96 67.92799 0.456 7.78 8.61 8.4
6/25/2022 1:15:00 PM 20.15 68.27 0.457 7.78 5.37 8.42
6/25/2022 1:30:00 PM 20.4 68.72 0.466 7.79 4.97 8.49
6/25/2022 1:45:00 PM 20.58 69.044 0.468 7.8 5.48 8.58
6/25/2022 2:00:00 PM 20.73 69.314 0.466 7.78 5.52 8.4
6/25/2022 2:15:00 PM 20.8 69.44 0.443 7.77 5.37 8.08
6/25/2022 2:30:00 PM 21.15 70.07 0.469 7.81 5.53 8.53
6/25/2022 2:45:00 PM 21.13 70.034 0.484 7.79 5.26 8.38
6/25/2022 3:00:00 PM 21.42 70.556 0.482 7.79 5.33 8.48
6/25/2022 3:15:00 PM 21.63 70.934 0.486 7.81 5.27 8.49
6/25/2022 3:30:00 PM 21.87 71.366 0.462 7.83 5.35 8.42
6/25/2022 3:45:00 PM 21.61 70.898 0.444 7.81 5.72 8.2
6/25/2022 4:00:00 PM 21.79 71.222 0.461 7.81 5.47 8.3
6/25/2022 4:15:00 PM 21.85 71.33 0.474 7.83 4.97 8.42
6/25/2022 4:30:00 PM 22.04 71.672 0.462 7.81 5.3 8.27
6/25/2022 4:45:00 PM 21.92 71.456 0.478 7.83 5.38 8.25
6/25/2022 5:00:00 PM 22.28 72.104 0.49 7.86 5.41 8.46
6/25/2022 5:15:00 PM 22.03 71.654 0.461 7.8 5.24 7.74
6/25/2022 5:30:00 PM 21.92 71.456 0.486 7.77 4.93 7.84
6/25/2022 5:45:00 PM 21.95 71.51 0.471 7.79 5.1 7.76
6/25/2022 6:00:00 PM 21.96 71.528 0.48 7.78 4.93 7.65
6/25/2022 6:15:00 PM 22.2 71.96 0.494 7.83 5 7.87
6/25/2022 6:30:00 PM 21.94 71.492 0.572 7.8 5.18 7.49
6/25/2022 6:45:00 PM 21.8 71.24 0.548 7.77 5.19 7.25
6/25/2022 7:00:00 PM 21.86 71.348 0.582 7.79 5.38 7.22
6/25/2022 7:15:00 PM 21.59 70.862 0.55 7.75 5.1 6.87
6/25/2022 7:30:00 PM 21.68 71.024 0.599 7.76 5.03 6.7
6/25/2022 7:45:00 PM 21.73 71.114 0.576 7.75 5.34 6.73
6/25/2022 8:00:00 PM 21.89 71.402 0.559 7.74 5.31 6.71
6/25/2022 8:15:00 PM 21.53 70.754 0.547 7.72 5.69 6.45
6/25/2022 8:30:00 PM 21.74 71.132 0.498 7.72 5.76 6.28
6/25/2022 8:45:00 PM 21.45 70.61 0.48 7.7 5.64 6.25
6/25/2022 9:00:00 PM 21.68 71.024 0.631 7.72 6.13 6.28
6/25/2022 9:15:00 PM 21.32 70.376 0.53 7.68 6.12 6
6/25/2022 9:30:00 PM 21.31 70.358 0.552 7.69 6.88 5.91
6/25/2022 9:45:00 PM 21.17 70.106 0.55 7.66 6.25 5.76
6/25/2022 10:00:00 PM 21.45 70.61 0.579 7.69 6.77 6.02
6/25/2022 10:15:00 PM 21.11 69.998 0.581 7.67 7.29 5.71
6/25/2022 10:30:00 PM 20.95 69.71 0.553 7.63 6.79 5.38
6/25/2022 10:45:00 PM 20.87 69.566 0.565 7.64 8.51 5.58
6/25/2022 11:00:00 PM 21 69.8 0.575 7.66 7.45 5.71
6/25/2022 11:15:00 PM 20.77 69.386 0.503 7.64 7.78 5.45
6/25/2022 11:30:00 PM 20.35 68.63 0.565 7.62 6.96 5.18
6/25/2022 11:45:00 PM 20.51 68.918 0.538 7.62 7.37 5.2
6/26/2022 12:00:00 AM 20.41 68.738 0.529 7.61 7.12 5.36
6/26/2022 12:15:00 AM 20.55 68.99 0.566 7.63 8.19 5.42
6/26/2022 12:30:00 AM 20.54 68.972 0.493 7.63 7.63 5.39
6/26/2022 12:45:00 AM 20.21 68.378 0.507 7.58 7.29 5.15
6/26/2022 1:00:00 AM 20.15 68.27 0.55 7.6 7.96 5.16
6/26/2022 1:15:00 AM 19.92 67.856 0.549 7.58 7.12 5.05
6/26/2022 1:30:00 AM 20.13 68.234 0.546 7.6 7.21 5.27
6/26/2022 1:45:00 AM 19.91 67.838 0.55 7.59 7.88 4.94
6/26/2022 2:00:00 AM 19.68 67.424 0.559 7.58 7.55 5.11
6/26/2022 2:15:00 AM 19.59 67.262 0.552 7.58 7.59 5.07
6/26/2022 2:30:00 AM 19.52 67.136 0.558 7.59 7.13 5.23
6/26/2022 2:45:00 AM 19.57 67.226 0.561 7.6 7.6 5.37
6/26/2022 3:00:00 AM 19.35 66.83 0.573 7.58 7.36 5.22
6/26/2022 3:15:00 AM 19.29 66.722 0.571 7.6 7.41 5.36
6/26/2022 3:30:00 AM 19.29 66.722 0.578 7.58 9.69 5.09
6/26/2022 3:45:00 AM 19.22 66.596 0.605 7.59 7.63 5.28
6/26/2022 4:00:00 AM 19.01 66.218 0.595 7.59 7.68 5.37
6/26/2022 4:15:00 AM 18.88 65.984 0.619 7.58 8.35 5.31
6/26/2022 4:30:00 AM 18.53 65.354 0.616 7.57 8.2 5.13
6/26/2022 4:45:00 AM 18.78 65.804 0.607 7.59 8.06 5.43
6/26/2022 5:00:00 AM 18.68 65.624 0.581 7.59 8.3 5.37
6/26/2022 5:15:00 AM 18.64 65.552 0.63 7.6 9.21 5.52
6/26/2022 5:30:00 AM 18.29 64.922 0.641 7.59 8.18 5.47
6/26/2022 5:45:00 AM 18.26 64.868 0.526 7.59 8.45 5.5
6/26/2022 6:00:00 AM 18.37 65.066 0.423 7.59 8.35 5.59
6/26/2022 6:15:00 AM 17.66 63.788 0.478 7.53 25.88 5.1
6/26/2022 6:30:00 AM 17.92 64.256 0.521 7.58 9.26 5.48
6/26/2022 6:45:00 AM 17.97 64.346 0.504 7.59 15.86 5.58
6/26/2022 7:00:00 AM 18.02 64.436 0.491 7.6 8.58 5.77
6/26/2022 7:15:00 AM 17.84 64.112 0.5 7.59 7.77 5.7
6/26/2022 7:30:00 AM 17.97 64.346 0.522 7.61 7.61 5.84
6/26/2022 7:45:00 AM 17.99 64.382 0.509 7.61 7.25 5.99
6/26/2022 8:00:00 AM 17.77 63.986 0.424 7.59 7.21 5.81
6/26/2022 8:15:00 AM 17.94 64.292 0.501 7.62 7.18 6.11
6/26/2022 8:30:00 AM 17.89 64.202 0.484 7.61 6.83 6.1
6/26/2022 8:45:00 AM 17.8 64.04 0.493 7.61 6.12 6.04
6/26/2022 9:00:00 AM 17.84 64.112 0.466 7.63 5.36 6.3
6/26/2022 9:15:00 AM 18.13 64.634 0.473 7.64 15.8 6.53
6/26/2022 9:30:00 AM 18.06 64.508 0.474 7.63 6.52 6.24
6/26/2022 9:45:00 AM 18.36 65.048 0.473 7.66 6.64 6.7
6/26/2022 10:00:00 AM 18.61 65.498 0.47 7.68 6.26 6.99
6/26/2022 10:15:00 AM 18.68 65.624 0.471 7.68 5.84 7.04
6/26/2022 10:30:00 AM 18.86 65.948 0.466 7.71 5.24 7.27
6/26/2022 10:45:00 AM 19.1 66.38 0.459 7.69 5.53 7
6/26/2022 11:00:00 AM 19.16 66.488 0.454 7.7 5.16 7.16
6/26/2022 11:15:00 AM 19.27 66.686 0.436 7.72 5.47 7.39
6/26/2022 11:30:00 AM 19.29 66.722 0.441 7.71 5.94 7.31
6/26/2022 11:45:00 AM 19.81 67.658 0.431 7.75 4.94 7.78
6/26/2022 12:00:00 PM 19.87 67.766 0.433 7.76 5.46 7.72
6/26/2022 12:15:00 PM 19.91 67.838 0.435 7.75 4.64 7.66
6/26/2022 12:30:00 PM 20.32 68.576 0.433 7.76 5.39 7.99
6/26/2022 12:45:00 PM 20.34 68.612 0.432 7.76 5.45 7.84
6/26/2022 1:00:00 PM 20.49 68.882 0.433 7.76 5.06 7.79
6/26/2022 1:15:00 PM 20.81 69.458 0.431 7.78 5.11 8.03
6/26/2022 1:30:00 PM 21.15 70.07 0.428 7.78 5.3 8.1
6/26/2022 1:45:00 PM 21.57 70.826 0.427 7.82 5.07 8.45
6/26/2022 2:00:00 PM 21.63 70.934 0.428 7.79 5.14 8.24
6/26/2022 2:15:00 PM 21.62 70.916 0.425 7.83 5.3 8.37
6/26/2022 2:30:00 PM 22.3 72.14 0.447 7.84 5.31 8.5
6/26/2022 2:45:00 PM 22.17 71.906 0.426 7.79 5.43 8.47
6/26/2022 3:00:00 PM 22.15 71.87 0.425 7.84 5.29 8.25
6/26/2022 3:15:00 PM 22.49 72.482 0.419 7.82 5.07 8.45
6/26/2022 3:30:00 PM 22.72 72.896 0.423 7.85 5.04 8.59
6/26/2022 3:45:00 PM 22.66 72.788 0.43 7.86 5.01 8.42
6/26/2022 4:00:00 PM 22.44 72.392 0.438 7.84 4.97 8.24
6/26/2022 4:15:00 PM 22.25 72.05 0.459 7.82 5.17 7.86
6/26/2022 4:30:00 PM 22.34 72.212 0.475 7.82 5.45 7.87
6/26/2022 4:45:00 PM 22.25 72.05 0.487 7.82 5.44 7.76
6/26/2022 5:00:00 PM 22.32 72.176 0.473 7.81 4.96 7.15
6/26/2022 5:15:00 PM 22.49 72.482 0.465 7.84 4.97 7.76
6/26/2022 5:30:00 PM 22.2 71.96 0.481 7.79 5.06 7.22
6/26/2022 5:45:00 PM 22.25 72.05 0.406 7.82 5.56 7.57
6/26/2022 6:00:00 PM 21.79 71.222 0.407 7.8 6.31 7.22
6/26/2022 6:15:00 PM 21.62 70.916 0.41 7.78 6.24 6.84
6/26/2022 6:30:00 PM 21.61 70.898 0.408 7.76 6.33 6.56
6/26/2022 6:45:00 PM 21.92 71.456 0.405 7.77 5.84 6.89
6/26/2022 7:00:00 PM 21.95 71.51 0.402 7.78 6.38 6.69
6/26/2022 7:15:00 PM 21.8 71.24 0.405 7.77 6.31 6.69
6/26/2022 7:30:00 PM 21.92 71.456 0.4 7.77 6.43 6.62
6/26/2022 7:45:00 PM 21.58 70.844 0.405 7.74 6.08 6.23
6/26/2022 8:00:00 PM 21.74 71.132 0.401 7.74 6.44 6.35
6/26/2022 8:15:00 PM 21.51 70.718 0.402 7.7 6.34 6.12
6/26/2022 8:30:00 PM 21.52 70.736 0.401 7.71 6.35 6.09
6/26/2022 8:45:00 PM 21.53 70.754 0.401 7.7 6.62 5.92
6/26/2022 9:00:00 PM 21.35 70.43 0.402 7.68 6.74 5.79
6/26/2022 9:15:00 PM 21.37 70.466 0.4 7.69 6.89 5.8
6/26/2022 9:30:00 PM 21.47 70.646 0.399 7.68 6.98 5.65
6/26/2022 9:45:00 PM 21.44 70.592 0.402 7.67 7.34 5.68
6/26/2022 10:00:00 PM 21.45 70.61 0.4 7.67 7.35 5.58
6/26/2022 10:15:00 PM 21.18 70.124 0.404 7.66 7.74 5.35
6/26/2022 10:30:00 PM 21.45 70.61 0.4 7.66 7.43 5.57
6/26/2022 10:45:00 PM 21.45 70.61 0.399 7.65 7.75 5.37
6/26/2022 11:00:00 PM 21.31 70.358 0.401 7.64 8.34 5.33
6/26/2022 11:15:00 PM 21.33 70.394 0.399 7.63 8.19 5.28
6/26/2022 11:30:00 PM 21.13 70.034 0.4 7.61 7.9 5.1
6/26/2022 11:45:00 PM 21.06 69.908 0.4 7.6 8.9 4.92
6/27/2022 12:00:00 AM 20.94 69.692 0.4 7.6 8.58 5
6/27/2022 12:15:00 AM 21.14 70.052 0.396 7.6 8.43 4.99
6/27/2022 12:30:00 AM 20.85 69.53 0.402 7.6 9.15 4.95
6/27/2022 12:45:00 AM 20.95 69.71 0.401 7.59 9.02 4.93
6/27/2022 1:00:00 AM 20.78 69.404 0.402 7.59 9.59 4.97
6/27/2022 1:15:00 AM 20.63 69.134 0.406 7.56 9.08 4.78
6/27/2022 1:30:00 AM 20.62 69.116 0.406 7.58 9.14 4.89
6/27/2022 1:45:00 AM 20.59 69.062 0.405 7.58 8.65 4.89
6/27/2022 2:00:00 AM 20.62 69.116 0.403 7.59 8.84 5.05
6/27/2022 2:15:00 AM 20.59 69.062 0.404 7.58 9.14 5.03
6/27/2022 2:30:00 AM 20.38 68.684 0.405 7.59 8.43 4.95
6/27/2022 2:45:00 AM 20.18 68.324 0.409 7.59 8.98 5.01
6/27/2022 3:00:00 AM 20.21 68.378 0.414 7.58 8.91 5.07
6/27/2022 3:15:00 AM 20.38 68.684 0.406 7.59 9.5 5.2
6/27/2022 3:30:00 AM 20.2 68.36 0.408 7.59 8.78 5.12
6/27/2022 3:45:00 AM 20.24 68.432 0.406 7.6 8.77 5.21
6/27/2022 4:00:00 AM 20.13 68.234 0.406 7.6 7.87 5.21
6/27/2022 4:15:00 AM 20.05 68.09 0.409 7.59 9.2 5.26
6/27/2022 4:30:00 AM 19.99 67.982 0.408 7.58 8.58 5.18
6/27/2022 4:45:00 AM 19.99 67.982 0.408 7.58 9.1 5.28
6/27/2022 5:00:00 AM 19.97 67.946 0.408 7.6 8.78 5.38
6/27/2022 5:15:00 AM 19.81 67.658 0.408 7.59 9.25 5.36
6/27/2022 5:30:00 AM 19.77 67.586 0.41 7.58 9.35 5.27
6/27/2022 5:45:00 AM 19.69 67.442 0.411 7.6 10.43 5.32
6/27/2022 6:00:00 AM 19.55 67.19 0.413 7.59 9.24 5.29
6/27/2022 6:15:00 AM 19.55 67.19 0.413 7.57 8.66 5.26
6/27/2022 6:30:00 AM 19.62 67.316 0.411 7.58 9.16 5.42
6/27/2022 6:45:00 AM 19.32 66.776 0.414 7.58 8.9 5.3
6/27/2022 7:00:00 AM 19.35 66.83 0.415 7.58 8.7 5.41
6/27/2022 7:15:00 AM 19.28 66.704 0.414 7.59 8.43 5.44
6/27/2022 7:30:00 AM 19.22 66.596 0.415 7.61 8.12 5.53
6/27/2022 7:45:00 AM 19.23 66.614 0.412 7.58 8.81 5.57
6/27/2022 8:00:00 AM 19.31 66.758 0.411 7.62 8.16 5.59
6/27/2022 8:15:00 AM 19.21 66.578 0.415 7.59 8.94 5.73
6/27/2022 8:30:00 AM 19.22 66.596 0.414 7.63 7.61 5.85
6/27/2022 8:45:00 AM 19.24 66.632 0.411 7.62 8.69 5.91
6/27/2022 9:00:00 AM 19.34 66.812 0.41 7.64 7.68 6
6/27/2022 9:15:00 AM 19.18 66.524 0.413 7.63 7.45 6.1
6/27/2022 9:30:00 AM 19.23 66.614 0.411 7.64 7.21 6.11
6/27/2022 9:45:00 AM 19.31 66.758 0.413 7.64 6.76 6.11
6/27/2022 10:00:00 AM 19.5 67.1 0.41 7.66 6.83 6.39
6/27/2022 10:15:00 AM 19.49 67.082 0.411 7.67 6.18 6.62
6/27/2022 10:30:00 AM 19.73 67.514 0.409 7.68 6.18 6.85
6/27/2022 10:45:00 AM 19.87 67.766